Provisional Data: Loyalsock Creek near Ringdale, PA


Please select a monitoring station.
Please select start date.
Please select start date.

Toggle Unit: C/F Toggle Unit: C/F
Sample Time Temperature (C) Temperature (F) Specific Conductivity (mS/cm) pH   Turbidity (NTU+) DO (mg/L)
12/4/2020 12:00:00 AM 2.74 36.932 0.025 6.39 2.44 12.88
12/4/2020 12:15:00 AM 2.74 36.932 0.026 6.38 2.46 12.87
12/4/2020 12:30:00 AM 2.75 36.95 0.025 6.38 2.44 12.87
12/4/2020 12:45:00 AM 2.76 36.968 0.026 6.39 2.53 12.87
12/4/2020 1:00:00 AM 2.77 36.986 0.026 6.38 2.47 12.86
12/4/2020 1:15:00 AM 2.76 36.968 0.025 6.38 2.48 12.87
12/4/2020 1:30:00 AM 2.75 36.95 0.025 6.39 2.41 12.86
12/4/2020 1:45:00 AM 2.74 36.932 0.026 6.39 2.43 12.85
12/4/2020 2:00:00 AM 2.71 36.878 0.026 6.39 2.49 12.87
12/4/2020 2:15:00 AM 2.7 36.86 0.025 6.38 2.48 12.87
12/4/2020 2:30:00 AM 2.7 36.86 0.025 6.38 2.44 12.86
12/4/2020 2:45:00 AM 2.68 36.824 0.025 6.39 2.4 12.86
12/4/2020 3:00:00 AM 2.67 36.806 0.025 6.38 2.4 12.87
12/4/2020 3:15:00 AM 2.66 36.788 0.025 6.39 2.44 12.88
12/4/2020 3:30:00 AM 2.66 36.788 0.026 6.38 2.69 12.87
12/4/2020 3:45:00 AM 2.65 36.77 0.027 6.39 2.46 12.88
12/4/2020 4:00:00 AM 2.66 36.788 0.025 6.39 2.38 12.88
12/4/2020 4:15:00 AM 2.66 36.788 0.026 6.39 2.46 12.88
12/4/2020 4:30:00 AM 2.68 36.824 0.025 6.39 2.34 12.87
12/4/2020 4:45:00 AM 2.68 36.824 0.025 6.39 2.43 12.88
12/4/2020 5:00:00 AM 2.69 36.842 0.025 6.39 2.38 12.88
12/4/2020 5:15:00 AM 2.7 36.86 0.026 6.39 2.4 12.86
12/4/2020 5:30:00 AM 2.7 36.86 0.025 6.39 2.41 12.87
12/4/2020 5:45:00 AM 2.7 36.86 0.025 6.39 2.37 12.87
12/4/2020 6:00:00 AM 2.7 36.86 0.025 6.39 2.44 12.87
12/4/2020 6:15:00 AM 2.71 36.878 0.025 6.39 2.52 12.87
12/4/2020 6:30:00 AM 2.72 36.896 0.025 6.39 2.36 12.86
12/4/2020 6:45:00 AM 2.73 36.914 0.026 6.39 2.43 12.87
12/4/2020 7:00:00 AM 2.73 36.914 0.025 6.39 2.36 12.87
12/4/2020 7:15:00 AM 2.73 36.914 0.025 6.38 2.31 12.85
12/4/2020 7:30:00 AM 2.71 36.878 0.025 6.38 2.42 12.87
12/4/2020 7:45:00 AM 2.68 36.824 0.025 6.39 2.35 12.89
12/4/2020 8:00:00 AM 2.66 36.788 0.026 6.39 2.4 12.91
12/4/2020 8:15:00 AM 2.64 36.752 0.026 6.39 2.36 12.93
12/4/2020 8:30:00 AM 2.64 36.752 0.024 6.4 2.4 12.97
12/4/2020 8:45:00 AM 2.64 36.752 0.027 6.4 2.33 12.98
12/4/2020 9:00:00 AM 2.65 36.77 0.025 6.4 2.36 13
12/4/2020 9:15:00 AM 2.69 36.842 0.024 6.4 2.33 13.01
12/4/2020 9:30:00 AM 2.73 36.914 0.025 6.41 2.38 13.03
12/4/2020 9:45:00 AM 2.78 37.004 0.026 6.42 2.33 13.04
12/4/2020 10:00:00 AM 2.83 37.094 0.025 6.42 2.34 13.03
12/4/2020 10:15:00 AM 2.89 37.202 0.026 6.42 2.33 13.02
12/4/2020 10:30:00 AM 2.96 37.328 0.025 6.42 2.32 13.01
12/4/2020 10:45:00 AM 3.03 37.454 0.024 6.42 2.4 12.99
12/4/2020 11:00:00 AM 3.11 37.598 0.025 6.42 2.33 12.98
12/4/2020 11:15:00 AM 3.19 37.742 0.026 6.42 2.33 12.96
12/4/2020 11:30:00 AM 3.27 37.886 0.025 6.43 2.3 12.94
12/4/2020 11:45:00 AM 3.35 38.03 0.025 6.43 2.32 12.91
12/4/2020 12:00:00 PM 3.44 38.192 0.027 6.43 2.24 12.89
12/4/2020 12:15:00 PM 3.52 38.336 0.025 6.43 2.24 12.86
12/4/2020 12:30:00 PM 3.6 38.48 0.026 6.43 2.3 12.84
12/4/2020 12:45:00 PM 3.68 38.624 0.024 6.43 2.29 12.81
12/4/2020 1:00:00 PM 3.74 38.732 0.025 6.43 2.26 12.8
12/4/2020 1:15:00 PM 3.81 38.858 0.026 6.43 2.15 12.77
12/4/2020 1:30:00 PM 3.86 38.948 0.025 6.43 2.18 12.74
12/4/2020 1:45:00 PM 3.89 39.002 0.025 6.43 2.28 12.73
12/4/2020 2:00:00 PM 3.91 39.038 0.024 6.43 2.25 12.71
12/4/2020 2:15:00 PM 3.92 39.056 0.025 6.44 2.21 12.71
12/4/2020 2:30:00 PM 3.94 39.092 0.025 6.43 2.4 12.71
12/4/2020 2:45:00 PM 3.95 39.11 0.025 6.44 2.34 12.7
12/4/2020 3:00:00 PM 3.94 39.092 0.026 6.44 2.23 12.7
12/4/2020 3:15:00 PM 3.91 39.038 0.025 6.44 2.28 12.69
12/4/2020 3:30:00 PM 3.88 38.984 0.024 6.44 2.26 12.68
12/4/2020 3:45:00 PM 3.83 38.894 0.024 6.43 2.37 12.67
12/4/2020 4:00:00 PM 3.78 38.804 0.025 6.43 2.25 12.67
12/4/2020 4:15:00 PM 3.73 38.714 0.025 6.43 2.28 12.66
12/4/2020 4:30:00 PM 3.69 38.642 0.024 6.43 2.27 12.65
12/4/2020 4:45:00 PM 3.64 38.552 0.025 6.42 2.24 12.63
12/4/2020 5:00:00 PM 3.6 38.48 0.025 6.41 2.85 12.61
12/4/2020 5:15:00 PM 3.57 38.426 0.025 6.4 2.27 12.59
12/4/2020 5:30:00 PM 3.56 38.408 0.025 6.39 2.19 12.59
12/4/2020 5:45:00 PM 3.53 38.354 0.025 6.4 2.21 12.57
12/4/2020 6:00:00 PM 3.5 38.3 0.025 6.39 2.29 12.56
12/4/2020 6:15:00 PM 3.47 38.246 0.026 6.39 2.28 12.55
12/4/2020 6:30:00 PM 3.43 38.174 0.026 6.4 2.25 12.56
12/4/2020 6:45:00 PM 3.4 38.12 0.026 6.39 2.22 12.56
12/4/2020 7:00:00 PM 3.38 38.084 0.025 6.39 2.23 12.55
12/4/2020 7:15:00 PM 3.36 38.048 0.025 6.38 2.31 12.56
12/4/2020 7:30:00 PM 3.34 38.012 0.026 6.38 2.28 12.55
12/4/2020 7:45:00 PM 3.33 37.994 0.025 6.38 2.34 12.58
12/4/2020 8:00:00 PM 3.33 37.994 0.025 6.38 2.23 12.57
12/4/2020 8:15:00 PM 3.34 38.012 0.027 6.38 2.24 12.57
12/4/2020 8:30:00 PM 3.34 38.012 0.026 6.38 2.8 12.57
12/4/2020 8:45:00 PM 3.36 38.048 0.026 6.38 2.24 12.57
12/4/2020 9:00:00 PM 3.37 38.066 0.027 6.38 2.2 12.57
12/4/2020 9:15:00 PM 3.39 38.102 0.026 6.39 2.29 12.57
12/4/2020 9:30:00 PM 3.41 38.138 0.026 6.39 2.16 12.56
12/4/2020 9:45:00 PM 3.44 38.192 0.026 6.38 2.24 12.55
12/4/2020 10:00:00 PM 3.46 38.228 0.026 6.39 2.28 12.55
12/4/2020 10:15:00 PM 3.48 38.264 0.025 6.39 2.29 12.54
12/4/2020 10:30:00 PM 3.51 38.318 0.026 6.39 2.19 12.53
12/4/2020 10:45:00 PM 3.53 38.354 0.025 6.38 2.22 12.53
12/4/2020 11:00:00 PM 3.55 38.39 0.026 6.39 2.19 12.53
12/4/2020 11:15:00 PM 3.57 38.426 0.025 6.38 2.31 12.52
12/4/2020 11:30:00 PM 3.58 38.444 0.027 6.39 2.25 12.5
12/4/2020 11:45:00 PM 3.6 38.48 0.025 6.38 2.21 12.49
12/5/2020 12:00:00 AM 3.62 38.516 0.027 6.39 2.17 12.49
12/5/2020 12:15:00 AM 3.64 38.552 0.026 6.38 2.25 12.48
12/5/2020 12:30:00 AM 3.66 38.588 0.025 6.38 2.34 12.47
12/5/2020 12:45:00 AM 3.67 38.606 0.025 6.38 2.31 12.46
12/5/2020 1:00:00 AM 3.68 38.624 0.024 6.39 2.29 12.46
12/5/2020 1:15:00 AM 3.7 38.66 0.025 6.39 2.23 12.45
12/5/2020 1:30:00 AM 3.72 38.696 0.026 6.38 2.23 12.43
12/5/2020 1:45:00 AM 3.72 38.696 0.026 6.39 2.23 12.43
12/5/2020 2:00:00 AM 3.73 38.714 0.025 6.38 2.25 12.42
12/5/2020 2:15:00 AM 3.73 38.714 0.026 6.39 2.25 12.42
12/5/2020 2:30:00 AM 3.72 38.696 0.025 6.39 2.25 12.42
12/5/2020 2:45:00 AM 3.71 38.678 0.026 6.39 2.23 12.41
12/5/2020 3:00:00 AM 3.7 38.66 0.026 6.39 2.17 12.41
12/5/2020 3:15:00 AM 3.69 38.642 0.025 6.38 2.27 12.41
12/5/2020 3:30:00 AM 3.68 38.624 0.026 6.39 2.21 12.42
12/5/2020 3:45:00 AM 3.68 38.624 0.025 6.38 2.22 12.41
12/5/2020 4:00:00 AM 3.67 38.606 0.026 6.39 2.34 12.42
12/5/2020 4:15:00 AM 3.66 38.588 0.026 6.39 2.23 12.41
12/5/2020 4:30:00 AM 3.66 38.588 0.025 6.39 2.23 12.41
12/5/2020 4:45:00 AM 3.65 38.57 0.026 6.39 2.22 12.41
12/5/2020 5:00:00 AM 3.64 38.552 0.026 6.4 2.22 12.42
12/5/2020 5:15:00 AM 3.64 38.552 0.026 6.39 2.25 12.43
12/5/2020 5:30:00 AM 3.63 38.534 0.026 6.39 2.23 12.42
12/5/2020 5:45:00 AM 3.63 38.534 0.025 6.4 2.27 12.42
12/5/2020 6:00:00 AM 3.62 38.516 0.027 6.39 2.27 12.42
12/5/2020 6:15:00 AM 3.62 38.516 0.026 6.39 2.19 12.42
12/5/2020 6:30:00 AM 3.61 38.498 0.025 6.4 2.35 12.44
12/5/2020 6:45:00 AM 3.61 38.498 0.026 6.4 2.24 12.44
12/5/2020 7:00:00 AM 3.61 38.498 0.026 6.4 2.2 12.44
12/5/2020 7:15:00 AM 3.6 38.48 0.026 6.4 2.2 12.45
12/5/2020 7:30:00 AM 3.6 38.48 0.026 6.4 2.27 12.45
12/5/2020 7:45:00 AM 3.6 38.48 0.026 6.39 2.24 12.44
12/5/2020 8:00:00 AM 3.59 38.462 0.025 6.4 2.3 12.47
12/5/2020 8:15:00 AM 3.59 38.462 0.027 6.4 2.33 12.48
12/5/2020 8:30:00 AM 3.59 38.462 0.027 6.4 2.26 12.49
12/5/2020 8:45:00 AM 3.58 38.444 0.025 6.41 2.31 12.51
12/5/2020 9:00:00 AM 3.58 38.444 0.027 6.41 2.29 12.52
12/5/2020 9:15:00 AM 3.57 38.426 0.027 6.42 2.29 12.54
12/5/2020 9:30:00 AM 3.57 38.426 0.026 6.41 2.29 12.55
12/5/2020 9:45:00 AM 3.57 38.426 0.027 6.42 2.21 12.56
12/5/2020 10:00:00 AM 3.56 38.408 0.026 6.42 2.27 12.59
12/5/2020 10:15:00 AM 3.56 38.408 0.026 6.43 2.22 12.61
12/5/2020 10:30:00 AM 3.56 38.408 0.027 6.43 2.26 12.61
12/5/2020 10:45:00 AM 3.56 38.408 0.026 6.43 2.31 12.62
12/5/2020 11:00:00 AM 3.55 38.39 0.026 6.43 2.25 12.63
12/5/2020 11:15:00 AM 3.54 38.372 0.026 6.43 2.23 12.63
12/5/2020 11:30:00 AM 3.53 38.354 0.025 6.42 2.24 12.62
12/5/2020 11:45:00 AM 3.53 38.354 0.026 6.43 2.2 12.63
12/5/2020 12:00:00 PM 3.51 38.318 0.026 6.43 2.24 12.64
12/5/2020 12:15:00 PM 3.51 38.318 0.026 6.44 2.24 12.66
12/5/2020 12:30:00 PM 3.52 38.336 0.027 6.44 2.18 12.66
12/5/2020 12:45:00 PM 3.53 38.354 0.026 6.44 2.2 12.67
12/5/2020 1:00:00 PM 3.54 38.372 0.025 6.44 2.26 12.69
12/5/2020 1:15:00 PM 3.56 38.408 0.027 6.43 2.23 12.68
12/5/2020 1:30:00 PM 3.57 38.426 0.025 6.45 2.14 12.7
12/5/2020 1:45:00 PM 3.57 38.426 0.025 6.44 2.19 12.71
12/5/2020 2:00:00 PM 3.56 38.408 0.026 6.45 2.18 12.7
12/5/2020 2:15:00 PM 3.54 38.372 0.026 6.45 2.18 12.7
12/5/2020 2:30:00 PM 3.51 38.318 0.026 6.44 2.15 12.69
12/5/2020 2:45:00 PM 3.49 38.282 0.027 6.44 2.22 12.68
12/5/2020 3:00:00 PM 3.47 38.246 0.026 6.44 2.17 12.68
12/5/2020 3:15:00 PM 3.44 38.192 0.026 6.44 2.23 12.68
12/5/2020 3:30:00 PM 3.42 38.156 0.027 6.43 2.2 12.65
12/5/2020 3:45:00 PM 3.4 38.12 0.027 6.43 2.21 12.65
12/5/2020 4:00:00 PM 3.37 38.066 0.027 6.43 2.23 12.64
12/5/2020 4:15:00 PM 3.32 37.976 0.025 6.42 2.28 12.62
12/5/2020 4:30:00 PM 3.29 37.922 0.027 6.42 2.2 12.61
12/5/2020 4:45:00 PM 3.27 37.886 0.025 6.42 2.22 12.6
12/5/2020 5:00:00 PM 3.25 37.85 0.025 6.41 2.26 12.59
12/5/2020 5:15:00 PM 3.23 37.814 0.026 6.41 2.24 12.59
12/5/2020 5:30:00 PM 3.21 37.778 0.027 6.41 2.24 12.6
12/5/2020 5:45:00 PM 3.19 37.742 0.026 6.41 2.26 12.59
12/5/2020 6:00:00 PM 3.17 37.706 0.026 6.41 2.23 12.6
12/5/2020 6:15:00 PM 3.16 37.688 0.027 6.41 2.27 12.6
12/5/2020 6:30:00 PM 3.13 37.634 0.025 6.41 2.28 12.61
12/5/2020 6:45:00 PM 3.1 37.58 0.026 6.4 2.27 12.62
12/5/2020 7:00:00 PM 3.08 37.544 0.027 6.4 2.3 12.62
12/5/2020 7:15:00 PM 3.05 37.49 0.025 6.41 2.46 12.64
12/5/2020 7:30:00 PM 3.03 37.454 0.026 6.4 2.24 12.64
12/5/2020 7:45:00 PM 3 37.4 0.026 6.41 2.21 12.66
12/5/2020 8:00:00 PM 2.98 37.364 0.025 6.4 2.18 12.66
12/5/2020 8:15:00 PM 2.96 37.328 0.025 6.4 2.26 12.68
12/5/2020 8:30:00 PM 2.91 37.238 0.026 6.4 2.22 12.67
12/5/2020 8:45:00 PM 2.86 37.148 0.026 6.4 2.27 12.7
12/5/2020 9:00:00 PM 2.81 37.058 0.026 6.4 2.27 12.7
12/5/2020 9:15:00 PM 2.75 36.95 0.027 6.4 2.21 12.71
12/5/2020 9:30:00 PM 2.73 36.914 0.025 6.4 2.26 12.72
12/5/2020 9:45:00 PM 2.7 36.86 0.026 6.4 2.25 12.74
12/5/2020 10:00:00 PM 2.68 36.824 0.026 6.4 2.12 12.76
12/5/2020 10:15:00 PM 2.68 36.824 0.026 6.4 2.21 12.76
12/5/2020 10:30:00 PM 2.67 36.806 0.024 6.4 2.29 12.76
12/5/2020 10:45:00 PM 2.66 36.788 0.026 6.4 2.25 12.77
12/5/2020 11:00:00 PM 2.66 36.788 0.026 6.4 2.21 12.78
12/5/2020 11:15:00 PM 2.65 36.77 0.027 6.4 2.23 12.78
12/5/2020 11:30:00 PM 2.64 36.752 0.027 6.39 2.21 12.78
12/5/2020 11:45:00 PM 2.62 36.716 0.027 6.4 2.27 12.79
12/6/2020 12:00:00 AM 2.61 36.698 0.026 6.4 2.23 12.79
12/6/2020 12:15:00 AM 2.59 36.662 0.027 6.4 2.18 12.8
12/6/2020 12:30:00 AM 2.58 36.644 0.026 6.4 2.22 12.8
12/6/2020 12:45:00 AM 2.55 36.59 0.027 6.4 2.2 12.81
12/6/2020 1:00:00 AM 2.55 36.59 0.027 6.4 2.22 12.81
12/6/2020 1:15:00 AM 2.52 36.536 0.027 6.4 2.23 12.82
12/6/2020 1:30:00 AM 2.5 36.5 0.028 6.4 2.22 12.83
12/6/2020 1:45:00 AM 2.48 36.464 0.025 6.4 2.25 12.84
12/6/2020 2:00:00 AM 2.45 36.41 0.026 6.4 2.22 12.84
12/6/2020 2:15:00 AM 2.43 36.374 0.026 6.4 2.21 12.84
12/6/2020 2:30:00 AM 2.41 36.338 0.026 6.4 2.2 12.86
12/6/2020 2:45:00 AM 2.39 36.302 0.026 6.4 2.38 12.86
12/6/2020 3:00:00 AM 2.37 36.266 0.025 6.4 2.23 12.88
12/6/2020 3:15:00 AM 2.35 36.23 0.026 6.4 2.18 12.88
12/6/2020 3:30:00 AM 2.31 36.158 0.026 6.41 2.15 12.91
12/6/2020 3:45:00 AM 2.29 36.122 0.026 6.4 2.2 12.91
12/6/2020 4:00:00 AM 2.25 36.05 0.027 6.41 2.25 12.92
12/6/2020 4:15:00 AM 2.23 36.014 0.026 6.4 2.16 12.93
12/6/2020 4:30:00 AM 2.2 35.96 0.026 6.41 2.2 12.94
12/6/2020 4:45:00 AM 2.18 35.924 0.026 6.4 2.15 12.95
12/6/2020 5:00:00 AM 2.14 35.852 0.025 6.4 2.19 12.96
12/6/2020 5:15:00 AM 2.11 35.798 0.026 6.4 2.19 12.96
12/6/2020 5:30:00 AM 2.1 35.78 0.027 6.39 2.22 12.97
12/6/2020 5:45:00 AM 2.07 35.726 0.027 6.4 2.25 12.98
12/6/2020 6:00:00 AM 2.06 35.708 0.027 6.4 2.3 12.98
12/6/2020 6:15:00 AM 2.03 35.654 0.027 6.4 2.16 13
12/6/2020 6:30:00 AM 1.99 35.582 0.026 6.41 2.24 13.01
12/6/2020 6:45:00 AM 1.96 35.528 0.028 6.4 2.19 13.03
12/6/2020 7:00:00 AM 1.92 35.456 0.026 6.4 2.21 13.04
12/6/2020 7:15:00 AM 1.89 35.402 0.027 6.4 2.27 13.03
12/6/2020 7:30:00 AM 1.85 35.33 0.027 6.4 2.21 13.06
12/6/2020 7:45:00 AM 1.82 35.276 0.028 6.41 2.3 13.08
12/6/2020 8:00:00 AM 1.8 35.24 0.026 6.41 2.21 13.09
12/6/2020 8:15:00 AM 1.78 35.204 0.026 6.41 2.22 13.11
12/6/2020 8:30:00 AM 1.76 35.168 0.027 6.41 2.21 13.14
12/6/2020 8:45:00 AM 1.72 35.096 0.026 6.42 2.2 13.19
12/6/2020 9:00:00 AM 1.71 35.078 0.027 6.42 2.3 13.22
12/6/2020 9:15:00 AM 1.7 35.06 0.026 6.43 2.21 13.25
12/6/2020 9:30:00 AM 1.7 35.06 0.028 6.44 2.18 13.29
12/6/2020 9:45:00 AM 1.71 35.078 0.027 6.43 2.18 13.31
12/6/2020 10:00:00 AM 1.72 35.096 0.027 6.44 2.17 13.32
12/6/2020 10:15:00 AM 1.73 35.114 0.027 6.44 2.22 13.35
12/6/2020 10:30:00 AM 1.75 35.15 0.028 6.45 2.16 13.36
12/6/2020 10:45:00 AM 1.78 35.204 0.028 6.45 2.21 13.38
12/6/2020 11:00:00 AM 1.8 35.24 0.026 6.45 2.22 13.39
12/6/2020 11:15:00 AM 1.82 35.276 0.027 6.46 2.22 13.39
12/6/2020 11:30:00 AM 1.85 35.33 0.027 6.45 2.25 13.38
12/6/2020 11:45:00 AM 1.9 35.42 0.027 6.45 2.19 13.38
12/6/2020 12:00:00 PM 1.94 35.492 0.029 6.46 2.17 13.38
12/6/2020 12:15:00 PM 1.98 35.564 0.026 6.46 2.16 13.37
12/6/2020 12:30:00 PM 2.03 35.654 0.028 6.45 2.19 13.35
12/6/2020 12:45:00 PM 2.06 35.708 0.025 6.46 2.19 13.35
12/6/2020 1:00:00 PM 2.07 35.726 0.026 6.46 2.21 13.34
12/6/2020 1:15:00 PM 2.13 35.834 0.027 6.45 2.15 13.31
12/6/2020 1:30:00 PM 2.13 35.834 0.027 6.46 2.14 13.32
12/6/2020 1:45:00 PM 2.14 35.852 0.026 6.46 2.18 13.31
12/6/2020 2:00:00 PM 2.17 35.906 0.028 6.45 2.13 13.29
12/6/2020 2:15:00 PM 2.19 35.942 0.027 6.46 2.17 13.29
12/6/2020 2:30:00 PM 2.18 35.924 0.028 6.43 2.18 13.27
12/6/2020 2:45:00 PM 2.17 35.906 0.026 6.45 2.12 13.25
12/6/2020 3:00:00 PM 2.16 35.888 0.026 6.45 2.11 13.24
12/6/2020 3:15:00 PM 2.13 35.834 0.027 6.44 2.15 13.24
12/6/2020 3:30:00 PM 2.07 35.726 0.027 6.46 2.15 13.26
12/6/2020 3:45:00 PM 2.03 35.654 0.028 6.45 2.14 13.25
12/6/2020 4:00:00 PM 1.96 35.528 0.027 6.46 2.16 13.28
12/6/2020 4:15:00 PM 1.92 35.456 0.028 6.45 2.11 13.26
12/6/2020 4:30:00 PM 1.86 35.348 0.028 6.45 2.12 13.26
12/6/2020 4:45:00 PM 1.81 35.258 0.026 6.45 2.19 13.26
12/6/2020 5:00:00 PM 1.76 35.168 0.027 6.44 2.14 13.25
12/6/2020 5:15:00 PM 1.72 35.096 0.027 6.44 2.27 13.23
12/6/2020 5:30:00 PM 1.66 34.988 0.027 6.44 2.13 13.23
12/6/2020 5:45:00 PM 1.6 34.88 0.027 6.43 2.22 13.22
12/6/2020 6:00:00 PM 1.54 34.772 0.027 6.43 2.17 13.23
12/6/2020 6:15:00 PM 1.49 34.682 0.026 6.42 2.16 13.23
12/6/2020 6:30:00 PM 1.45 34.61 0.027 6.42 2.26 13.24
12/6/2020 6:45:00 PM 1.41 34.538 0.026 6.42 2.15 13.25
12/6/2020 7:00:00 PM 1.4 34.52 0.028 6.42 2.12 13.26
12/6/2020 7:15:00 PM 1.37 34.466 0.028 6.42 2.22 13.27
12/6/2020 7:30:00 PM 1.36 34.448 0.028 6.42 2.17 13.26
12/6/2020 7:45:00 PM 1.34 34.412 0.028 6.42 2.21 13.27
12/6/2020 8:00:00 PM 1.31 34.358 0.027 6.42 2.13 13.28
12/6/2020 8:15:00 PM 1.27 34.286 0.028 6.42 2.17 13.3
12/6/2020 8:30:00 PM 1.24 34.232 0.027 6.42 2.14 13.31
12/6/2020 8:45:00 PM 1.21 34.178 0.028 6.42 2.18 13.31
12/6/2020 9:00:00 PM 1.18 34.124 0.028 6.42 2.2 13.33
12/6/2020 9:15:00 PM 1.16 34.088 0.028 6.42 2.21 13.34
12/6/2020 9:30:00 PM 1.14 34.052 0.028 6.42 2.18 13.35
12/6/2020 9:45:00 PM 1.13 34.034 0.029 6.41 2.14 13.35
12/6/2020 10:00:00 PM 1.1 33.98 0.029 6.42 2.19 13.38
12/6/2020 10:15:00 PM 1.09 33.962 0.028 6.42 2.17 13.37
12/6/2020 10:30:00 PM 1.08 33.944 0.028 6.42 2.14 13.38
12/6/2020 10:45:00 PM 1.05 33.89 0.027 6.42 2.11 13.38
12/6/2020 11:00:00 PM 1.02 33.836 0.027 6.42 2.16 13.4
12/6/2020 11:15:00 PM 1 33.8 0.028 6.42 2.2 13.41
12/6/2020 11:30:00 PM 0.97 33.746 0.027 6.42 2.09 13.42
12/6/2020 11:45:00 PM 0.95 33.71 0.028 6.42 2.16 13.42
12/7/2020 12:00:00 AM 0.91 33.638 0.028 6.42 2.19 13.44
12/7/2020 12:15:00 AM 0.91 33.638 0.028 6.41 2.21 13.43
12/7/2020 12:30:00 AM 0.9 33.62 0.028 6.41 2.15 13.44
12/7/2020 12:45:00 AM 0.88 33.584 0.028 6.41 2.16 13.45
12/7/2020 1:00:00 AM 0.87 33.566 0.029 6.42 2.27 13.45
12/7/2020 1:15:00 AM 0.87 33.566 0.029 6.4 2.22 13.45
12/7/2020 1:30:00 AM 0.87 33.566 0.027 6.41 2.21 13.45
12/7/2020 1:45:00 AM 0.86 33.548 0.028 6.41 2.17 13.46
12/7/2020 2:00:00 AM 0.85 33.53 0.028 6.41 2.45 13.45
12/7/2020 2:15:00 AM 0.83 33.494 0.028 6.41 2.63 13.45
12/7/2020 2:30:00 AM 0.82 33.476 0.028 6.42 2.33 13.46
12/7/2020 2:45:00 AM 0.81 33.458 0.028 6.42 2.21 13.48
12/7/2020 3:00:00 AM 0.81 33.458 0.029 6.42 2.21 13.46
12/7/2020 3:15:00 AM 0.81 33.458 0.03 6.42 2.18 13.47
12/7/2020 3:30:00 AM 0.79 33.422 0.03 6.42 2.19 13.49
12/7/2020 3:45:00 AM 0.79 33.422 0.029 6.42 2.19 13.47
12/7/2020 4:00:00 AM 0.77 33.386 0.028 6.42 2.11 13.48
12/7/2020 4:15:00 AM 0.76 33.368 0.029 6.42 2.14 13.49
12/7/2020 4:30:00 AM 0.75 33.35 0.029 6.41 2.13 13.48
12/7/2020 4:45:00 AM 0.74 33.332 0.029 6.42 2.17 13.49
12/7/2020 5:00:00 AM 0.72 33.296 0.027 6.42 2.22 13.49
12/7/2020 5:15:00 AM 0.71 33.278 0.028 6.42 2.2 13.5
12/7/2020 5:30:00 AM 0.72 33.296 0.03 6.41 2.15 13.49
12/7/2020 5:45:00 AM 0.7 33.26 0.027 6.42 2.17 13.5
12/7/2020 6:00:00 AM 0.69 33.242 0.029 6.42 2.2 13.51
12/7/2020 6:15:00 AM 0.68 33.224 0.028 6.42 2.23 13.51
12/7/2020 6:30:00 AM 0.67 33.206 0.028 6.42 2.2 13.51
12/7/2020 6:45:00 AM 0.67 33.206 0.029 6.41 2.26 13.51
12/7/2020 7:00:00 AM 0.66 33.188 0.029 6.42 2.16 13.52
12/7/2020 7:15:00 AM 0.64 33.152 0.028 6.41 2.19 13.52
12/7/2020 7:30:00 AM 0.63 33.134 0.029 6.42 2.24 13.52
12/7/2020 7:45:00 AM 0.62 33.116 0.028 6.42 2.19 13.54
12/7/2020 8:00:00 AM 0.62 33.116 0.028 6.42 2.21 13.55
12/7/2020 8:15:00 AM 0.61 33.098 0.028 6.42 2.1 13.58
12/7/2020 8:30:00 AM 0.61 33.098 0.028 6.43 2.12 13.61
12/7/2020 8:45:00 AM 0.61 33.098 0.028 6.43 2.13 13.64
12/7/2020 9:00:00 AM 0.63 33.134 0.028 6.43 2.12 13.65
12/7/2020 9:15:00 AM 0.64 33.152 0.029 6.44 2.12 13.68
12/7/2020 9:30:00 AM 0.67 33.206 0.029 6.44 2.12 13.69
12/7/2020 9:45:00 AM 0.7 33.26 0.03 6.45 2.17 13.72
12/7/2020 10:00:00 AM 0.73 33.314 0.029 6.45 2.1 13.72
12/7/2020 10:15:00 AM 0.77 33.386 0.03 6.44 2.14 13.72
12/7/2020 10:30:00 AM 0.82 33.476 0.029 6.45 2.1 13.72
12/7/2020 10:45:00 AM 0.85 33.53 0.028 6.46 2.17 13.73
12/7/2020 11:00:00 AM 0.89 33.602 0.028 6.47 2.25 13.73
12/7/2020 11:15:00 AM 0.94 33.692 0.029 6.46 2.17 13.72
12/7/2020 11:30:00 AM 1 33.8 0.028 6.46 2.15 13.7
12/7/2020 11:45:00 AM 1.07 33.926 0.028 6.46 2.11 13.69
12/7/2020 12:00:00 PM 1.13 34.034 0.028 6.46 2.11 13.67
12/7/2020 12:15:00 PM 1.21 34.178 0.028 6.47 2.13 13.66
12/7/2020 12:30:00 PM 1.27 34.286 0.028 6.47 2.17 13.64
12/7/2020 12:45:00 PM 1.36 34.448 0.027 6.46 2.17 13.61
12/7/2020 1:00:00 PM 1.43 34.574 0.028 6.47 2.18 13.58
12/7/2020 1:15:00 PM 1.55 34.79 0.027 6.47 2.17 13.56
12/7/2020 1:30:00 PM 1.64 34.952 0.028 6.47 2.12 13.53
12/7/2020 1:45:00 PM 1.68 35.024 0.027 6.48 2.19 13.51
12/7/2020 2:00:00 PM 1.72 35.096 0.028 6.46 2.15 13.48
12/7/2020 2:15:00 PM 1.74 35.132 0.028 6.48 2.2 13.48
12/7/2020 2:30:00 PM 1.76 35.168 0.029 6.47 2.2 13.44
12/7/2020 2:45:00 PM 1.74 35.132 0.027 6.46 2.11 13.42
12/7/2020 3:00:00 PM 1.66 34.988 0.028 6.48 2.18 13.44
12/7/2020 3:15:00 PM 1.6 34.88 0.028 6.47 2.16 13.44
12/7/2020 3:30:00 PM 1.52 34.736 0.028 6.46 2.31 13.43
12/7/2020 3:45:00 PM 1.44 34.592 0.027 6.47 2.11 13.44
12/7/2020 4:00:00 PM 1.41 34.538 0.028 6.45 2.15 13.43
12/7/2020 4:15:00 PM 1.33 34.394 0.028 6.47 2.2 13.45
12/7/2020 4:30:00 PM 1.27 34.286 0.029 6.45 2.07 13.43
12/7/2020 4:45:00 PM 1.21 34.178 0.028 6.45 2.3 13.43
12/7/2020 5:00:00 PM 1.13 34.034 0.028 6.46 2.17 13.43
12/7/2020 5:15:00 PM 1.09 33.962 0.028 6.45 2.11 13.43
12/7/2020 5:30:00 PM 1.04 33.872 0.029 6.45 2.15 13.41
12/7/2020 5:45:00 PM 1.01 33.818 0.028 6.44 2.18 13.4
12/7/2020 6:00:00 PM 0.95 33.71 0.027 6.44 2.11 13.42
12/7/2020 6:15:00 PM 0.92 33.656 0.028 6.43 2.12 13.41
12/7/2020 6:30:00 PM 0.88 33.584 0.029 6.43 2.12 13.41
12/7/2020 6:45:00 PM 0.84 33.512 0.029 6.42 2.09 13.42
12/7/2020 7:00:00 PM 0.79 33.422 0.027 6.43 2.16 13.44
12/7/2020 7:15:00 PM 0.76 33.368 0.029 6.44 2.14 13.46
12/7/2020 7:30:00 PM 0.74 33.332 0.029 6.43 2.15 13.46
12/7/2020 7:45:00 PM 0.73 33.314 0.029 6.44 2.15 13.47
12/7/2020 8:00:00 PM 0.7 33.26 0.028 6.44 2.15 13.47
12/7/2020 8:15:00 PM 0.68 33.224 0.027 6.43 2.09 13.47
12/7/2020 8:30:00 PM 0.65 33.17 0.03 6.43 2.15 13.49
12/7/2020 8:45:00 PM 0.62 33.116 0.029 6.43 2.08 13.5
12/7/2020 9:00:00 PM 0.6 33.08 0.029 6.43 2.16 13.51
12/7/2020 9:15:00 PM 0.57 33.026 0.029 6.43 2.07 13.53
12/7/2020 9:30:00 PM 0.57 33.026 0.029 6.43 2.11 13.53
12/7/2020 9:45:00 PM 0.53 32.954 0.029 6.43 2.1 13.55
12/7/2020 10:00:00 PM 0.5 32.9 0.029 6.43 2.12 13.55
12/7/2020 10:15:00 PM 0.51 32.918 0.029 6.42 2.07 13.55
12/7/2020 10:30:00 PM 0.47 32.846 0.029 6.43 2.08 13.57
12/7/2020 10:45:00 PM 0.47 32.846 0.029 6.42 2.09 13.57
12/7/2020 11:00:00 PM 0.44 32.792 0.028 6.43 2.04 13.59
12/7/2020 11:15:00 PM 0.43 32.774 0.029 6.43 2.09 13.59
12/7/2020 11:30:00 PM 0.42 32.756 0.029 6.42 2.12 13.59
12/7/2020 11:45:00 PM 0.41 32.738 0.029 6.42 2.03 13.59
12/8/2020 12:00:00 AM 0.41 32.738 0.029 6.43 2.16 13.6
12/8/2020 12:15:00 AM 0.39 32.702 0.028 6.42 2.13 13.59
12/8/2020 12:30:00 AM 0.4 32.72 0.029 6.42 2.08 13.59
12/8/2020 12:45:00 AM 0.37 32.666 0.028 6.43 2.08 13.62
12/8/2020 1:00:00 AM 0.36 32.648 0.028 6.43 2.08 13.61
12/8/2020 1:15:00 AM 0.35 32.63 0.028 6.43 2.1 13.61
12/8/2020 1:30:00 AM 0.35 32.63 0.028 6.43 2.07 13.6
12/8/2020 1:45:00 AM 0.35 32.63 0.028 6.42 2.07 13.59
12/8/2020 2:00:00 AM 0.34 32.612 0.029 6.42 2.08 13.6
12/8/2020 2:15:00 AM 0.32 32.576 0.027 6.43 2.05 13.61
12/8/2020 2:30:00 AM 0.32 32.576 0.029 6.42 2.04 13.61
12/8/2020 2:45:00 AM 0.3 32.54 0.029 6.43 2.13 13.62
12/8/2020 3:00:00 AM 0.31 32.558 0.029 6.41 2.05 13.61
12/8/2020 3:15:00 AM 0.28 32.504 0.028 6.43 2.1 13.62
12/8/2020 3:30:00 AM 0.26 32.468 0.028 6.43 2.1 13.63
12/8/2020 3:45:00 AM 0.27 32.486 0.027 6.41 2.1 13.61
12/8/2020 4:00:00 AM 0.24 32.432 0.029 6.43 2.13 13.64
12/8/2020 4:15:00 AM 0.26 32.468 0.029 6.42 2.06 13.63
12/8/2020 4:30:00 AM 0.23 32.414 0.029 6.43 2.14 13.64
12/8/2020 4:45:00 AM 0.21 32.378 0.029 6.42 2.15 13.65
12/8/2020 5:00:00 AM 0.2 32.36 0.029 6.43 2.15 13.66
12/8/2020 5:15:00 AM 0.2 32.36 0.029 6.43 2.07 13.65
12/8/2020 5:30:00 AM 0.19 32.342 0.029 6.42 2.06 13.65
12/8/2020 5:45:00 AM 0.18 32.324 0.03 6.42 2.05 13.67
12/8/2020 6:00:00 AM 0.15 32.27 0.029 6.43 2.12 13.67
12/8/2020 6:15:00 AM 0.15 32.27 0.03 6.42 2.09 13.68
12/8/2020 6:30:00 AM 0.11 32.198 0.029 6.43 2.13 13.7
12/8/2020 6:45:00 AM 0.12 32.216 0.028 6.43 2.05 13.7
12/8/2020 7:00:00 AM 0.11 32.198 0.027 6.43 2.09 13.7
12/8/2020 7:15:00 AM 0.11 32.198 0.028 6.42 3.58 13.71
12/8/2020 7:30:00 AM 0.1 32.18 0.029 6.43 2.17 13.73
12/8/2020 7:45:00 AM 0.1 32.18 0.029 6.43 2.24 13.71
12/8/2020 8:00:00 AM 0.11 32.198 0.029 6.43 3.51 13.73
12/8/2020 8:15:00 AM 0.12 32.216 0.029 6.42 2.19 13.73
12/8/2020 8:30:00 AM 0.12 32.216 0.029 6.44 2.1 13.78
12/8/2020 8:45:00 AM 0.14 32.252 0.028 6.43 2.11 13.79
12/8/2020 9:00:00 AM 0.17 32.306 0.029 6.44 2.08 13.81
12/8/2020 9:15:00 AM 0.19 32.342 0.031 6.44 2.02 13.85
12/8/2020 9:30:00 AM 0.25 32.45 0.03 6.45 2.06 13.87
12/8/2020 9:45:00 AM 0.29 32.522 0.029 6.46 2.07 13.89
12/8/2020 10:00:00 AM 0.35 32.63 0.029 6.45 2.15 13.88
12/8/2020 10:15:00 AM 0.38 32.684 0.028 6.47 2.09 13.9
12/8/2020 10:30:00 AM 0.42 32.756 0.03 6.46 2.09 13.88
12/8/2020 10:45:00 AM 0.45 32.81 0.029 6.47 2.03 13.88
12/8/2020 11:00:00 AM 0.49 32.882 0.029 6.47 2.05 13.88
12/8/2020 11:15:00 AM 0.52 32.936 0.029 6.47 2.06 13.88
12/8/2020 11:30:00 AM 0.55 32.99 0.029 6.47 2.06 13.86
12/8/2020 11:45:00 AM 0.56 33.008 0.029 6.48 2.05 13.87
12/8/2020 12:00:00 PM 0.6 33.08 0.03 6.47 2.11 13.84
12/8/2020 12:15:00 PM 0.65 33.17 0.028 6.48 2.1 13.84
12/8/2020 12:30:00 PM 0.71 33.278 0.028 6.48 2.13 13.82
12/8/2020 12:45:00 PM 0.77 33.386 0.029 6.48 2.12 13.78
12/8/2020 1:00:00 PM 0.83 33.494 0.029 6.47 2.12 13.76
12/8/2020 1:15:00 PM 0.89 33.602 0.029 6.47 2.1 13.73
12/8/2020 1:30:00 PM 0.94 33.692 0.029 6.45 2.06 13.7
12/8/2020 1:45:00 PM 0.98 33.764 0.028 6.47 2.18 13.7
12/8/2020 2:00:00 PM 1.01 33.818 0.028 6.47 2.15 13.68
12/8/2020 2:15:00 PM 1.03 33.854 0.029 6.46 2.14 13.67
12/8/2020 2:30:00 PM 1.03 33.854 0.03 6.46 2.12 13.65
12/8/2020 2:45:00 PM 0.99 33.782 0.03 6.47 2.18 13.66
12/8/2020 3:00:00 PM 0.95 33.71 0.028 6.46 2.09 13.65
12/8/2020 3:15:00 PM 0.9 33.62 0.028 6.47 2.11 13.66
12/8/2020 3:30:00 PM 0.85 33.53 0.027 6.47 2.09 13.67
12/8/2020 3:45:00 PM 0.8 33.44 0.03 6.46 2.09 13.68
12/8/2020 4:00:00 PM 0.73 33.314 0.029 6.46 2.1 13.67
12/8/2020 4:15:00 PM 0.69 33.242 0.03 6.46 2.05 13.68
12/8/2020 4:30:00 PM 0.63 33.134 0.029 6.45 2.11 13.67
12/8/2020 4:45:00 PM 0.56 33.008 0.028 6.45 2.09 13.69
12/8/2020 5:00:00 PM 0.49 32.882 0.029 6.45 2.13 13.69
12/8/2020 5:15:00 PM 0.44 32.792 0.03 6.45 2.03 13.67
12/8/2020 5:30:00 PM 0.39 32.702 0.03 6.45 2.07 13.69
12/8/2020 5:45:00 PM 0.33 32.594 0.028 6.45 2.09 13.7
12/8/2020 6:00:00 PM 0.29 32.522 0.029 6.44 2.04 13.69
12/8/2020 6:15:00 PM 0.23 32.414 0.03 6.44 2.06 13.71
12/8/2020 6:30:00 PM 0.19 32.342 0.031 6.43 2.08 13.72
12/8/2020 6:45:00 PM 0.16 32.288 0.03 6.43 2.02 13.71
12/8/2020 7:00:00 PM 0.13 32.234 0.031 6.43 2.08 13.72
12/8/2020 7:15:00 PM 0.08 32.144 0.028 6.44 2.08 13.75
12/8/2020 7:30:00 PM 0.08 32.144 0.03 6.41 2.06 13.72
12/8/2020 7:45:00 PM 0.04 32.072 0.029 6.44 2.02 13.76
12/8/2020 8:00:00 PM 0.04 32.072 0.029 6.41 2.06 13.74
12/8/2020 8:15:00 PM 0.02 32.036 0.03 6.42 2.05 13.75
12/8/2020 8:30:00 PM 0 32 0.029 6.44 2.06 13.76
12/8/2020 8:45:00 PM -0.02 31.964 0.03 6.43 2.1 13.78
12/8/2020 9:00:00 PM -0.02 31.964 0.031 6.42 2.06 13.76
12/8/2020 9:15:00 PM -0.03 31.946 0.031 6.43 2.05 13.77
12/8/2020 9:30:00 PM -0.05 31.91 0.03 6.44 2.14 13.79
12/8/2020 9:45:00 PM -0.05 31.91 0.03 6.44 2.11 13.8
12/8/2020 10:00:00 PM -0.03 31.946 0.03 6.44 2.1 13.81
12/8/2020 10:15:00 PM -0.03 31.946 0.031 6.44 2.14 13.82
12/8/2020 10:30:00 PM -0.03 31.946 0.03 6.43 2.13 13.82
12/8/2020 10:45:00 PM -0.01 31.982 0.03 6.43 2.11 13.82
12/8/2020 11:00:00 PM -0.02 31.964 0.029 6.44 2.13 13.82
12/8/2020 11:15:00 PM 0.01 32.018 0.032 6.42 2.09 13.8
12/8/2020 11:30:00 PM -0.01 31.982 0.029 6.44 2.14 13.81
12/8/2020 11:45:00 PM 0 32 0.031 6.43 2.04 13.82
12/9/2020 12:00:00 AM 0.01 32.018 0.03 6.43 2.08 13.81
12/9/2020 12:15:00 AM 0 32 0.029 6.44 2.07 13.82
12/9/2020 12:30:00 AM 0 32 0.03 6.44 2.08 13.81
12/9/2020 12:45:00 AM 0 32 0.03 6.45 2.18 13.82
12/9/2020 1:00:00 AM -0.01 31.982 0.031 6.46 2.13 13.83
12/9/2020 1:15:00 AM 0 32 0.03 6.45 2.05 13.83
12/9/2020 1:30:00 AM -0.01 31.982 0.03 6.45 2.1 13.82
12/9/2020 1:45:00 AM -0.01 31.982 0.03 6.45 2.05 13.82
12/9/2020 2:00:00 AM -0.02 31.964 0.029 6.46 2.14 13.83
12/9/2020 2:15:00 AM -0.01 31.982 0.03 6.45 2.07 13.82
12/9/2020 2:30:00 AM -0.01 31.982 0.03 6.45 2.11 13.82
12/9/2020 2:45:00 AM -0.02 31.964 0.03 6.46 2.06 13.82
12/9/2020 3:00:00 AM 0 32 0.03 6.45 2.06 13.8
12/9/2020 3:15:00 AM -0.01 31.982 0.03 6.45 2.08 13.8
12/9/2020 3:30:00 AM 0 32 0.031 6.45 2.11 13.79
12/9/2020 3:45:00 AM -0.01 31.982 0.03 6.46 2.15 13.79
12/9/2020 4:00:00 AM -0.02 31.964 0.029 6.45 2.06 13.79
12/9/2020 4:15:00 AM 0 32 0.03 6.45 2.03 13.77
12/9/2020 4:30:00 AM 0 32 0.03 6.44 2.13 13.76
12/9/2020 4:45:00 AM 0 32 0.031 6.44 2.1 13.75
12/9/2020 5:00:00 AM -0.01 31.982 0.031 6.45 2.19 13.75
12/9/2020 5:15:00 AM 0 32 0.031 6.44 2.13 13.75
12/9/2020 5:30:00 AM 0 32 0.03 6.45 2.16 13.75
12/9/2020 5:45:00 AM 0 32 0.03 6.45 2.12 13.74
12/9/2020 6:00:00 AM 0.01 32.018 0.03 6.45 2.12 13.74
12/9/2020 6:15:00 AM 0.02 32.036 0.031 6.43 2.12 13.72
12/9/2020 6:30:00 AM 0.01 32.018 0.03 6.44 2.11 13.73
12/9/2020 6:45:00 AM 0.02 32.036 0.03 6.44 2.18 13.72
12/9/2020 7:00:00 AM 0.03 32.054 0.03 6.44 2.18 13.71
12/9/2020 7:15:00 AM 0.02 32.036 0.03 6.45 2.14 13.72
12/9/2020 7:30:00 AM 0.03 32.054 0.03 6.44 2.14 13.71
12/9/2020 7:45:00 AM 0.05 32.09 0.033 6.43 2.14 13.68
12/9/2020 8:00:00 AM 0.04 32.072 0.032 6.42 2.18 13.67
12/9/2020 8:15:00 AM 0.04 32.072 0.032 6.41 2.61 13.66
12/9/2020 8:30:00 AM 0.02 32.036 0.031 6.43 2.03 13.69
12/9/2020 8:45:00 AM 0.03 32.054 0.031 6.42 2.18 13.69
12/9/2020 9:00:00 AM 0 32 0.03 6.44 2.2 13.73
12/9/2020 9:15:00 AM 0.02 32.036 0.031 6.44 2.13 13.74
12/9/2020 9:30:00 AM 0 32 0.031 6.45 2.12 13.78
12/9/2020 9:45:00 AM 0.01 32.018 0.029 6.45 2.18 13.78
12/9/2020 10:00:00 AM 0.04 32.072 0.031 6.42 2.15 13.75
12/9/2020 10:15:00 AM 0.03 32.054 0.031 6.42 2.2 13.78
12/9/2020 10:30:00 AM 0.05 32.09 0.03 6.43 2.08 13.79
12/9/2020 10:45:00 AM 0.08 32.144 0.031 6.42 2.14 13.8
12/9/2020 11:00:00 AM 0.07 32.126 0.031 6.43 2.11 13.83
12/9/2020 11:15:00 AM 0.09 32.162 0.031 6.42 2.12 13.79
12/9/2020 11:30:00 AM 0.09 32.162 0.032 6.43 2.11 13.79
12/9/2020 11:45:00 AM 0.11 32.198 0.032 6.43 2.14 13.81
12/9/2020 12:00:00 PM 0.13 32.234 0.032 6.43 2.15 13.8
12/9/2020 12:15:00 PM 0.14 32.252 0.033 6.43 2.12 13.81
12/9/2020 12:30:00 PM 0.14 32.252 0.031 6.44 2.18 13.83
12/9/2020 12:45:00 PM 0.14 32.252 0.031 6.45 2.17 13.83
12/9/2020 1:00:00 PM 0.17 32.306 0.032 6.44 2.17 13.81
12/9/2020 1:15:00 PM 0.18 32.324 0.032 6.44 2.16 13.8
12/9/2020 1:30:00 PM 0.2 32.36 0.032 6.45 2.14 13.81
12/9/2020 1:45:00 PM 0.18 32.324 0.03 6.47 2.17 13.82
12/9/2020 2:00:00 PM 0.2 32.36 0.031 6.45 2.16 13.83
12/9/2020 2:15:00 PM 0.19 32.342 0.031 6.46 2.14 13.83
12/9/2020 2:30:00 PM 0.2 32.36 0.031 6.46 2.18 13.82
12/9/2020 2:45:00 PM 0.21 32.378 0.031 6.45 2.28 13.81
12/9/2020 3:00:00 PM 0.18 32.324 0.03 6.46 2.21 13.82
12/9/2020 3:15:00 PM 0.18 32.324 0.03 6.47 2.23 13.8
12/9/2020 3:30:00 PM 0.19 32.342 0.031 6.46 2.23 13.79
12/9/2020 3:45:00 PM 0.21 32.378 0.032 6.45 2.22 13.77
12/9/2020 4:00:00 PM 0.19 32.342 0.03 6.44 2.36 13.76
12/9/2020 4:15:00 PM 0.19 32.342 0.03 6.45 2.27 13.76
12/9/2020 4:30:00 PM 0.2 32.36 0.03 6.45 2.23 13.74
12/9/2020 4:45:00 PM 0.17 32.306 0.029 6.46 2.22 13.75
12/9/2020 5:00:00 PM 0.19 32.342 0.031 6.45 2.2 13.73
12/9/2020 5:15:00 PM 0.19 32.342 0.03 6.45 2.23 13.71
12/9/2020 5:30:00 PM 0.19 32.342 0.029 6.45 2.23 13.7
12/9/2020 5:45:00 PM 0.2 32.36 0.03 6.44 2.21 13.69
12/9/2020 6:00:00 PM 0.19 32.342 0.029 6.45 2.22 13.68
12/9/2020 6:15:00 PM 0.22 32.396 0.031 6.43 2.22 13.66
12/9/2020 6:30:00 PM 0.19 32.342 0.029 6.44 2.24 13.68
12/9/2020 6:45:00 PM 0.21 32.378 0.03 6.44 2.2 13.67
12/9/2020 7:00:00 PM 0.21 32.378 0.029 6.44 2.22 13.66
12/9/2020 7:15:00 PM 0.21 32.378 0.03 6.44 2.24 13.67
12/9/2020 7:30:00 PM 0.21 32.378 0.03 6.44 2.19 13.67
12/9/2020 7:45:00 PM 0.23 32.414 0.03 6.43 2.23 13.66
12/9/2020 8:00:00 PM 0.23 32.414 0.031 6.44 2.2 13.66
12/9/2020 8:15:00 PM 0.25 32.45 0.03 6.43 2.22 13.65
12/9/2020 8:30:00 PM 0.25 32.45 0.03 6.43 2.2 13.64
12/9/2020 8:45:00 PM 0.24 32.432 0.03 6.44 2.27 13.65
12/9/2020 9:00:00 PM 0.25 32.45 0.031 6.43 2.19 13.65
12/9/2020 9:15:00 PM 0.26 32.468 0.029 6.43 2.19 13.64
12/9/2020 9:30:00 PM 0.27 32.486 0.031 6.43 2.22 13.63
12/9/2020 9:45:00 PM 0.27 32.486 0.03 6.43 2.29 13.63
12/9/2020 10:00:00 PM 0.27 32.486 0.029 6.43 2.26 13.63
12/9/2020 10:15:00 PM 0.3 32.54 0.031 6.43 2.18 13.62
12/9/2020 10:30:00 PM 0.29 32.522 0.029 6.43 2.15 13.63
12/9/2020 10:45:00 PM 0.3 32.54 0.029 6.43 2.19 13.63
12/9/2020 11:00:00 PM 0.29 32.522 0.028 6.43 2.24 13.63
12/9/2020 11:15:00 PM 0.32 32.576 0.029 6.44 2.24 13.62
12/9/2020 11:30:00 PM 0.32 32.576 0.029 6.44 2.14 13.62
12/9/2020 11:45:00 PM 0.31 32.558 0.029 6.44 2.13 13.64
12/10/2020 12:00:00 AM 0.34 32.612 0.028 6.44 2.17 13.62
12/10/2020 12:15:00 AM 0.33 32.594 0.028 6.45 2.1 13.63
12/10/2020 12:30:00 AM 0.34 32.612 0.028 6.44 2.19 13.62
12/10/2020 12:45:00 AM 0.38 32.684 0.03 6.43 2.14 13.6
12/10/2020 1:00:00 AM 0.37 32.666 0.029 6.44 2.15 13.61
12/10/2020 1:15:00 AM 0.39 32.702 0.03 6.44 2.09 13.61
12/10/2020 1:30:00 AM 0.38 32.684 0.029 6.44 2.11 13.61
12/10/2020 1:45:00 AM 0.4 32.72 0.03 6.44 2.08 13.62
12/10/2020 2:00:00 AM 0.41 32.738 0.029 6.44 2.09 13.6
12/10/2020 2:15:00 AM 0.42 32.756 0.029 6.45 2.02 13.6
12/10/2020 2:30:00 AM 0.41 32.738 0.03 6.45 2.12 13.62
12/10/2020 2:45:00 AM 0.43 32.774 0.03 6.45 2.1 13.61
12/10/2020 3:00:00 AM 0.46 32.828 0.028 6.44 2.12 13.59
12/10/2020 3:15:00 AM 0.48 32.864 0.031 6.43 2.06 13.57
12/10/2020 3:30:00 AM 0.49 32.882 0.03 6.44 2.06 13.58
12/10/2020 3:45:00 AM 0.5 32.9 0.03 6.43 2.18 13.58
12/10/2020 4:00:00 AM 0.51 32.918 0.031 6.43 2.09 13.58
12/10/2020 4:15:00 AM 0.51 32.918 0.031 6.45 2.09 13.58
12/10/2020 4:30:00 AM 0.52 32.936 0.029 6.44 2.1 13.58
12/10/2020 4:45:00 AM 0.53 32.954 0.029 6.45 2.14 13.58
12/10/2020 5:00:00 AM 0.53 32.954 0.03 6.45 2.06 13.6
12/10/2020 5:15:00 AM 0.56 33.008 0.031 6.45 2.08 13.57
12/10/2020 5:30:00 AM 0.58 33.044 0.03 6.45 2.09 13.58
12/10/2020 5:45:00 AM 0.58 33.044 0.029 6.45 2.12 13.58
12/10/2020 6:00:00 AM 0.61 33.098 0.031 6.45 2.12 13.57
12/10/2020 6:15:00 AM 0.6 33.08 0.03 6.45 2.09 13.57
12/10/2020 6:30:00 AM 0.62 33.116 0.029 6.46 2.12 13.57
12/10/2020 6:45:00 AM 0.64 33.152 0.029 6.45 2.14 13.57
12/10/2020 7:00:00 AM 0.64 33.152 0.029 6.45 2.09 13.57
12/10/2020 7:15:00 AM 0.67 33.206 0.031 6.45 2.08 13.57
12/10/2020 7:30:00 AM 0.68 33.224 0.031 6.45 2.07 13.57
12/10/2020 7:45:00 AM 0.68 33.224 0.029 6.45 2.1 13.58
12/10/2020 8:00:00 AM 0.69 33.242 0.03 6.45 2.15 13.57
12/10/2020 8:15:00 AM 0.7 33.26 0.028 6.46 2.07 13.61
12/10/2020 8:30:00 AM 0.71 33.278 0.031 6.47 2.06 13.64
12/10/2020 8:45:00 AM 0.78 33.404 0.032 6.46 2.07 13.63
12/10/2020 9:00:00 AM 0.8 33.44 0.03 6.46 2.12 13.65
12/10/2020 9:15:00 AM 0.83 33.494 0.029 6.48 2.04 13.69
12/10/2020 9:30:00 AM 0.89 33.602 0.029 6.48 2.07 13.69
12/10/2020 9:45:00 AM 0.95 33.71 0.03 6.48 2.06 13.69
12/10/2020 10:00:00 AM 1.01 33.818 0.03 6.48 2.1 13.69
12/10/2020 10:15:00 AM 1.08 33.944 0.03 6.48 2.08 13.69
12/10/2020 10:30:00 AM 1.14 34.052 0.031 6.49 2.07 13.68
12/10/2020 10:45:00 AM 1.21 34.178 0.03 6.5 2.05 13.67
12/10/2020 11:00:00 AM 1.26 34.268 0.029 6.5 2.07 13.68
12/10/2020 11:15:00 AM 1.35 34.43 0.03 6.5 2.11 13.67
12/10/2020 11:30:00 AM 1.46 34.628 0.03 6.49 2.18 13.64
12/10/2020 11:45:00 AM 1.52 34.736 0.03 6.5 2.09 13.65
12/10/2020 12:00:00 PM 1.59 34.862 0.03 6.49 2.08 13.62
12/10/2020 12:15:00 PM 1.66 34.988 0.028 6.49 2.03 13.6
12/10/2020 12:30:00 PM 1.73 35.114 0.029 6.5 2.09 13.58
12/10/2020 12:45:00 PM 1.8 35.24 0.029 6.5 2.04 13.55
12/10/2020 1:00:00 PM 1.88 35.384 0.03 6.48 2.03 13.5
12/10/2020 1:15:00 PM 1.94 35.492 0.029 6.5 2.11 13.49
12/10/2020 1:30:00 PM 2.02 35.636 0.029 6.49 2.12 13.47
12/10/2020 1:45:00 PM 2.03 35.654 0.029 6.49 2.06 13.46
12/10/2020 2:00:00 PM 2.06 35.708 0.029 6.51 2.02 13.46
12/10/2020 2:15:00 PM 2.1 35.78 0.028 6.5 2.13 13.43
12/10/2020 2:30:00 PM 2.13 35.834 0.029 6.5 2.08 13.41
12/10/2020 2:45:00 PM 2.15 35.87 0.029 6.5 2.09 13.38
12/10/2020 3:00:00 PM 2.14 35.852 0.03 6.51 2.06 13.38
12/10/2020 3:15:00 PM 2.15 35.87 0.03 6.48 2.08 13.35
12/10/2020 3:30:00 PM 2.11 35.798 0.03 6.52 2.1 13.37
12/10/2020 3:45:00 PM 2.08 35.744 0.03 6.51 2.29 13.34
12/10/2020 4:00:00 PM 2.04 35.672 0.03 6.5 2.07 13.34
12/10/2020 4:15:00 PM 2 35.6 0.031 6.48 2.05 13.31
12/10/2020 4:30:00 PM 1.92 35.456 0.029 6.5 2.05 13.32
12/10/2020 4:45:00 PM 1.88 35.384 0.03 6.48 2.09 13.31
12/10/2020 5:00:00 PM 1.8 35.24 0.03 6.48 2.05 13.3
12/10/2020 5:15:00 PM 1.72 35.096 0.03 6.49 2.09 13.31
12/10/2020 5:30:00 PM 1.69 35.042 0.03 6.47 2.11 13.28
12/10/2020 5:45:00 PM 1.64 34.952 0.03 6.46 2.14 13.27
12/10/2020 6:00:00 PM 1.56 34.808 0.03 6.47 2.09 13.29
12/10/2020 6:15:00 PM 1.53 34.754 0.029 6.46 2.07 13.27
12/10/2020 6:30:00 PM 1.47 34.646 0.029 6.47 2.12 13.29
12/10/2020 6:45:00 PM 1.42 34.556 0.029 6.47 2.08 13.31
12/10/2020 7:00:00 PM 1.38 34.484 0.03 6.46 2.12 13.31
12/10/2020 7:15:00 PM 1.34 34.412 0.031 6.46 2.12 13.33
12/10/2020 7:30:00 PM 1.3 34.34 0.032 6.46 2.14 13.34
12/10/2020 7:45:00 PM 1.24 34.232 0.03 6.46 2.12 13.36
12/10/2020 8:00:00 PM 1.22 34.196 0.031 6.45 2.15 13.35
12/10/2020 8:15:00 PM 1.17 34.106 0.03 6.46 2.15 13.38
12/10/2020 8:30:00 PM 1.11 33.998 0.03 6.47 2.13 13.41
12/10/2020 8:45:00 PM 1.07 33.926 0.03 6.47 2.15 13.43
12/10/2020 9:00:00 PM 1.05 33.89 0.031 6.46 2.16 13.42
12/10/2020 9:15:00 PM 1 33.8 0.03 6.46 2.13 13.45
12/10/2020 9:30:00 PM 0.97 33.746 0.031 6.46 2.22 13.45
12/10/2020 9:45:00 PM 0.93 33.674 0.029 6.46 2.14 13.47
12/10/2020 10:00:00 PM 0.87 33.566 0.029 6.47 2.18 13.52
12/10/2020 10:15:00 PM 0.87 33.566 0.03 6.46 2.13 13.5
12/10/2020 10:30:00 PM 0.81 33.458 0.031 6.45 2.16 13.53
12/10/2020 10:45:00 PM 0.77 33.386 0.031 6.46 2.11 13.55
12/10/2020 11:00:00 PM 0.75 33.35 0.03 6.45 2.2 13.55
12/10/2020 11:15:00 PM 0.71 33.278 0.031 6.46 2.27 13.55
12/10/2020 11:30:00 PM 0.66 33.188 0.031 6.46 2.11 13.58
12/10/2020 11:45:00 PM 0.64 33.152 0.03 6.44 2.12 13.58
12/11/2020 12:00:00 AM 0.59 33.062 0.03 6.45 2.15 13.61
12/11/2020 12:15:00 AM 0.54 32.972 0.031 6.44 2.12 13.62
12/11/2020 12:30:00 AM 0.51 32.918 0.031 6.46 2.11 13.63
12/11/2020 12:45:00 AM 0.47 32.846 0.031 6.45 2.17 13.65
12/11/2020 1:00:00 AM 0.44 32.792 0.031 6.45 2.13 13.65
12/11/2020 1:15:00 AM 0.38 32.684 0.03 6.46 2.16 13.68
12/11/2020 1:30:00 AM 0.35 32.63 0.03 6.45 2.17 13.7
12/11/2020 1:45:00 AM 0.32 32.576 0.031 6.45 2.14 13.71
12/11/2020 2:00:00 AM 0.3 32.54 0.031 6.43 2.15 13.71
12/11/2020 2:15:00 AM 0.25 32.45 0.031 6.45 2.13 13.73
12/11/2020 2:30:00 AM 0.22 32.396 0.03 6.46 2.07 13.76
12/11/2020 2:45:00 AM 0.21 32.378 0.032 6.45 2.18 13.77
12/11/2020 3:00:00 AM 0.18 32.324 0.032 6.45 2.07 13.78
12/11/2020 3:15:00 AM 0.15 32.27 0.032 6.45 2.14 13.79
12/11/2020 3:30:00 AM 0.13 32.234 0.032 6.44 2.13 13.81
12/11/2020 3:45:00 AM 0.09 32.162 0.029 6.45 2.1 13.83
12/11/2020 4:00:00 AM 0.1 32.18 0.031 6.44 2.11 13.81
12/11/2020 4:15:00 AM 0.07 32.126 0.03 6.44 2.16 13.82
12/11/2020 4:30:00 AM 0.07 32.126 0.032 6.44 2.06 13.82
12/11/2020 4:45:00 AM 0.04 32.072 0.03 6.44 2.13 13.84
12/11/2020 5:00:00 AM 0.03 32.054 0.03 6.45 2.06 13.86
12/11/2020 5:15:00 AM 0.05 32.09 0.034 6.42 2.21 13.83
12/11/2020 5:30:00 AM 0.03 32.054 0.033 6.44 2.08 13.85
12/11/2020 5:45:00 AM 0.01 32.018 0.031 6.44 2.09 13.86
12/11/2020 6:00:00 AM 0 32 0.031 6.44 2.1 13.88
12/11/2020 6:15:00 AM 0.01 32.018 0.031 6.45 2.11 13.86
12/11/2020 6:30:00 AM 0.02 32.036 0.03 6.43 2.06 13.86
12/11/2020 6:45:00 AM 0.04 32.072 0.032 6.43 2.11 13.84
12/11/2020 7:00:00 AM 0.02 32.036 0.031 6.45 2.36 13.86
12/11/2020 7:15:00 AM 0.01 32.018 0.032 6.44 2.18 13.87
12/11/2020 7:30:00 AM 0.02 32.036 0.032 6.44 2.1 13.88
12/11/2020 7:45:00 AM 0.01 32.018 0.031 6.44 2.11 13.88
12/11/2020 8:00:00 AM 0.01 32.018 0.03 6.45 2.09 13.92
12/11/2020 8:15:00 AM 0.05 32.09 0.032 6.46 2.08 13.91
12/11/2020 8:30:00 AM 0.05 32.09 0.032 6.45 2.11 13.93
12/11/2020 8:45:00 AM 0.07 32.126 0.031 6.46 2.33 13.96
12/11/2020 9:00:00 AM 0.1 32.18 0.032 6.46 2.1 13.97
12/11/2020 9:15:00 AM 0.13 32.234 0.03 6.46 2.1 13.99
12/11/2020 9:30:00 AM 0.18 32.324 0.031 6.46 2.28 14
12/11/2020 9:45:00 AM 0.22 32.396 0.032 6.48 2.1 14.02
12/11/2020 10:00:00 AM 0.29 32.522 0.031 6.48 2.14 14.02
12/11/2020 10:15:00 AM 0.37 32.666 0.031 6.48 2.13 14.01
12/11/2020 10:30:00 AM 0.43 32.774 0.03 6.49 2.13 14
12/11/2020 10:45:00 AM 0.52 32.936 0.029 6.48 2.13 13.98
12/11/2020 11:00:00 AM 0.62 33.116 0.032 6.48 2.09 13.95
12/11/2020 11:15:00 AM 0.73 33.314 0.032 6.48 2.18 13.93
12/11/2020 11:30:00 AM 0.87 33.566 0.031 6.47 2.12 13.89
12/11/2020 11:45:00 AM 1 33.8 0.03 6.49 2.14 13.86
12/11/2020 12:00:00 PM 1.16 34.088 0.03 6.49 2.14 13.8
12/11/2020 12:15:00 PM 1.32 34.376 0.03 6.49 2.13 13.74
12/11/2020 12:30:00 PM 1.45 34.61 0.031 6.5 2.09 13.71
12/11/2020 12:45:00 PM 1.57 34.826 0.031 6.5 2.05 13.68
12/11/2020 1:00:00 PM 1.69 35.042 0.028 6.5 2.08 13.64
12/11/2020 1:15:00 PM 1.81 35.258 0.032 6.49 2.07 13.58
12/11/2020 1:30:00 PM 1.89 35.402 0.03 6.51 2.07 13.54
12/11/2020 1:45:00 PM 1.98 35.564 0.03 6.5 2.07 13.49
12/11/2020 2:00:00 PM 2.06 35.708 0.03 6.52 2.1 13.48
12/11/2020 2:15:00 PM 2.14 35.852 0.031 6.51 2.06 13.44
12/11/2020 2:30:00 PM 2.21 35.978 0.029 6.52 2.14 13.41
12/11/2020 2:45:00 PM 2.27 36.086 0.029 6.53 2.04 13.4
12/11/2020 3:00:00 PM 2.34 36.212 0.03 6.51 2.05 13.34
12/11/2020 3:15:00 PM 2.37 36.266 0.03 6.52 2.12 13.32
12/11/2020 3:30:00 PM 2.39 36.302 0.03 6.51 2.07 13.28
12/11/2020 3:45:00 PM 2.39 36.302 0.029 6.52 2.08 13.27
12/11/2020 4:00:00 PM 2.38 36.284 0.029 6.52 2.05 13.24
12/11/2020 4:15:00 PM 2.34 36.212 0.03 6.51 2.14 13.24
12/11/2020 4:30:00 PM 2.31 36.158 0.03 6.51 2.11 13.21
12/11/2020 4:45:00 PM 2.24 36.032 0.028 6.51 2.32 13.19
12/11/2020 5:00:00 PM 2.19 35.942 0.029 6.5 2.96 13.17
12/11/2020 5:15:00 PM 2.13 35.834 0.029 6.5 2.04 13.16
12/11/2020 5:30:00 PM 2.09 35.762 0.029 6.49 2.15 13.14
12/11/2020 5:45:00 PM 2.04 35.672 0.03 6.49 2.05 13.14
12/11/2020 6:00:00 PM 1.98 35.564 0.028 6.49 2.06 13.14
12/11/2020 6:15:00 PM 1.94 35.492 0.029 6.48 2.11 13.14
12/11/2020 6:30:00 PM 1.89 35.402 0.029 6.49 2.08 13.14
12/11/2020 6:45:00 PM 1.84 35.312 0.029 6.49 2.09 13.16
12/11/2020 7:00:00 PM 1.79 35.222 0.029 6.49 2.17 13.17
12/11/2020 7:15:00 PM 1.74 35.132 0.031 6.48 2.19 13.19
12/11/2020 7:30:00 PM 1.71 35.078 0.029 6.48 2.19 13.19
12/11/2020 7:45:00 PM 1.68 35.024 0.03 6.48 2.13 13.19
12/11/2020 8:00:00 PM 1.63 34.934 0.028 6.49 2.11 13.21
12/11/2020 8:15:00 PM 1.58 34.844 0.029 6.48 2.08 13.23
12/11/2020 8:30:00 PM 1.54 34.772 0.029 6.48 2.13 13.25
12/11/2020 8:45:00 PM 1.53 34.754 0.03 6.48 2.14 13.25
12/11/2020 9:00:00 PM 1.51 34.718 0.03 6.47 2.09 13.25
12/11/2020 9:15:00 PM 1.48 34.664 0.03 6.48 2.12 13.27
12/11/2020 9:30:00 PM 1.46 34.628 0.031 6.48 2.18 13.27
12/11/2020 9:45:00 PM 1.43 34.574 0.029 6.49 2.22 13.29
12/11/2020 10:00:00 PM 1.44 34.592 0.029 6.47 2.2 13.27
12/11/2020 10:15:00 PM 1.43 34.574 0.03 6.48 2.17 13.3
12/11/2020 10:30:00 PM 1.42 34.556 0.029 6.47 2.19 13.3
12/11/2020 10:45:00 PM 1.41 34.538 0.031 6.48 2.13 13.31
12/11/2020 11:00:00 PM 1.42 34.556 0.03 6.47 2.15 13.3
12/11/2020 11:15:00 PM 1.41 34.538 0.031 6.47 2.16 13.3
12/11/2020 11:30:00 PM 1.38 34.484 0.03 6.48 2.15 13.33
12/11/2020 11:45:00 PM 1.37 34.466 0.03 6.47 2.16 13.33
12/12/2020 12:00:00 AM 1.35 34.43 0.031 6.47 2.14 13.33
12/12/2020 12:15:00 AM 1.31 34.358 0.03 6.47 2.22 13.35
12/12/2020 12:30:00 AM 1.29 34.322 0.031 6.48 2.2 13.36
12/12/2020 12:45:00 AM 1.29 34.322 0.029 6.47 2.15 13.35
12/12/2020 1:00:00 AM 1.27 34.286 0.03 6.46 2.19 13.36
12/12/2020 1:15:00 AM 1.23 34.214 0.03 6.47 2.13 13.38
12/12/2020 1:30:00 AM 1.21 34.178 0.029 6.47 2.2 13.38
12/12/2020 1:45:00 AM 1.19 34.142 0.029 6.47 2.13 13.39
12/12/2020 2:00:00 AM 1.18 34.124 0.03 6.46 2.11 13.39
12/12/2020 2:15:00 AM 1.16 34.088 0.029 6.47 2.13 13.41
12/12/2020 2:30:00 AM 1.16 34.088 0.029 6.45 2.16 13.4
12/12/2020 2:45:00 AM 1.14 34.052 0.031 6.46 2.13 13.41
12/12/2020 3:00:00 AM 1.15 34.07 0.031 6.45 2.07 13.41
12/12/2020 3:15:00 AM 1.13 34.034 0.03 6.46 2.19 13.42
12/12/2020 3:30:00 AM 1.14 34.052 0.031 6.46 2.22 13.41
12/12/2020 3:45:00 AM 1.11 33.998 0.03 6.46 2.18 13.43
12/12/2020 4:00:00 AM 1.1 33.98 0.03 6.46 2.06 13.44
12/12/2020 4:15:00 AM 1.09 33.962 0.03 6.46 2.06 13.45
12/12/2020 4:30:00 AM 1.1 33.98 0.029 6.45 2.14 13.43
12/12/2020 4:45:00 AM 1.08 33.944 0.03 6.46 2.07 13.45
12/12/2020 5:00:00 AM 1.07 33.926 0.031 6.47 2.2 13.46
12/12/2020 5:15:00 AM 1.07 33.926 0.029 6.46 2.11 13.46
12/12/2020 5:30:00 AM 1.07 33.926 0.03 6.46 2.09 13.45
12/12/2020 5:45:00 AM 1.06 33.908 0.03 6.46 2.09 13.44
12/12/2020 6:00:00 AM 1.04 33.872 0.029 6.46 2.13 13.46
12/12/2020 6:15:00 AM 1.03 33.854 0.03 6.46 2.11 13.46
12/12/2020 6:30:00 AM 1.03 33.854 0.029 6.46 2.15 13.47
12/12/2020 6:45:00 AM 1.04 33.872 0.03 6.45 2.15 13.46
12/12/2020 7:00:00 AM 1.03 33.854 0.028 6.46 2.09 13.47
12/12/2020 7:15:00 AM 1.03 33.854 0.029 6.46 2.14 13.47
12/12/2020 7:30:00 AM 1.06 33.908 0.029 6.45 2.24 13.46
12/12/2020 7:45:00 AM 1.07 33.926 0.029 6.45 6.92 13.46
12/12/2020 8:00:00 AM 1.1 33.98 0.032 6.44 6.59 13.46
12/12/2020 8:15:00 AM 1.1 33.98 0.029 6.45 2.28 13.47
12/12/2020 8:30:00 AM 1.13 34.034 0.03 6.47 2.12 13.5
12/12/2020 8:45:00 AM 1.16 34.088 0.03 6.46 2.06 13.5
12/12/2020 9:00:00 AM 1.2 34.16 0.029 6.46 2.08 13.5
12/12/2020 9:15:00 AM 1.24 34.232 0.03 6.48 2.03 13.54
12/12/2020 9:30:00 AM 1.29 34.322 0.03 6.48 2.12 13.55
12/12/2020 9:45:00 AM 1.35 34.43 0.03 6.49 2.1 13.57
12/12/2020 10:00:00 AM 1.43 34.574 0.031 6.48 2.12 13.55
12/12/2020 10:15:00 AM 1.5 34.7 0.029 6.49 2.21 13.56
12/12/2020 10:30:00 AM 1.57 34.826 0.029 6.49 2.08 13.55
12/12/2020 10:45:00 AM 1.65 34.97 0.028 6.51 2.06 13.55
12/12/2020 11:00:00 AM 1.76 35.168 0.03 6.5 2.09 13.52
12/12/2020 11:15:00 AM 1.85 35.33 0.028 6.5 2.08 13.5
12/12/2020 11:30:00 AM 1.95 35.51 0.03 6.5 2.09 13.47
12/12/2020 11:45:00 AM 2.03 35.654 0.029 6.52 2.1 13.46
12/12/2020 12:00:00 PM 2.11 35.798 0.028 6.52 2.02 13.44
12/12/2020 12:15:00 PM 2.21 35.978 0.028 6.52 2.03 13.4
12/12/2020 12:30:00 PM 2.35 36.23 0.03 6.53 2.08 13.38
12/12/2020 12:45:00 PM 2.48 36.464 0.028 6.52 2.08 13.35
12/12/2020 1:00:00 PM 2.61 36.698 0.027 6.53 2.08 13.3
12/12/2020 1:15:00 PM 2.74 36.932 0.029 6.53 2.07 13.26
12/12/2020 1:30:00 PM 2.87 37.166 0.029 6.53 2.08 13.22
12/12/2020 1:45:00 PM 2.97 37.346 0.029 6.54 2.11 13.2
12/12/2020 2:00:00 PM 3.07 37.526 0.028 6.52 2.02 13.14
12/12/2020 2:15:00 PM 3.15 37.67 0.028 6.55 2.04 13.12
12/12/2020 2:30:00 PM 3.25 37.85 0.029 6.51 2.14 13.04
12/12/2020 2:45:00 PM 3.32 37.976 0.028 6.54 2.13 13.04
12/12/2020 3:00:00 PM 3.37 38.066 0.028 6.55 2.09 13.01
12/12/2020 3:15:00 PM 3.41 38.138 0.028 6.55 2.05 12.97
12/12/2020 3:30:00 PM 3.45 38.21 0.028 6.55 2.1 12.94
12/12/2020 3:45:00 PM 3.47 38.246 0.029 6.54 2.07 12.9
12/12/2020 4:00:00 PM 3.49 38.282 0.03 6.55 2.08 12.89
12/12/2020 4:15:00 PM 3.51 38.318 0.029 6.56 2.08 12.86
12/12/2020 4:30:00 PM 3.51 38.318 0.029 6.55 2.1 12.83
12/12/2020 4:45:00 PM 3.49 38.282 0.029 6.55 1.97 12.78
12/12/2020 5:00:00 PM 3.47 38.246 0.029 6.53 2.18 12.74
12/12/2020 5:15:00 PM 3.45 38.21 0.029 6.53 2.1 12.7
12/12/2020 5:30:00 PM 3.42 38.156 0.029 6.52 2.12 12.68
12/12/2020 5:45:00 PM 3.41 38.138 0.029 6.51 2.11 12.65
12/12/2020 6:00:00 PM 3.38 38.084 0.029 6.52 2.12 12.63
12/12/2020 6:15:00 PM 3.39 38.102 0.029 6.51 2.26 12.61
12/12/2020 6:30:00 PM 3.39 38.102 0.03 6.51 2.18 12.6
12/12/2020 6:45:00 PM 3.38 38.084 0.03 6.51 2.14 12.6
12/12/2020 7:00:00 PM 3.4 38.12 0.03 6.5 2.11 12.58
12/12/2020 7:15:00 PM 3.41 38.138 0.029 6.5 2.18 12.58
12/12/2020 7:30:00 PM 3.43 38.174 0.029 6.5 2.2 12.56
12/12/2020 7:45:00 PM 3.45 38.21 0.027 6.5 2.19 12.56
12/12/2020 8:00:00 PM 3.46 38.228 0.028 6.51 2.16 12.56
12/12/2020 8:15:00 PM 3.48 38.264 0.028 6.5 2.35 12.54
12/12/2020 8:30:00 PM 3.48 38.264 0.027 6.5 2.23 12.54
12/12/2020 8:45:00 PM 3.49 38.282 0.028 6.5 2.21 12.53
12/12/2020 9:00:00 PM 3.5 38.3 0.03 6.48 2.19 12.53
12/12/2020 9:15:00 PM 3.49 38.282 0.03 6.48 2.14 12.51
12/12/2020 9:30:00 PM 3.48 38.264 0.029 6.5 2.23 12.54
12/12/2020 9:45:00 PM 3.48 38.264 0.028 6.49 2.3 12.54
12/12/2020 10:00:00 PM 3.47 38.246 0.03 6.49 2.34 12.54
12/12/2020 10:15:00 PM 3.49 38.282 0.03 6.49 2.23 12.54
12/12/2020 10:30:00 PM 3.5 38.3 0.03 6.48 2.26 12.51
12/12/2020 10:45:00 PM 3.49 38.282 0.03 6.49 2.25 12.52
12/12/2020 11:00:00 PM 3.51 38.318 0.029 6.48 2.24 12.51
12/12/2020 11:15:00 PM 3.54 38.372 0.028 6.49 2.27 12.5
12/12/2020 11:30:00 PM 3.57 38.426 0.028 6.5 2.29 12.5
12/12/2020 11:45:00 PM 3.59 38.462 0.028 6.48 2.22 12.49
12/13/2020 12:00:00 AM 3.61 38.498 0.028 6.49 2.27 12.47
12/13/2020 12:15:00 AM 3.61 38.498 0.028 6.49 2.36 12.48
12/13/2020 12:30:00 AM 3.61 38.498 0.028 6.49 2.3 12.47
12/13/2020 12:45:00 AM 3.61 38.498 0.028 6.47 2.3 12.47
12/13/2020 1:00:00 AM 3.59 38.462 0.027 6.49 2.42 12.48
12/13/2020 1:15:00 AM 3.57 38.426 0.027 6.5 2.36 12.49
12/13/2020 1:30:00 AM 3.56 38.408 0.029 6.49 2.28 12.48
12/13/2020 1:45:00 AM 3.53 38.354 0.027 6.49 2.31 12.48
12/13/2020 2:00:00 AM 3.52 38.336 0.029 6.47 2.31 12.48
12/13/2020 2:15:00 AM 3.49 38.282 0.029 6.48 2.33 12.49
12/13/2020 2:30:00 AM 3.47 38.246 0.03 6.48 2.31 12.49
12/13/2020 2:45:00 AM 3.46 38.228 0.029 6.49 2.35 12.5
12/13/2020 3:00:00 AM 3.45 38.21 0.029 6.48 2.28 12.5
12/13/2020 3:15:00 AM 3.46 38.228 0.029 6.48 2.32 12.5
12/13/2020 3:30:00 AM 3.44 38.192 0.029 6.48 2.3 12.52
12/13/2020 3:45:00 AM 3.44 38.192 0.029 6.48 2.34 12.51
12/13/2020 4:00:00 AM 3.43 38.174 0.028 6.48 2.27 12.52
12/13/2020 4:15:00 AM 3.42 38.156 0.029 6.47 2.26 12.51
12/13/2020 4:30:00 AM 3.41 38.138 0.029 6.48 2.27 12.52
12/13/2020 4:45:00 AM 3.42 38.156 0.03 6.47 2.29 12.51
12/13/2020 5:00:00 AM 3.43 38.174 0.028 6.48 2.28 12.52
12/13/2020 5:15:00 AM 3.44 38.192 0.028 6.48 2.31 12.5
12/13/2020 5:30:00 AM 3.44 38.192 0.028 6.48 2.22 12.53
12/13/2020 5:45:00 AM 3.44 38.192 0.028 6.48 2.26 12.53
12/13/2020 6:00:00 AM 3.44 38.192 0.027 6.49 2.35 12.53
12/13/2020 6:15:00 AM 3.44 38.192 0.028 6.47 2.22 12.51
12/13/2020 6:30:00 AM 3.45 38.21 0.029 6.47 2.21 12.51
12/13/2020 6:45:00 AM 3.42 38.156 0.028 6.49 2.28 12.53
12/13/2020 7:00:00 AM 3.41 38.138 0.028 6.48 2.23 12.53
12/13/2020 7:15:00 AM 3.42 38.156 0.028 6.48 2.21 12.52
12/13/2020 7:30:00 AM 3.42 38.156 0.028 6.48 2.83 12.54
12/13/2020 7:45:00 AM 3.46 38.228 0.03 6.47 2.27 12.52
12/13/2020 8:00:00 AM 3.47 38.246 0.029 6.48 2.28 12.56
12/13/2020 8:15:00 AM 3.49 38.282 0.03 6.47 2.22 12.58
12/13/2020 8:30:00 AM 3.51 38.318 0.028 6.48 2.23 12.6
12/13/2020 8:45:00 AM 3.52 38.336 0.029 6.49 2.25 12.63
12/13/2020 9:00:00 AM 3.54 38.372 0.028 6.49 2.31 12.65
12/13/2020 9:15:00 AM 3.57 38.426 0.028 6.5 2.3 12.68
12/13/2020 9:30:00 AM 3.61 38.498 0.027 6.5 2.2 12.7
12/13/2020 9:45:00 AM 3.66 38.588 0.027 6.5 2.17 12.72
12/13/2020 10:00:00 AM 3.69 38.642 0.027 6.52 2.24 12.75
12/13/2020 10:15:00 AM 3.76 38.768 0.026 6.52 2.32 12.75
12/13/2020 10:30:00 AM 3.82 38.876 0.026 6.53 2.26 12.75
12/13/2020 10:45:00 AM 3.89 39.002 0.026 6.54 2.25 12.75
12/13/2020 11:00:00 AM 3.99 39.182 0.027 6.53 2.23 12.75
12/13/2020 11:15:00 AM 4.07 39.326 0.026 6.53 2.23 12.73
12/13/2020 11:30:00 AM 4.13 39.434 0.027 6.53 2.34 12.73
12/13/2020 11:45:00 AM 4.2 39.56 0.028 6.53 2.19 12.7
12/13/2020 12:00:00 PM 4.24 39.632 0.027 6.53 2.17 12.68
12/13/2020 12:15:00 PM 4.28 39.704 0.027 6.53 2.22 12.66
12/13/2020 12:30:00 PM 4.33 39.794 0.027 6.53 2.18 12.64
12/13/2020 12:45:00 PM 4.37 39.866 0.026 6.53 2.25 12.63
12/13/2020 1:00:00 PM 4.4 39.92 0.027 6.54 2.24 12.64
12/13/2020 1:15:00 PM 4.43 39.974 0.026 6.54 2.44 12.61
12/13/2020 1:30:00 PM 4.46 40.028 0.025 6.54 2.24 12.61
12/13/2020 1:45:00 PM 4.49 40.082 0.026 6.53 2.22 12.57
12/13/2020 2:00:00 PM 4.49 40.082 0.027 6.54 2.15 12.57
12/13/2020 2:15:00 PM 4.5 40.1 0.026 6.53 2.36 12.54
12/13/2020 2:30:00 PM 4.5 40.1 0.026 6.53 2.24 12.53
12/13/2020 2:45:00 PM 4.51 40.118 0.026 6.53 2.64 12.52
12/13/2020 3:00:00 PM 4.5 40.1 0.027 6.52 2.28 12.51
12/13/2020 3:15:00 PM 4.5 40.1 0.027 6.51 2.25 12.47
12/13/2020 3:30:00 PM 4.48 40.064 0.027 6.52 2.31 12.47
12/13/2020 3:45:00 PM 4.45 40.01 0.025 6.53 2.31 12.47
12/13/2020 4:00:00 PM 4.44 39.992 0.026 6.5 2.33 12.43
12/13/2020 4:15:00 PM 4.41 39.938 0.026 6.52 2.25 12.44
12/13/2020 4:30:00 PM 4.39 39.902 0.025 6.52 2.26 12.42
12/13/2020 4:45:00 PM 4.38 39.884 0.026 6.49 2.37 12.39
12/13/2020 5:00:00 PM 4.35 39.83 0.026 6.49 2.27 12.37
12/13/2020 5:15:00 PM 4.33 39.794 0.027 6.49 2.47 12.35
12/13/2020 5:30:00 PM 4.3 39.74 0.027 6.48 2.27 12.34
12/13/2020 5:45:00 PM 4.28 39.704 0.026 6.49 2.32 12.35
12/13/2020 6:00:00 PM 4.26 39.668 0.027 6.48 2.26 12.34
12/13/2020 6:15:00 PM 4.23 39.614 0.027 6.49 2.32 12.33
12/13/2020 6:30:00 PM 4.22 39.596 0.028 6.47 2.24 12.33
12/13/2020 6:45:00 PM 4.19 39.542 0.026 6.48 2.31 12.33
12/13/2020 7:00:00 PM 4.18 39.524 0.026 6.47 2.32 12.33
12/13/2020 7:15:00 PM 4.14 39.452 0.027 6.47 2.29 12.35
12/13/2020 7:30:00 PM 4.12 39.416 0.025 6.48 2.27 12.36
12/13/2020 7:45:00 PM 4.09 39.362 0.027 6.47 2.23 12.36
12/13/2020 8:00:00 PM 4.07 39.326 0.027 6.47 2.39 12.36
12/13/2020 8:15:00 PM 4.05 39.29 0.028 6.47 2.4 12.38
12/13/2020 8:30:00 PM 4.03 39.254 0.027 6.47 2.44 12.38
12/13/2020 8:45:00 PM 4.01 39.218 0.028 6.46 2.31 12.39
12/13/2020 9:00:00 PM 3.98 39.164 0.027 6.47 2.33 12.41
12/13/2020 9:15:00 PM 3.96 39.128 0.027 6.46 2.33 12.4
12/13/2020 9:30:00 PM 3.94 39.092 0.028 6.45 2.31 12.41
12/13/2020 9:45:00 PM 3.93 39.074 0.028 6.45 2.31 12.42
12/13/2020 10:00:00 PM 3.89 39.002 0.027 6.47 2.26 12.43
12/13/2020 10:15:00 PM 3.87 38.966 0.025 6.46 2.36 12.43
12/13/2020 10:30:00 PM 3.85 38.93 0.026 6.45 2.27 12.44
12/13/2020 10:45:00 PM 3.82 38.876 0.026 6.47 2.42 12.45
12/13/2020 11:00:00 PM 3.8 38.84 0.026 6.45 2.33 12.45
12/13/2020 11:15:00 PM 3.78 38.804 0.026 6.45 2.3 12.45
12/13/2020 11:30:00 PM 3.76 38.768 0.026 6.45 2.3 12.46
12/13/2020 11:45:00 PM 3.74 38.732 0.027 6.46 2.44 12.47
12/14/2020 12:00:00 AM 3.72 38.696 0.027 6.45 2.34 12.48
12/14/2020 12:15:00 AM 3.69 38.642 0.027 6.46 2.33 12.49
12/14/2020 12:30:00 AM 3.68 38.624 0.026 6.45 2.29 12.5
12/14/2020 12:45:00 AM 3.66 38.588 0.026 6.46 2.3 12.48
12/14/2020 1:00:00 AM 3.63 38.534 0.025 6.46 2.3 12.5
12/14/2020 1:15:00 AM 3.61 38.498 0.026 6.45 2.29 12.5
12/14/2020 1:30:00 AM 3.59 38.462 0.027 6.46 2.42 12.52
12/14/2020 1:45:00 AM 3.59 38.462 0.027 6.45 2.25 12.49
12/14/2020 2:00:00 AM 3.56 38.408 0.025 6.45 2.22 12.5
12/14/2020 2:15:00 AM 3.54 38.372 0.026 6.45 2.26 12.52
12/14/2020 2:30:00 AM 3.53 38.354 0.027 6.44 2.27 12.51
12/14/2020 2:45:00 AM 3.5 38.3 0.027 6.45 2.33 12.53
12/14/2020 3:00:00 AM 3.47 38.246 0.027 6.45 2.25 12.55
12/14/2020 3:15:00 AM 3.46 38.228 0.029 6.45 2.21 12.53
12/14/2020 3:30:00 AM 3.44 38.192 0.028 6.44 2.25 12.53
12/14/2020 3:45:00 AM 3.42 38.156 0.027 6.44 2.17 12.54
12/14/2020 4:00:00 AM 3.4 38.12 0.027 6.44 2.25 12.55
12/14/2020 4:15:00 AM 3.38 38.084 0.027 6.44 2.21 12.56
12/14/2020 4:30:00 AM 3.37 38.066 0.027 6.44 2.18 12.55
12/14/2020 4:45:00 AM 3.34 38.012 0.027 6.45 2.17 12.57
12/14/2020 5:00:00 AM 3.34 38.012 0.027 6.45 2.26 12.58
12/14/2020 5:15:00 AM 3.33 37.994 0.026 6.44 2.23 12.58
12/14/2020 5:30:00 AM 3.31 37.958 0.026 6.44 2.25 12.58
12/14/2020 5:45:00 AM 3.29 37.922 0.026 6.45 2.19 12.58
12/14/2020 6:00:00 AM 3.28 37.904 0.027 6.44 2.25 12.59
12/14/2020 6:15:00 AM 3.26 37.868 0.026 6.45 2.21 12.6
12/14/2020 6:30:00 AM 3.22 37.796 0.026 6.45 2.16 12.6
12/14/2020 6:45:00 AM 3.18 37.724 0.026 6.45 2.16 12.61
12/14/2020 7:00:00 AM 3.12 37.616 0.026 6.45 2.17 12.63
12/14/2020 7:15:00 AM 3.07 37.526 0.026 6.45 2.18 12.62
12/14/2020 7:30:00 AM 3.03 37.454 0.027 6.45 2.22 12.65
12/14/2020 7:45:00 AM 2.98 37.364 0.027 6.44 3.79 12.64
12/14/2020 8:00:00 AM 2.92 37.256 0.026 6.45 2.22 12.68
12/14/2020 8:15:00 AM 2.87 37.166 0.027 6.45 2.17 12.7
12/14/2020 8:30:00 AM 2.86 37.148 0.028 6.44 2.21 12.71
12/14/2020 8:45:00 AM 2.82 37.076 0.027 6.46 2.26 12.75
12/14/2020 9:00:00 AM 2.81 37.058 0.028 6.47 2.25 12.8
12/14/2020 9:15:00 AM 2.83 37.094 0.028 6.46 2.27 12.82
12/14/2020 9:30:00 AM 2.83 37.094 0.028 6.47 2.33 12.86
12/14/2020 9:45:00 AM 2.85 37.13 0.028 6.47 2.24 12.87
12/14/2020 10:00:00 AM 2.86 37.148 0.027 6.49 2.12 12.9
12/14/2020 10:15:00 AM 2.86 37.148 0.028 6.48 2.19 12.92
12/14/2020 10:30:00 AM 2.86 37.148 0.027 6.49 2.21 12.93
12/14/2020 10:45:00 AM 2.87 37.166 0.029 6.49 2.21 12.95
12/14/2020 11:00:00 AM 2.89 37.202 0.029 6.49 2.2 12.95
12/14/2020 11:15:00 AM 2.89 37.202 0.029 6.5 2.2 12.97
12/14/2020 11:30:00 AM 2.9 37.22 0.029 6.5 2.19 12.98
12/14/2020 11:45:00 AM 2.92 37.256 0.028 6.5 2.18 12.98
12/14/2020 12:00:00 PM 2.94 37.292 0.028 6.5 2.21 12.99
12/14/2020 12:15:00 PM 2.96 37.328 0.026 6.51 2.22 12.99
12/14/2020 12:30:00 PM 3 37.4 0.028 6.5 2.24 12.97
12/14/2020 12:45:00 PM 3.03 37.454 0.026 6.51 2.14 12.99
12/14/2020 1:00:00 PM 3.06 37.508 0.027 6.5 2.23 12.96
12/14/2020 1:15:00 PM 3.07 37.526 0.026 6.5 2.12 12.95
12/14/2020 1:30:00 PM 3.08 37.544 0.027 6.49 2.17 12.94
12/14/2020 1:45:00 PM 3.1 37.58 0.026 6.5 2.17 12.95
12/14/2020 2:00:00 PM 3.12 37.616 0.026 6.5 2.17 12.94
12/14/2020 2:15:00 PM 3.12 37.616 0.026 6.51 2.14 12.94
12/14/2020 2:30:00 PM 3.13 37.634 0.026 6.5 2.13 12.91
12/14/2020 2:45:00 PM 3.14 37.652 0.026 6.51 2.19 12.92
12/14/2020 3:00:00 PM 3.15 37.67 0.026 6.5 2.16 12.91
12/14/2020 3:15:00 PM 3.17 37.706 0.027 6.51 2.19 12.91
12/14/2020 3:30:00 PM 3.16 37.688 0.026 6.51 2.24 12.9
12/14/2020 3:45:00 PM 3.16 37.688 0.027 6.5 2.22 12.88
12/14/2020 4:00:00 PM 3.14 37.652 0.026 6.51 2.26 12.87
12/14/2020 4:15:00 PM 3.13 37.634 0.026 6.49 2.21 12.85
12/14/2020 4:30:00 PM 3.11 37.598 0.025 6.49 2.25 12.82
12/14/2020 4:45:00 PM 3.08 37.544 0.026 6.49 2.19 12.81
12/14/2020 5:00:00 PM 3.06 37.508 0.027 6.48 2.15 12.79
12/14/2020 5:15:00 PM 3.03 37.454 0.026 6.48 2.22 12.77
12/14/2020 5:30:00 PM 3 37.4 0.025 6.47 2.17 12.74
12/14/2020 5:45:00 PM 2.98 37.364 0.026 6.46 2.17 12.72
12/14/2020 6:00:00 PM 2.94 37.292 0.026 6.48 2.2 12.74
12/14/2020 6:15:00 PM 2.93 37.274 0.028 6.47 2.32 12.73
12/14/2020 6:30:00 PM 2.89 37.202 0.028 6.46 2.19 12.72
12/14/2020 6:45:00 PM 2.86 37.148 0.027 6.47 2.25 12.74
12/14/2020 7:00:00 PM 2.82 37.076 0.026 6.47 2.21 12.75
12/14/2020 7:15:00 PM 2.79 37.022 0.028 6.46 2.21 12.75
12/14/2020 7:30:00 PM 2.74 36.932 0.027 6.46 2.24 12.77
12/14/2020 7:45:00 PM 2.68 36.824 0.026 6.47 2.23 12.79
12/14/2020 8:00:00 PM 2.65 36.77 0.029 6.46 2.22 12.79
12/14/2020 8:15:00 PM 2.58 36.644 0.029 6.46 2.2 12.82
12/14/2020 8:30:00 PM 2.53 36.554 0.025 6.46 2.22 12.81
12/14/2020 8:45:00 PM 2.47 36.446 0.028 6.45 2.29 12.84
12/14/2020 9:00:00 PM 2.39 36.302 0.028 6.45 2.2 12.86
12/14/2020 9:15:00 PM 2.29 36.122 0.026 6.46 2.25 12.91
12/14/2020 9:30:00 PM 2.2 35.96 0.027 6.47 2.19 12.95
12/14/2020 9:45:00 PM 2.14 35.852 0.027 6.45 2.24 12.95
12/14/2020 10:00:00 PM 2.05 35.69 0.027 6.45 2.19 12.99
12/14/2020 10:15:00 PM 1.97 35.546 0.027 6.46 2.23 13.02
12/14/2020 10:30:00 PM 1.88 35.384 0.027 6.46 2.2 13.05
12/14/2020 10:45:00 PM 1.8 35.24 0.027 6.45 2.16 13.08
12/14/2020 11:00:00 PM 1.72 35.096 0.027 6.46 2.31 13.13
12/14/2020 11:15:00 PM 1.66 34.988 0.028 6.45 2.21 13.13
12/14/2020 11:30:00 PM 1.58 34.844 0.027 6.46 2.19 13.19
12/14/2020 11:45:00 PM 1.51 34.718 0.026 6.45 2.25 13.22
12/15/2020 12:00:00 AM 1.47 34.646 0.027 6.46 2.3 13.24
12/15/2020 12:15:00 AM 1.42 34.556 0.027 6.45 2.21 13.26
12/15/2020 12:30:00 AM 1.39 34.502 0.028 6.45 2.2 13.28
12/15/2020 12:45:00 AM 1.36 34.448 0.029 6.46 2.2 13.31
12/15/2020 1:00:00 AM 1.32 34.376 0.029 6.45 2.2 13.33
12/15/2020 1:15:00 AM 1.3 34.34 0.028 6.46 2.17 13.34
12/15/2020 1:30:00 AM 1.3 34.34 0.028 6.45 2.17 13.34
12/15/2020 1:45:00 AM 1.27 34.286 0.027 6.44 2.23 13.35
12/15/2020 2:00:00 AM 1.22 34.196 0.027 6.46 2.23 13.37
12/15/2020 2:15:00 AM 1.16 34.088 0.027 6.45 2.25 13.39
12/15/2020 2:30:00 AM 1.11 33.998 0.027 6.45 2.27 13.4
12/15/2020 2:45:00 AM 1.08 33.944 0.029 6.44 2.26 13.43
12/15/2020 3:00:00 AM 1.04 33.872 0.029 6.45 2.22 13.44
12/15/2020 3:15:00 AM 1.01 33.818 0.028 6.45 2.29 13.45
12/15/2020 3:30:00 AM 0.96 33.728 0.027 6.45 2.2 13.49
12/15/2020 3:45:00 AM 0.93 33.674 0.029 6.45 2.21 13.51
12/15/2020 4:00:00 AM 0.91 33.638 0.03 6.43 2.21 13.51
12/15/2020 4:15:00 AM 0.87 33.566 0.028 6.44 2.26 13.53
12/15/2020 4:30:00 AM 0.82 33.476 0.029 6.44 2.18 13.56
12/15/2020 4:45:00 AM 0.78 33.404 0.028 6.44 2.21 13.57
12/15/2020 5:00:00 AM 0.74 33.332 0.029 6.44 2.23 13.58
12/15/2020 5:15:00 AM 0.68 33.224 0.029 6.44 2.22 13.59
12/15/2020 5:30:00 AM 0.63 33.134 0.028 6.45 2.17 13.63
12/15/2020 5:45:00 AM 0.59 33.062 0.028 6.44 2.21 13.63
12/15/2020 6:00:00 AM 0.54 32.972 0.028 6.44 2.16 13.66
12/15/2020 6:15:00 AM 0.5 32.9 0.029 6.43 2.26 13.66
12/15/2020 6:30:00 AM 0.46 32.828 0.027 6.44 2.19 13.69
12/15/2020 6:45:00 AM 0.42 32.756 0.029 6.45 2.18 13.71
12/15/2020 7:00:00 AM 0.4 32.72 0.028 6.43 2.2 13.71
12/15/2020 7:15:00 AM 0.37 32.666 0.029 6.43 2.26 13.73
12/15/2020 7:30:00 AM 0.33 32.594 0.027 6.43 2.23 13.74
12/15/2020 7:45:00 AM 0.32 32.576 0.029 6.43 2.25 13.77
12/15/2020 8:00:00 AM 0.27 32.486 0.028 6.44 2.14 13.82
12/15/2020 8:15:00 AM 0.26 32.468 0.028 6.43 2.17 13.84
12/15/2020 8:30:00 AM 0.24 32.432 0.029 6.44 2.2 13.87
12/15/2020 8:45:00 AM 0.22 32.396 0.03 6.46 2.15 13.92
12/15/2020 9:00:00 AM 0.21 32.378 0.028 6.46 2.16 13.95
12/15/2020 9:15:00 AM 0.22 32.396 0.028 6.45 2.14 13.97
12/15/2020 9:30:00 AM 0.24 32.432 0.032 6.46 2.18 14.01
12/15/2020 9:45:00 AM 0.28 32.504 0.029 6.45 2.17 14.01
12/15/2020 10:00:00 AM 0.3 32.54 0.029 6.46 2.17 14.04
12/15/2020 10:15:00 AM 0.34 32.612 0.029 6.45 2.16 14.04
12/15/2020 10:30:00 AM 0.36 32.648 0.027 6.48 2.19 14.06
12/15/2020 10:45:00 AM 0.42 32.756 0.028 6.48 2.13 14.05
12/15/2020 11:00:00 AM 0.48 32.864 0.03 6.48 2.1 14.06
12/15/2020 11:15:00 AM 0.54 32.972 0.028 6.48 2.17 14.04
12/15/2020 11:30:00 AM 0.6 33.08 0.029 6.48 2.15 14.04
12/15/2020 11:45:00 AM 0.66 33.188 0.029 6.47 2.16 14.01
12/15/2020 12:00:00 PM 0.74 33.332 0.029 6.48 2.18 14.01
12/15/2020 12:15:00 PM 0.82 33.476 0.029 6.47 2.21 13.99
12/15/2020 12:30:00 PM 0.89 33.602 0.028 6.49 2.26 13.98
12/15/2020 12:45:00 PM 0.94 33.692 0.029 6.48 2.21 13.96
12/15/2020 1:00:00 PM 0.99 33.782 0.028 6.5 2.25 13.95
12/15/2020 1:15:00 PM 1.06 33.908 0.029 6.48 2.32 13.92
12/15/2020 1:30:00 PM 1.1 33.98 0.029 6.49 2.24 13.92
12/15/2020 1:45:00 PM 1.14 34.052 0.028 6.48 2.24 13.89
12/15/2020 2:00:00 PM 1.17 34.106 0.028 6.5 2.27 13.89
12/15/2020 2:15:00 PM 1.21 34.178 0.028 6.5 2.23 13.87
12/15/2020 2:30:00 PM 1.23 34.214 0.028 6.49 2.26 13.85
12/15/2020 2:45:00 PM 1.26 34.268 0.029 6.49 2.3 13.83
12/15/2020 3:00:00 PM 1.26 34.268 0.029 6.49 2.35 13.81
12/15/2020 3:15:00 PM 1.22 34.196 0.028 6.49 2.32 13.81
12/15/2020 3:30:00 PM 1.19 34.142 0.028 6.5 2.3 13.82
12/15/2020 3:45:00 PM 1.15 34.07 0.029 6.5 2.41 13.8
12/15/2020 4:00:00 PM 1.11 33.998 0.028 6.5 2.35 13.8
12/15/2020 4:15:00 PM 1.08 33.944 0.029 6.49 2.24 13.77
12/15/2020 4:30:00 PM 1.01 33.818 0.028 6.49 2.31 13.78
12/15/2020 4:45:00 PM 0.96 33.728 0.027 6.49 2.36 13.77
12/15/2020 5:00:00 PM 0.91 33.638 0.029 6.47 2.34 13.74
12/15/2020 5:15:00 PM 0.85 33.53 0.027 6.47 2.32 13.74
12/15/2020 5:30:00 PM 0.8 33.44 0.03 6.47 2.36 13.74
12/15/2020 5:45:00 PM 0.73 33.314 0.03 6.47 2.38 13.74
12/15/2020 6:00:00 PM 0.68 33.224 0.029 6.45 2.34 13.74
12/15/2020 6:15:00 PM 0.62 33.116 0.029 6.46 2.31 13.77
12/15/2020 6:30:00 PM 0.58 33.044 0.029 6.44 2.25 13.76
12/15/2020 6:45:00 PM 0.51 32.918 0.028 6.45 2.31 13.78
12/15/2020 7:00:00 PM 0.46 32.828 0.03 6.45 2.27 13.8
12/15/2020 7:15:00 PM 0.42 32.756 0.03 6.45 2.25 13.81
12/15/2020 7:30:00 PM 0.35 32.63 0.027 6.46 2.29 13.83
12/15/2020 7:45:00 PM 0.33 32.594 0.029 6.45 2.24 13.83
12/15/2020 8:00:00 PM 0.3 32.54 0.029 6.45 2.28 13.84
12/15/2020 8:15:00 PM 0.25 32.45 0.03 6.45 2.25 13.85
12/15/2020 8:30:00 PM 0.19 32.342 0.03 6.45 2.25 13.89
12/15/2020 8:45:00 PM 0.18 32.324 0.03 6.45 2.27 13.87
12/15/2020 9:00:00 PM 0.12 32.216 0.029 6.45 2.22 13.91
12/15/2020 9:15:00 PM 0.09 32.162 0.031 6.45 2.2 13.92
12/15/2020 9:30:00 PM 0.06 32.108 0.029 6.44 2.23 13.93
12/15/2020 9:45:00 PM 0.05 32.09 0.03 6.43 2.28 13.92
12/15/2020 10:00:00 PM -0.01 31.982 0.028 6.45 2.22 13.96
12/15/2020 10:15:00 PM -0.02 31.964 0.03 6.45 2.18 13.98
12/15/2020 10:30:00 PM -0.01 31.982 0.031 6.43 2.15 13.96
12/15/2020 10:45:00 PM -0.03 31.946 0.029 6.45 2.17 14
12/15/2020 11:00:00 PM 0 32 0.031 6.44 2.21 13.99
12/15/2020 11:15:00 PM -0.01 31.982 0.031 6.44 2.23 14
12/15/2020 11:30:00 PM 0 32 0.03 6.44 2.21 14
12/15/2020 11:45:00 PM 0 32 0.03 6.44 2.19 14.01
12/16/2020 12:00:00 AM 0 32 0.03 6.45 2.2 14.01
12/16/2020 12:15:00 AM 0 32 0.03 6.45 2.18 14.03
12/16/2020 12:30:00 AM 0 32 0.029 6.45 2.27 14.01
12/16/2020 12:45:00 AM 0 32 0.03 6.45 2.19 14.02
12/16/2020 1:00:00 AM 0 32 0.029 6.44 2.16 14.03
12/16/2020 1:15:00 AM 0 32 0.03 6.45 2.17 14.02
12/16/2020 1:30:00 AM 0.01 32.018 0.031 6.44 2.14 14.01
12/16/2020 1:45:00 AM 0.01 32.018 0.031 6.44 2.12 14.02
12/16/2020 2:00:00 AM 0.02 32.036 0.031 6.44 2.14 14.03
12/16/2020 2:15:00 AM 0 32 0.03 6.46 2.23 14.05
12/16/2020 2:30:00 AM 0 32 0.029 6.47 2.15 14.05
12/16/2020 2:45:00 AM 0 32 0.029 6.47 2.13 14.06
12/16/2020 3:00:00 AM 0.01 32.018 0.031 6.47 2.14 14.06
12/16/2020 3:15:00 AM 0 32 0.031 6.47 2.12 14.06
12/16/2020 3:30:00 AM 0 32 0.031 6.47 2.14 14.06
12/16/2020 3:45:00 AM 0 32 0.03 6.47 2.07 14.07
12/16/2020 4:00:00 AM 0 32 0.03 6.47 2.1 14.07
12/16/2020 4:15:00 AM 0 32 0.029 6.48 2.11 14.07
12/16/2020 4:30:00 AM 0.01 32.018 0.03 6.48 2.08 14.07
12/16/2020 4:45:00 AM 0 32 0.03 6.5 2.09 14.07
12/16/2020 5:00:00 AM -0.01 31.982 0.029 6.5 2.16 14.08
12/16/2020 5:15:00 AM -0.01 31.982 0.029 6.51 2.05 14.09
12/16/2020 5:30:00 AM -0.01 31.982 0.03 6.51 2.04 14.08
12/16/2020 5:45:00 AM -0.01 31.982 0.029 6.51 2.09 14.08
12/16/2020 6:00:00 AM -0.02 31.964 0.029 6.51 2.11 14.09
12/16/2020 6:15:00 AM -0.01 31.982 0.028 6.51 2.04 14.09
12/16/2020 6:30:00 AM -0.02 31.964 0.029 6.51 2.08 14.08
12/16/2020 6:45:00 AM -0.02 31.964 0.03 6.5 2.13 14.08
12/16/2020 7:00:00 AM 0 32 0.029 6.51 2.19 14.05
12/16/2020 7:15:00 AM -0.01 31.982 0.029 6.52 2.09 14.07
12/16/2020 7:30:00 AM -0.02 31.964 0.029 6.51 2.1 14.07
12/16/2020 7:45:00 AM -0.02 31.964 0.029 6.51 2.1 14.07
12/16/2020 8:00:00 AM -0.02 31.964 0.029 6.51 2.18 14.06
12/16/2020 8:15:00 AM 0 32 0.029 6.51 2.14 14.07
12/16/2020 8:30:00 AM -0.02 31.964 0.03 6.52 2.13 14.08
12/16/2020 8:45:00 AM -0.02 31.964 0.028 6.52 2.13 14.1
12/16/2020 9:00:00 AM -0.01 31.982 0.029 6.53 2.12 14.11
12/16/2020 9:15:00 AM -0.03 31.946 0.03 6.52 2.11 14.13
12/16/2020 9:30:00 AM 0 32 0.029 6.53 2.16 14.13
12/16/2020 9:45:00 AM 0 32 0.029 6.53 2.17 14.15
12/16/2020 10:00:00 AM 0.01 32.018 0.029 6.54 2.08 14.17
12/16/2020 10:15:00 AM 0.01 32.018 0.029 6.55 2.07 14.18
12/16/2020 10:30:00 AM 0.01 32.018 0.029 6.56 2.07 14.2
12/16/2020 10:45:00 AM 0.01 32.018 0.028 6.55 2.18 14.21
12/16/2020 11:00:00 AM 0 32 0.028 6.55 2.11 14.22
12/16/2020 11:15:00 AM 0 32 0.028 6.55 2.09 14.22
12/16/2020 11:30:00 AM -0.01 31.982 0.029 6.55 2.22 14.23
12/16/2020 11:45:00 AM 0 32 0.028 6.54 2.13 14.22
12/16/2020 12:00:00 PM 0 32 0.029 6.54 2.2 14.21
12/16/2020 12:15:00 PM 0.01 32.018 0.029 6.53 2.14 14.2
12/16/2020 12:30:00 PM 0.01 32.018 0.029 6.52 2.17 14.18
12/16/2020 12:45:00 PM 0.02 32.036 0.03 6.51 2.34 14.17
12/16/2020 1:00:00 PM 0.03 32.054 0.031 6.5 2.2 14.16
12/16/2020 1:15:00 PM 0.05 32.09 0.031 6.46 2.18 14.1
12/16/2020 1:30:00 PM 0.06 32.108 0.033 6.44 2.17 14.06
12/16/2020 1:45:00 PM 0.05 32.09 0.032 6.44 2.27 14.05
12/16/2020 2:00:00 PM 0.05 32.09 0.032 6.44 2.18 14.04
12/16/2020 2:15:00 PM 0.05 32.09 0.033 6.44 2.29 14.04
12/16/2020 2:30:00 PM 0.04 32.072 0.032 6.43 2.19 14.04
12/16/2020 2:45:00 PM 0.05 32.09 0.034 6.42 2.22 14.01
12/16/2020 3:00:00 PM 0.04 32.072 0.032 6.43 2.2 14.03
12/16/2020 3:15:00 PM 0.04 32.072 0.032 6.44 2.23 14.02
12/16/2020 3:30:00 PM 0.05 32.09 0.034 6.42 2.19 13.97
12/16/2020 3:45:00 PM 0.05 32.09 0.034 6.42 2.23 13.96
12/16/2020 4:00:00 PM 0.05 32.09 0.032 6.43 2.27 13.95
12/16/2020 4:15:00 PM 0.04 32.072 0.033 6.43 2.18 13.94
12/16/2020 4:30:00 PM 0.04 32.072 0.03 6.44 2.27 13.95
12/16/2020 4:45:00 PM 0.05 32.09 0.032 6.43 2.34 13.91
12/16/2020 5:00:00 PM 0.04 32.072 0.032 6.44 2.23 13.92
12/16/2020 5:15:00 PM 0.04 32.072 0.032 6.43 2.32 13.9
12/16/2020 5:30:00 PM 0.04 32.072 0.032 6.43 2.26 13.89
12/16/2020 5:45:00 PM 0.03 32.054 0.032 6.43 2.37 13.89
12/16/2020 6:00:00 PM 0.04 32.072 0.031 6.43 2.22 13.88
12/16/2020 6:15:00 PM 0.04 32.072 0.031 6.43 2.28 13.88
12/16/2020 6:30:00 PM 0.04 32.072 0.034 6.42 2.33 13.86
12/16/2020 6:45:00 PM 0.04 32.072 0.032 6.43 2.3 13.85
12/16/2020 7:00:00 PM 0.04 32.072 0.033 6.43 2.24 13.84
12/16/2020 7:15:00 PM 0.04 32.072 0.032 6.43 2.26 13.84
12/16/2020 7:30:00 PM 0.04 32.072 0.032 6.44 2.33 13.84
12/16/2020 7:45:00 PM 0.03 32.054 0.031 6.45 2.79 13.85
12/16/2020 8:00:00 PM 0.05 32.09 0.031 6.42 2.49 13.82
12/16/2020 8:15:00 PM 0 32 0.031 6.44 2.9 13.83
12/16/2020 8:30:00 PM -0.01 31.982 0.032 6.42 2.86 13.81
12/16/2020 8:45:00 PM 0.01 32.018 0.033 6.4 2.66 13.75
12/16/2020 9:00:00 PM -0.02 31.964 0.03 6.43 2.97 13.79
12/16/2020 9:15:00 PM 0.02 32.036 0.033 6.42 2.61 13.74
12/16/2020 9:30:00 PM 0.02 32.036 0.032 6.39 2.55 13.69
12/16/2020 9:45:00 PM 0.05 32.09 0.033 6.38 2.78 13.63
12/16/2020 10:00:00 PM 0.03 32.054 0.033 6.39 2.37 13.62
12/16/2020 10:15:00 PM 0.03 32.054 0.033 6.4 2.64 13.61
12/16/2020 10:30:00 PM 0.01 32.018 0.032 6.4 2.43 13.61
12/16/2020 10:45:00 PM 0 32 0.032 6.41 2.6 13.63
12/16/2020 11:00:00 PM -0.01 31.982 0.033 6.41 2.46 13.63
12/16/2020 11:15:00 PM -0.01 31.982 0.031 6.42 2.41 13.63
12/16/2020 11:30:00 PM -0.02 31.964 0.032 6.43 2.35 13.63
12/16/2020 11:45:00 PM -0.03 31.946 0.032 6.44 2.33 13.63
12/17/2020 12:00:00 AM -0.03 31.946 0.032 6.44 2.44 13.63
12/17/2020 12:15:00 AM -0.03 31.946 0.032 6.44 2.48 13.62
12/17/2020 12:30:00 AM -0.03 31.946 0.03 6.43 2.37 13.61
12/17/2020 12:45:00 AM -0.02 31.964 0.032 6.42 2.3 13.58
12/17/2020 1:00:00 AM -0.02 31.964 0.031 6.41 2.33 13.56
12/17/2020 1:15:00 AM -0.02 31.964 0.032 6.42 2.27 13.55
12/17/2020 1:30:00 AM -0.03 31.946 0.031 6.42 2.34 13.54
12/17/2020 1:45:00 AM -0.03 31.946 0.033 6.42 2.3 13.53
12/17/2020 2:00:00 AM -0.03 31.946 0.032 6.42 2.37 13.52
12/17/2020 2:15:00 AM -0.03 31.946 0.032 6.42 2.32 13.51
12/17/2020 2:30:00 AM -0.03 31.946 0.032 6.42 2.3 13.5
12/17/2020 2:45:00 AM -0.03 31.946 0.033 6.41 2.23 13.48
12/17/2020 3:00:00 AM -0.03 31.946 0.032 6.41 2.38 13.47
12/17/2020 3:15:00 AM -0.03 31.946 0.032 6.41 2.37 13.45
12/17/2020 3:30:00 AM -0.03 31.946 0.033 6.41 2.26 13.44
12/17/2020 3:45:00 AM -0.03 31.946 0.033 6.41 2.28 13.42
12/17/2020 4:00:00 AM -0.03 31.946 0.032 6.41 2.47 13.4
12/17/2020 4:15:00 AM -0.03 31.946 0.033 6.41 2.32 13.39
12/17/2020 4:30:00 AM -0.03 31.946 0.033 6.41 2.33 13.37
12/17/2020 4:45:00 AM -0.03 31.946 0.033 6.41 2.33 13.36
12/17/2020 5:00:00 AM -0.03 31.946 0.032 6.4 2.28 13.35
12/17/2020 5:15:00 AM -0.03 31.946 0.033 6.4 2.34 13.34
12/17/2020 5:30:00 AM -0.03 31.946 0.032 6.39 2.31 13.33
12/17/2020 5:45:00 AM -0.03 31.946 0.033 6.4 2.32 13.32
12/17/2020 6:00:00 AM -0.03 31.946 0.033 6.4 2.39 13.31
12/17/2020 6:15:00 AM -0.03 31.946 0.033 6.39 2.35 13.31
12/17/2020 6:30:00 AM -0.03 31.946 0.032 6.39 2.33 13.3
12/17/2020 6:45:00 AM -0.03 31.946 0.033 6.39 2.31 13.29
12/17/2020 7:00:00 AM -0.03 31.946 0.033 6.39 2.45 13.28
12/17/2020 7:15:00 AM -0.03 31.946 0.033 6.4 2.26 13.28
12/17/2020 7:30:00 AM -0.03 31.946 0.034 6.4 2.42 13.27
12/17/2020 7:45:00 AM -0.02 31.964 0.032 6.4 2.47 13.27
12/17/2020 8:00:00 AM -0.02 31.964 0.034 6.4 2.45 13.28
12/17/2020 8:15:00 AM -0.02 31.964 0.032 6.41 2.41 13.3
12/17/2020 8:30:00 AM -0.02 31.964 0.033 6.41 2.45 13.32
12/17/2020 8:45:00 AM -0.02 31.964 0.032 6.41 2.54 13.35
12/17/2020 9:00:00 AM -0.03 31.946 0.033 6.41 2.52 13.39
12/17/2020 9:15:00 AM -0.03 31.946 0.032 6.42 2.68 13.42
12/17/2020 9:30:00 AM -0.03 31.946 0.032 6.43 2.6 13.45
12/17/2020 9:45:00 AM -0.02 31.964 0.033 6.43 2.61 13.49
12/17/2020 10:00:00 AM -0.02 31.964 0.033 6.43 2.48 13.51
12/17/2020 10:15:00 AM -0.03 31.946 0.032 6.44 2.51 13.54
12/17/2020 10:30:00 AM -0.02 31.964 0.031 6.44 2.53 13.57
12/17/2020 10:45:00 AM -0.03 31.946 0.031 6.44 2.68 13.59
12/17/2020 11:00:00 AM -0.03 31.946 0.031 6.45 2.67 13.61
12/17/2020 11:15:00 AM -0.03 31.946 0.031 6.45 2.59 13.63
12/17/2020 11:30:00 AM -0.03 31.946 0.03 6.45 2.6 13.65
12/17/2020 11:45:00 AM -0.02 31.964 0.031 6.46 2.89 13.66
12/17/2020 12:00:00 PM -0.01 31.982 0.032 6.46 2.45 13.66
12/17/2020 12:15:00 PM -0.01 31.982 0.031 6.46 2.45 13.67
12/17/2020 12:30:00 PM -0.01 31.982 0.031 6.47 2.45 13.67
12/17/2020 12:45:00 PM -0.01 31.982 0.03 6.46 2.65 13.68
12/17/2020 1:00:00 PM -0.02 31.964 0.03 6.46 2.69 13.72
12/17/2020 1:15:00 PM -0.02 31.964 0.031 6.46 2.48 13.73
12/17/2020 1:30:00 PM -0.02 31.964 0.029 6.45 2.59 13.73
12/17/2020 1:45:00 PM -0.02 31.964 0.03 6.45 2.43 13.74
12/17/2020 2:00:00 PM -0.03 31.946 0.03 6.45 2.63 13.74
12/17/2020 2:15:00 PM -0.02 31.964 0.03 6.45 2.66 13.74
12/17/2020 2:30:00 PM -0.02 31.964 0.03 6.45 2.56 13.74
12/17/2020 2:45:00 PM -0.03 31.946 0.03 6.45 2.58 13.74
12/17/2020 3:00:00 PM -0.03 31.946 0.03 6.45 2.67 13.74
12/17/2020 3:15:00 PM -0.02 31.964 0.03 6.44 2.56 13.72
12/17/2020 3:30:00 PM -0.02 31.964 0.03 6.44 2.43 13.7
12/17/2020 3:45:00 PM -0.01 31.982 0.031 6.45 2.32 13.68
12/17/2020 4:00:00 PM -0.01 31.982 0.03 6.44 2.37 13.66
12/17/2020 4:15:00 PM 0 32 0.03 6.43 2.55 13.64
12/17/2020 4:30:00 PM -0.01 31.982 0.029 6.43 2.31 13.64
12/17/2020 4:45:00 PM -0.01 31.982 0.032 6.42 2.34 13.62
12/17/2020 5:00:00 PM -0.01 31.982 0.03 6.42 2.42 13.6
12/17/2020 5:15:00 PM 0 32 0.032 6.41 2.32 13.57
12/17/2020 5:30:00 PM 0 32 0.031 6.4 2.31 13.57
12/17/2020 5:45:00 PM -0.01 31.982 0.03 6.4 2.43 13.55
12/17/2020 6:00:00 PM 0 32 0.03 6.39 2.6 13.54
12/17/2020 6:15:00 PM 0 32 0.03 6.38 2.43 13.52
12/17/2020 6:30:00 PM -0.01 31.982 0.031 6.39 2.27 13.52
12/17/2020 6:45:00 PM -0.01 31.982 0.03 6.39 2.42 13.51
12/17/2020 7:00:00 PM -0.01 31.982 0.031 6.38 2.25 13.51
12/17/2020 7:15:00 PM -0.02 31.964 0.03 6.39 2.31 13.51
12/17/2020 7:30:00 PM -0.02 31.964 0.03 6.39 2.32 13.52
12/17/2020 7:45:00 PM -0.03 31.946 0.03 6.39 2.35 13.54
12/17/2020 8:00:00 PM -0.03 31.946 0.03 6.39 2.4 13.55
12/17/2020 8:15:00 PM -0.04 31.928 0.029 6.39 2.29 13.55
12/17/2020 8:30:00 PM -0.04 31.928 0.029 6.39 2.34 13.56
12/17/2020 8:45:00 PM -0.04 31.928 0.029 6.39 2.29 13.57
12/17/2020 9:00:00 PM -0.04 31.928 0.029 6.39 2.34 13.58
12/17/2020 9:15:00 PM -0.04 31.928 0.028 6.39 2.42 13.58
12/17/2020 9:30:00 PM -0.04 31.928 0.029 6.39 2.45 13.59
12/17/2020 9:45:00 PM -0.04 31.928 0.029 6.4 2.44 13.6
12/17/2020 10:00:00 PM -0.04 31.928 0.029 6.39 2.55 13.6
12/17/2020 10:15:00 PM -0.04 31.928 0.028 6.39 2.36 13.6
12/17/2020 10:30:00 PM -0.04 31.928 0.029 6.4 2.34 13.6
12/17/2020 10:45:00 PM -0.04 31.928 0.029 6.39 2.35 13.6
12/17/2020 11:00:00 PM -0.04 31.928 0.03 6.39 2.37 13.61
12/17/2020 11:15:00 PM -0.04 31.928 0.028 6.39 2.42 13.61
12/17/2020 11:30:00 PM -0.04 31.928 0.029 6.39 2.35 13.61
12/17/2020 11:45:00 PM -0.04 31.928 0.028 6.38 2.34 13.6
12/18/2020 12:00:00 AM -0.04 31.928 0.029 6.38 2.5 13.6
12/18/2020 12:15:00 AM -0.04 31.928 0.029 6.37 2.35 13.6
12/18/2020 12:30:00 AM -0.04 31.928 0.028 6.37 2.38 13.6
12/18/2020 12:45:00 AM -0.04 31.928 0.028 6.37 2.38 13.6
12/18/2020 1:00:00 AM -0.04 31.928 0.029 6.37 2.37 13.59
12/18/2020 1:15:00 AM -0.03 31.946 0.029 6.37 2.37 13.58
12/18/2020 1:30:00 AM -0.03 31.946 0.029 6.36 2.39 13.58
12/18/2020 1:45:00 AM -0.03 31.946 0.028 6.36 2.37 13.58
12/18/2020 2:00:00 AM -0.03 31.946 0.029 6.36 2.44 13.57
12/18/2020 2:15:00 AM -0.03 31.946 0.03 6.36 2.34 13.56
12/18/2020 2:30:00 AM -0.03 31.946 0.028 6.36 2.3 13.56
12/18/2020 2:45:00 AM -0.03 31.946 0.029 6.36 2.35 13.56
12/18/2020 3:00:00 AM -0.03 31.946 0.028 6.36 2.33 13.56
12/18/2020 3:15:00 AM -0.03 31.946 0.029 6.36 2.38 13.55
12/18/2020 3:30:00 AM -0.03 31.946 0.029 6.36 2.3 13.55
12/18/2020 3:45:00 AM -0.03 31.946 0.028 6.35 2.33 13.55
12/18/2020 4:00:00 AM -0.03 31.946 0.028 6.35 2.35 13.54
12/18/2020 4:15:00 AM -0.03 31.946 0.03 6.35 2.37 13.55
12/18/2020 4:30:00 AM -0.03 31.946 0.029 6.35 2.3 13.55
12/18/2020 4:45:00 AM -0.03 31.946 0.029 6.35 2.39 13.54
12/18/2020 5:00:00 AM -0.03 31.946 0.029 6.35 2.33 13.54
12/18/2020 5:15:00 AM -0.03 31.946 0.029 6.35 2.29 13.54
12/18/2020 5:30:00 AM -0.03 31.946 0.029 6.35 2.29 13.54
12/18/2020 5:45:00 AM -0.03 31.946 0.029 6.35 2.38 13.53
12/18/2020 6:00:00 AM -0.03 31.946 0.029 6.35 2.38 13.54
12/18/2020 6:15:00 AM -0.03 31.946 0.028 6.34 2.34 13.54
12/18/2020 6:30:00 AM -0.03 31.946 0.029 6.35 2.33 13.54
12/18/2020 6:45:00 AM -0.03 31.946 0.029 6.34 2.28 13.54
12/18/2020 7:00:00 AM -0.03 31.946 0.028 6.34 2.31 13.54
12/18/2020 7:15:00 AM -0.03 31.946 0.028 6.34 2.36 13.54
12/18/2020 7:30:00 AM -0.03 31.946 0.029 6.34 2.3 13.54
12/18/2020 7:45:00 AM -0.03 31.946 0.029 6.35 2.32 13.54
12/18/2020 8:00:00 AM -0.03 31.946 0.028 6.34 2.28 13.55
12/18/2020 8:15:00 AM -0.03 31.946 0.029 6.35 2.24 13.55
12/18/2020 8:30:00 AM -0.03 31.946 0.029 6.35 2.27 13.56
12/18/2020 8:45:00 AM -0.03 31.946 0.028 6.35 2.26 13.57
12/18/2020 9:00:00 AM -0.03 31.946 0.029 6.35 2.26 13.59
12/18/2020 9:15:00 AM -0.03 31.946 0.028 6.35 2.36 13.6
12/18/2020 9:30:00 AM -0.03 31.946 0.028 6.35 2.3 13.63
12/18/2020 9:45:00 AM -0.03 31.946 0.03 6.36 2.28 13.64
12/18/2020 10:00:00 AM -0.03 31.946 0.029 6.36 2.51 13.66
12/18/2020 10:15:00 AM -0.03 31.946 0.029 6.36 2.54 13.68
12/18/2020 10:30:00 AM -0.03 31.946 0.029 6.36 2.93 13.7
12/18/2020 10:45:00 AM -0.03 31.946 0.029 6.37 2.42 13.71
12/18/2020 11:00:00 AM -0.03 31.946 0.029 6.37 2.31 13.72
12/18/2020 11:15:00 AM -0.03 31.946 0.028 6.37 2.3 13.73
12/18/2020 11:30:00 AM -0.03 31.946 0.028 6.37 2.32 13.74
12/18/2020 11:45:00 AM -0.03 31.946 0.028 6.37 2.41 13.74
12/18/2020 12:00:00 PM -0.03 31.946 0.029 6.37 2.31 13.76
12/18/2020 12:15:00 PM -0.03 31.946 0.029 6.38 2.36 13.76
12/18/2020 12:30:00 PM -0.03 31.946 0.029 6.37 2.28 13.77
12/18/2020 12:45:00 PM -0.02 31.964 0.029 6.37 2.29 13.77
12/18/2020 1:00:00 PM -0.02 31.964 0.029 6.38 2.27 13.79
12/18/2020 1:15:00 PM -0.03 31.946 0.03 6.39 2.26 13.8
12/18/2020 1:30:00 PM -0.03 31.946 0.029 6.39 2.4 13.81
12/18/2020 1:45:00 PM -0.03 31.946 0.029 6.38 2.33 13.82
12/18/2020 2:00:00 PM -0.03 31.946 0.028 6.38 2.28 13.83
12/18/2020 2:15:00 PM -0.03 31.946 0.028 6.38 2.22 13.83
12/18/2020 2:30:00 PM -0.03 31.946 0.028 6.38 2.32 13.85
12/18/2020 2:45:00 PM -0.04 31.928 0.03 6.39 2.27 13.85
12/18/2020 3:00:00 PM -0.03 31.946 0.029 6.39 2.27 13.85
12/18/2020 3:15:00 PM -0.03 31.946 0.028 6.38 2.23 13.85
12/18/2020 3:30:00 PM -0.03 31.946 0.028 6.38 2.44 13.85
12/18/2020 3:45:00 PM -0.03 31.946 0.029 6.39 2.23 13.85
12/18/2020 4:00:00 PM -0.03 31.946 0.028 6.38 2.31 13.85
12/18/2020 4:15:00 PM -0.03 31.946 0.029 6.38 2.26 13.84
12/18/2020 4:30:00 PM -0.03 31.946 0.029 6.38 2.24 13.83
12/18/2020 4:45:00 PM -0.03 31.946 0.028 6.38 2.26 13.83
12/18/2020 5:00:00 PM -0.03 31.946 0.029 6.38 2.27 13.81
12/18/2020 5:15:00 PM -0.03 31.946 0.029 6.38 2.28 13.8
12/18/2020 5:30:00 PM -0.03 31.946 0.03 6.37 2.28 13.79
12/18/2020 5:45:00 PM -0.03 31.946 0.029 6.37 2.28 13.77
12/18/2020 6:00:00 PM -0.03 31.946 0.03 6.37 2.24 13.77
12/18/2020 6:15:00 PM -0.03 31.946 0.03 6.36 2.23 13.76
12/18/2020 6:30:00 PM -0.03 31.946 0.03 6.36 2.22 13.75
12/18/2020 6:45:00 PM -0.03 31.946 0.029 6.36 2.25 13.75
12/18/2020 7:00:00 PM -0.03 31.946 0.03 6.36 2.23 13.75
12/18/2020 7:15:00 PM -0.03 31.946 0.029 6.36 2.25 13.76
12/18/2020 7:30:00 PM -0.03 31.946 0.03 6.35 2.19 13.75
12/18/2020 7:45:00 PM -0.03 31.946 0.029 6.34 2.21 13.75
12/18/2020 8:00:00 PM -0.03 31.946 0.03 6.35 2.19 13.75
12/18/2020 8:15:00 PM -0.03 31.946 0.029 6.36 2.24 13.75
12/18/2020 8:30:00 PM -0.03 31.946 0.03 6.36 2.16 13.75
12/18/2020 8:45:00 PM -0.03 31.946 0.03 6.35 2.2 13.75
12/18/2020 9:00:00 PM -0.03 31.946 0.029 6.35 2.24 13.76
12/18/2020 9:15:00 PM -0.03 31.946 0.029 6.35 2.18 13.75
12/18/2020 9:30:00 PM -0.03 31.946 0.028 6.35 2.19 13.75
12/18/2020 9:45:00 PM -0.03 31.946 0.029 6.35 2.23 13.76
12/18/2020 10:00:00 PM -0.03 31.946 0.03 6.35 2.19 13.75
12/18/2020 10:15:00 PM -0.04 31.928 0.03 6.35 2.18 13.76
12/18/2020 10:30:00 PM -0.04 31.928 0.03 6.35 2.23 13.76
12/18/2020 10:45:00 PM -0.04 31.928 0.029 6.35 2.15 13.75
12/18/2020 11:00:00 PM -0.04 31.928 0.03 6.35 2.18 13.76
12/18/2020 11:15:00 PM -0.04 31.928 0.03 6.35 2.15 13.76
12/18/2020 11:30:00 PM -0.04 31.928 0.03 6.35 2.19 13.76
12/18/2020 11:45:00 PM -0.04 31.928 0.029 6.35 2.21 13.75
12/19/2020 12:00:00 AM -0.04 31.928 0.03 6.35 2.19 13.76
12/19/2020 12:15:00 AM -0.04 31.928 0.029 6.35 2.19 13.75
12/19/2020 12:30:00 AM -0.04 31.928 0.031 6.35 2.24 13.76
12/19/2020 12:45:00 AM -0.04 31.928 0.03 6.34 2.16 13.75
12/19/2020 1:00:00 AM -0.04 31.928 0.029 6.35 2.16 13.76
12/19/2020 1:15:00 AM -0.04 31.928 0.03 6.35 2.19 13.75
12/19/2020 1:30:00 AM -0.04 31.928 0.029 6.35 2.16 13.75
12/19/2020 1:45:00 AM -0.04 31.928 0.03 6.34 2.21 13.75
12/19/2020 2:00:00 AM -0.04 31.928 0.03 6.34 2.15 13.75
12/19/2020 2:15:00 AM -0.04 31.928 0.03 6.34 2.15 13.75
12/19/2020 2:30:00 AM -0.04 31.928 0.03 6.34 2.13 13.75
12/19/2020 2:45:00 AM -0.04 31.928 0.029 6.34 2.16 13.74
12/19/2020 3:00:00 AM -0.04 31.928 0.03 6.34 2.19 13.75
12/19/2020 3:15:00 AM -0.04 31.928 0.031 6.34 2.17 13.74
12/19/2020 3:30:00 AM -0.04 31.928 0.03 6.34 2.13 13.75
12/19/2020 3:45:00 AM -0.03 31.946 0.031 6.33 3.32 13.71
12/19/2020 4:00:00 AM -0.03 31.946 0.03 6.33 2.31 13.72
12/19/2020 4:15:00 AM -0.03 31.946 0.031 6.33 2.13 13.72
12/19/2020 4:30:00 AM -0.03 31.946 0.029 6.34 2.15 13.73
12/19/2020 4:45:00 AM -0.03 31.946 0.03 6.34 2.16 13.72
12/19/2020 5:00:00 AM -0.03 31.946 0.03 6.34 2.18 13.72
12/19/2020 5:15:00 AM -0.04 31.928 0.03 6.34 2.16 13.72
12/19/2020 5:30:00 AM -0.03 31.946 0.03 6.33 2.14 13.73
12/19/2020 5:45:00 AM -0.04 31.928 0.031 6.34 2.3 13.73
12/19/2020 6:00:00 AM -0.04 31.928 0.03 6.34 2.13 13.72
12/19/2020 6:15:00 AM -0.04 31.928 0.03 6.33 2.15 13.73
12/19/2020 6:30:00 AM -0.04 31.928 0.03 6.34 2.12 13.72
12/19/2020 6:45:00 AM -0.04 31.928 0.03 6.33 2.15 13.72
12/19/2020 7:00:00 AM -0.04 31.928 0.03 6.34 2.11 13.72
12/19/2020 7:15:00 AM -0.04 31.928 0.031 6.33 2.11 13.72
12/19/2020 7:30:00 AM -0.04 31.928 0.03 6.33 2.28 13.72
12/19/2020 7:45:00 AM -0.04 31.928 0.03 6.34 2.11 13.73
12/19/2020 8:00:00 AM -0.04 31.928 0.03 6.34 2.3 13.73
12/19/2020 8:15:00 AM -0.04 31.928 0.031 6.33 2.14 13.74
12/19/2020 8:30:00 AM -0.04 31.928 0.03 6.34 2.2 13.75
12/19/2020 8:45:00 AM -0.04 31.928 0.03 6.34 2.12 13.76
12/19/2020 9:00:00 AM -0.04 31.928 0.03 6.34 2.09 13.78
12/19/2020 9:15:00 AM -0.03 31.946 0.03 6.34 2.14 13.79
12/19/2020 9:30:00 AM -0.03 31.946 0.03 6.34 2.13 13.82
12/19/2020 9:45:00 AM -0.03 31.946 0.031 6.35 2.09 13.84
12/19/2020 10:00:00 AM -0.03 31.946 0.03 6.35 2.13 13.86
12/19/2020 10:15:00 AM -0.03 31.946 0.03 6.35 2.06 13.87
12/19/2020 10:30:00 AM -0.02 31.964 0.03 6.35 2.11 13.9
12/19/2020 10:45:00 AM -0.02 31.964 0.03 6.36 2.25 13.9
12/19/2020 11:00:00 AM -0.02 31.964 0.03 6.36 2.12 13.91
12/19/2020 11:15:00 AM -0.02 31.964 0.03 6.37 2.2 13.92
12/19/2020 11:30:00 AM -0.01 31.982 0.03 6.37 2.15 13.92
12/19/2020 11:45:00 AM -0.01 31.982 0.03 6.37 2.15 13.91
12/19/2020 12:00:00 PM 0 32 0.032 6.37 2.13 13.91
12/19/2020 12:15:00 PM 0.02 32.036 0.031 6.35 2.19 13.89
12/19/2020 12:30:00 PM 0.01 32.018 0.031 6.37 2.19 13.89
12/19/2020 12:45:00 PM 0.02 32.036 0.032 6.37 2.11 13.89
12/19/2020 1:00:00 PM 0.01 32.018 0.031 6.37 2.2 13.88
12/19/2020 1:15:00 PM 0.01 32.018 0.031 6.37 2.12 13.88
12/19/2020 1:30:00 PM 0.01 32.018 0.032 6.38 2.16 13.89
12/19/2020 1:45:00 PM 0.02 32.036 0.03 6.37 2.17 13.88
12/19/2020 2:00:00 PM 0.02 32.036 0.03 6.38 2.18 13.88
12/19/2020 2:15:00 PM 0.01 32.018 0.03 6.39 2.2 13.9
12/19/2020 2:30:00 PM 0 32 0.029 6.39 2.16 13.91
12/19/2020 2:45:00 PM 0.01 32.018 0.03 6.39 2.15 13.91
12/19/2020 3:00:00 PM 0 32 0.029 6.39 2.22 13.91
12/19/2020 3:15:00 PM -0.01 31.982 0.03 6.4 2.16 13.92
12/19/2020 3:30:00 PM -0.01 31.982 0.031 6.4 2.15 13.92
12/19/2020 3:45:00 PM -0.01 31.982 0.03 6.39 2.14 13.91
12/19/2020 4:00:00 PM -0.02 31.964 0.03 6.4 2.11 13.92
12/19/2020 4:15:00 PM -0.02 31.964 0.03 6.4 2.16 13.92
12/19/2020 4:30:00 PM -0.02 31.964 0.029 6.4 2.21 13.9
12/19/2020 4:45:00 PM -0.02 31.964 0.03 6.4 2.21 13.87
12/19/2020 5:00:00 PM -0.02 31.964 0.031 6.39 2.12 13.86
12/19/2020 5:15:00 PM -0.02 31.964 0.031 6.38 2.31 13.84
12/19/2020 5:30:00 PM -0.02 31.964 0.03 6.38 2.18 13.81
12/19/2020 5:45:00 PM -0.02 31.964 0.03 6.38 2.16 13.8
12/19/2020 6:00:00 PM -0.02 31.964 0.029 6.38 2.13 13.79
12/19/2020 6:15:00 PM -0.02 31.964 0.03 6.37 2.18 13.76
12/19/2020 6:30:00 PM -0.01 31.982 0.03 6.37 2.17 13.75
12/19/2020 6:45:00 PM -0.01 31.982 0.03 6.37 2.24 13.74
12/19/2020 7:00:00 PM -0.01 31.982 0.03 6.37 2.15 13.73
12/19/2020 7:15:00 PM -0.01 31.982 0.03 6.36 2.2 13.72
12/19/2020 7:30:00 PM -0.01 31.982 0.03 6.36 2.14 13.72
12/19/2020 7:45:00 PM -0.01 31.982 0.03 6.36 2.18 13.71
12/19/2020 8:00:00 PM -0.01 31.982 0.03 6.37 2.19 13.7
12/19/2020 8:15:00 PM -0.02 31.964 0.03 6.37 2.18 13.71
12/19/2020 8:30:00 PM -0.01 31.982 0.029 6.37 2.18 13.7
12/19/2020 8:45:00 PM -0.02 31.964 0.03 6.36 2.22 13.7
12/19/2020 9:00:00 PM -0.02 31.964 0.029 6.37 2.49 13.7
12/19/2020 9:15:00 PM -0.02 31.964 0.03 6.37 2.17 13.71
12/19/2020 9:30:00 PM -0.02 31.964 0.03 6.36 2.22 13.7
12/19/2020 9:45:00 PM -0.02 31.964 0.029 6.36 2.19 13.7
12/19/2020 10:00:00 PM -0.02 31.964 0.029 6.36 2.17 13.7
12/19/2020 10:15:00 PM -0.02 31.964 0.031 6.36 2.16 13.7
12/19/2020 10:30:00 PM -0.02 31.964 0.03 6.36 2.13 13.69
12/19/2020 10:45:00 PM -0.01 31.982 0.03 6.36 2.19 13.69
12/19/2020 11:00:00 PM -0.01 31.982 0.03 6.37 2.2 13.69
12/19/2020 11:15:00 PM -0.01 31.982 0.03 6.37 2.16 13.69
12/19/2020 11:30:00 PM -0.01 31.982 0.031 6.37 2.14 13.69
12/19/2020 11:45:00 PM -0.01 31.982 0.029 6.37 2.14 13.68
12/20/2020 12:00:00 AM -0.01 31.982 0.03 6.37 2.14 13.68
12/20/2020 12:15:00 AM -0.01 31.982 0.029 6.37 2.13 13.68
12/20/2020 12:30:00 AM -0.01 31.982 0.03 6.37 2.13 13.68
12/20/2020 12:45:00 AM 0 32 0.032 6.36 2.13 13.67
12/20/2020 1:00:00 AM 0.01 32.018 0.032 6.36 2.21 13.65
12/20/2020 1:15:00 AM 0.01 32.018 0.03 6.36 2.14 13.64
12/20/2020 1:30:00 AM 0.01 32.018 0.03 6.36 2.17 13.64
12/20/2020 1:45:00 AM 0.01 32.018 0.029 6.36 2.18 13.65
12/20/2020 2:00:00 AM 0.02 32.036 0.031 6.36 2.18 13.63
12/20/2020 2:15:00 AM 0 32 0.031 6.37 2.11 13.64
12/20/2020 2:30:00 AM 0.01 32.018 0.029 6.36 2.12 13.64
12/20/2020 2:45:00 AM 0.01 32.018 0.032 6.36 2.12 13.64
12/20/2020 3:00:00 AM 0 32 0.031 6.36 2.1 13.64
12/20/2020 3:15:00 AM 0.01 32.018 0.03 6.35 2.13 13.64
12/20/2020 3:30:00 AM 0.01 32.018 0.031 6.36 2.14 13.64
12/20/2020 3:45:00 AM 0.02 32.036 0.03 6.36 2.11 13.64
12/20/2020 4:00:00 AM 0.02 32.036 0.031 6.36 2.17 13.64
12/20/2020 4:15:00 AM 0.02 32.036 0.031 6.35 2.14 13.63
12/20/2020 4:30:00 AM 0.03 32.054 0.031 6.36 2.12 13.62
12/20/2020 4:45:00 AM 0.03 32.054 0.031 6.36 2.16 13.63
12/20/2020 5:00:00 AM 0.03 32.054 0.03 6.36 2.16 13.63
12/20/2020 5:15:00 AM 0.04 32.072 0.031 6.35 2.1 13.62
12/20/2020 5:30:00 AM 0.03 32.054 0.03 6.36 2.1 13.62
12/20/2020 5:45:00 AM 0.03 32.054 0.031 6.36 2.15 13.63
12/20/2020 6:00:00 AM 0.04 32.072 0.031 6.36 2.17 13.62
12/20/2020 6:15:00 AM 0.04 32.072 0.031 6.35 2.1 13.61
12/20/2020 6:30:00 AM 0.05 32.09 0.031 6.35 2.16 13.61
12/20/2020 6:45:00 AM 0.06 32.108 0.031 6.34 2.12 13.59
12/20/2020 7:00:00 AM 0.05 32.09 0.032 6.35 2.13 13.6
12/20/2020 7:15:00 AM 0.04 32.072 0.032 6.35 2.1 13.61
12/20/2020 7:30:00 AM 0.05 32.09 0.032 6.35 2.11 13.6
12/20/2020 7:45:00 AM 0.05 32.09 0.031 6.35 2.13 13.61
12/20/2020 8:00:00 AM 0.06 32.108 0.032 6.35 2.11 13.6
12/20/2020 8:15:00 AM 0.06 32.108 0.032 6.35 2.21 13.59
12/20/2020 8:30:00 AM 0.06 32.108 0.031 6.36 2.15 13.61
12/20/2020 8:45:00 AM 0.06 32.108 0.032 6.36 2.16 13.63
12/20/2020 9:00:00 AM 0.07 32.126 0.031 6.36 2.17 13.64
12/20/2020 9:15:00 AM 0.07 32.126 0.031 6.36 2.15 13.65
12/20/2020 9:30:00 AM 0.07 32.126 0.032 6.37 2.13 13.67
12/20/2020 9:45:00 AM 0.07 32.126 0.031 6.37 2.15 13.69
12/20/2020 10:00:00 AM 0.07 32.126 0.031 6.37 2.16 13.7
12/20/2020 10:15:00 AM 0.07 32.126 0.031 6.38 2.11 13.73
12/20/2020 10:30:00 AM 0.07 32.126 0.031 6.39 2.17 13.75
12/20/2020 10:45:00 AM 0.07 32.126 0.031 6.39 2.14 13.76
12/20/2020 11:00:00 AM 0.08 32.144 0.031 6.4 2.11 13.76
12/20/2020 11:15:00 AM 0.09 32.162 0.031 6.4 2.25 13.77
12/20/2020 11:30:00 AM 0.08 32.144 0.031 6.41 2.12 13.81
12/20/2020 11:45:00 AM 0.09 32.162 0.03 6.41 2.16 13.8
12/20/2020 12:00:00 PM 0.09 32.162 0.031 6.41 2.17 13.8
12/20/2020 12:15:00 PM 0.08 32.144 0.031 6.42 2.2 13.8
12/20/2020 12:30:00 PM 0.09 32.162 0.03 6.41 2.13 13.79
12/20/2020 12:45:00 PM 0.09 32.162 0.032 6.41 2.11 13.79
12/20/2020 1:00:00 PM 0.09 32.162 0.031 6.41 2.04 13.8
12/20/2020 1:15:00 PM 0.08 32.144 0.03 6.42 2.2 13.8
12/20/2020 1:30:00 PM 0.08 32.144 0.03 6.42 2.08 13.81
12/20/2020 1:45:00 PM 0.09 32.162 0.031 6.42 2.12 13.8
12/20/2020 2:00:00 PM 0.1 32.18 0.031 6.42 2.13 13.79
12/20/2020 2:15:00 PM 0.1 32.18 0.03 6.42 2.12 13.8
12/20/2020 2:30:00 PM 0.1 32.18 0.031 6.42 2.14 13.81
12/20/2020 2:45:00 PM 0.1 32.18 0.031 6.42 2.1 13.81
12/20/2020 3:00:00 PM 0.1 32.18 0.03 6.43 2.19 13.82
12/20/2020 3:15:00 PM 0.1 32.18 0.03 6.43 2.16 13.8
12/20/2020 3:30:00 PM 0.1 32.18 0.032 6.43 2.08 13.8
12/20/2020 3:45:00 PM 0.08 32.144 0.031 6.43 2.1 13.8
12/20/2020 4:00:00 PM 0.09 32.162 0.03 6.42 2.13 13.79
12/20/2020 4:15:00 PM 0.09 32.162 0.031 6.42 2.14 13.77
12/20/2020 4:30:00 PM 0.1 32.18 0.03 6.41 2.07 13.74
12/20/2020 4:45:00 PM 0.09 32.162 0.031 6.41 2.17 13.72
12/20/2020 5:00:00 PM 0.08 32.144 0.032 6.42 2.15 13.71
12/20/2020 5:15:00 PM 0.08 32.144 0.03 6.4 2.12 13.7
12/20/2020 5:30:00 PM 0.09 32.162 0.031 6.4 2.28 13.67
12/20/2020 5:45:00 PM 0.09 32.162 0.031 6.41 2.15 13.67
12/20/2020 6:00:00 PM 0.08 32.144 0.031 6.4 2.16 13.67
12/20/2020 6:15:00 PM 0.08 32.144 0.03 6.4 2.23 13.66
12/20/2020 6:30:00 PM 0.08 32.144 0.029 6.4 2.16 13.66
12/20/2020 6:45:00 PM 0.1 32.18 0.031 6.4 2.35 13.64
12/20/2020 7:00:00 PM 0.1 32.18 0.031 6.39 2.14 13.62
12/20/2020 7:15:00 PM 0.09 32.162 0.03 6.4 2.17 13.63
12/20/2020 7:30:00 PM 0.09 32.162 0.031 6.39 2.14 13.62
12/20/2020 7:45:00 PM 0.09 32.162 0.03 6.39 2.14 13.61
12/20/2020 8:00:00 PM 0.08 32.144 0.031 6.4 2.19 13.63
12/20/2020 8:15:00 PM 0.09 32.162 0.03 6.4 2.15 13.63
12/20/2020 8:30:00 PM 0.08 32.144 0.03 6.4 2.14 13.62
12/20/2020 8:45:00 PM 0.08 32.144 0.03 6.4 2.21 13.63
12/20/2020 9:00:00 PM 0.08 32.144 0.03 6.4 2.17 13.62
12/20/2020 9:15:00 PM 0.09 32.162 0.03 6.4 2.16 13.62
12/20/2020 9:30:00 PM 0.09 32.162 0.032 6.39 2.19 13.61
12/20/2020 9:45:00 PM 0.08 32.144 0.031 6.4 2.24 13.61
12/20/2020 10:00:00 PM 0.08 32.144 0.031 6.4 2.21 13.62
12/20/2020 10:15:00 PM 0.08 32.144 0.029 6.4 2.2 13.61
12/20/2020 10:30:00 PM 0.09 32.162 0.03 6.41 2.14 13.6
12/20/2020 10:45:00 PM 0.08 32.144 0.029 6.4 2.2 13.61
12/20/2020 11:00:00 PM 0.09 32.162 0.03 6.4 2.2 13.61
12/20/2020 11:15:00 PM 0.08 32.144 0.03 6.41 2.18 13.61
12/20/2020 11:30:00 PM 0.09 32.162 0.03 6.4 2.21 13.6
12/20/2020 11:45:00 PM 0.09 32.162 0.031 6.4 2.19 13.61
12/21/2020 12:00:00 AM 0.08 32.144 0.03 6.4 2.18 13.61
12/21/2020 12:15:00 AM 0.08 32.144 0.029 6.41 2.19 13.62
12/21/2020 12:30:00 AM 0.08 32.144 0.031 6.41 2.15 13.62
12/21/2020 12:45:00 AM 0.07 32.126 0.029 6.42 2.16 13.62
12/21/2020 1:00:00 AM 0.08 32.144 0.029 6.42 2.1 13.62
12/21/2020 1:15:00 AM 0.07 32.126 0.03 6.42 2.16 13.63
12/21/2020 1:30:00 AM 0.08 32.144 0.031 6.42 2.12 13.63
12/21/2020 1:45:00 AM 0.08 32.144 0.03 6.42 2.17 13.62
12/21/2020 2:00:00 AM 0.07 32.126 0.029 6.42 2.14 13.63
12/21/2020 2:15:00 AM 0.08 32.144 0.03 6.42 2.13 13.63
12/21/2020 2:30:00 AM 0.07 32.126 0.03 6.42 2.16 13.63
12/21/2020 2:45:00 AM 0.07 32.126 0.03 6.41 2.21 13.63
12/21/2020 3:00:00 AM 0.07 32.126 0.029 6.42 2.17 13.63
12/21/2020 3:15:00 AM 0.07 32.126 0.029 6.41 2.14 13.63
12/21/2020 3:30:00 AM 0.07 32.126 0.03 6.42 2.16 13.63
12/21/2020 3:45:00 AM 0.08 32.144 0.029 6.42 2.2 13.62
12/21/2020 4:00:00 AM 0.08 32.144 0.03 6.42 2.18 13.62
12/21/2020 4:15:00 AM 0.07 32.126 0.029 6.42 2.14 13.63
12/21/2020 4:30:00 AM 0.07 32.126 0.029 6.41 2.16 13.62
12/21/2020 4:45:00 AM 0.08 32.144 0.03 6.41 2.12 13.62
12/21/2020 5:00:00 AM 0.08 32.144 0.03 6.41 2.14 13.62
12/21/2020 5:15:00 AM 0.08 32.144 0.03 6.4 2.2 13.62
12/21/2020 5:30:00 AM 0.08 32.144 0.03 6.4 2.16 13.6
12/21/2020 5:45:00 AM 0.08 32.144 0.03 6.41 2.18 13.61
12/21/2020 6:00:00 AM 0.09 32.162 0.03 6.42 2.21 13.62
12/21/2020 6:15:00 AM 0.09 32.162 0.031 6.41 2.15 13.61
12/21/2020 6:30:00 AM 0.08 32.144 0.03 6.42 2.13 13.61
12/21/2020 6:45:00 AM 0.09 32.162 0.03 6.41 2.11 13.61
12/21/2020 7:00:00 AM 0.08 32.144 0.031 6.42 2.13 13.62
12/21/2020 7:15:00 AM 0.08 32.144 0.029 6.42 2.16 13.62
12/21/2020 7:30:00 AM 0.09 32.162 0.03 6.41 2.14 13.61
12/21/2020 7:45:00 AM 0.08 32.144 0.03 6.42 2.12 13.61
12/21/2020 8:00:00 AM 0.08 32.144 0.03 6.42 2.16 13.63
12/21/2020 8:15:00 AM 0.09 32.162 0.029 6.42 2.11 13.63
12/21/2020 8:30:00 AM 0.08 32.144 0.029 6.43 2.35 13.64
12/21/2020 8:45:00 AM 0.09 32.162 0.03 6.42 2.16 13.65
12/21/2020 9:00:00 AM 0.09 32.162 0.03 6.43 2.14 13.66
12/21/2020 9:15:00 AM 0.09 32.162 0.03 6.43 2.15 13.69
12/21/2020 9:30:00 AM 0.1 32.18 0.031 6.43 2.13 13.7
12/21/2020 9:45:00 AM 0.11 32.198 0.03 6.42 2.29 13.72
12/21/2020 10:00:00 AM 0.11 32.198 0.031 6.43 2.2 13.75
12/21/2020 10:15:00 AM 0.12 32.216 0.031 6.43 2.12 13.76
12/21/2020 10:30:00 AM 0.12 32.216 0.031 6.44 2.13 13.78
12/21/2020 10:45:00 AM 0.13 32.234 0.03 6.44 2.2 13.78
12/21/2020 11:00:00 AM 0.14 32.252 0.031 6.44 2.17 13.78
12/21/2020 11:15:00 AM 0.15 32.27 0.031 6.45 2.15 13.8
12/21/2020 11:30:00 AM 0.15 32.27 0.031 6.46 2.15 13.82
12/21/2020 11:45:00 AM 0.15 32.27 0.029 6.46 2.13 13.82
12/21/2020 12:00:00 PM 0.15 32.27 0.03 6.46 2.13 13.83
12/21/2020 12:15:00 PM 0.15 32.27 0.031 6.46 2.21 13.83
12/21/2020 12:30:00 PM 0.15 32.27 0.031 6.48 2.17 13.83
12/21/2020 12:45:00 PM 0.15 32.27 0.03 6.48 2.17 13.83
12/21/2020 1:00:00 PM 0.14 32.252 0.03 6.48 2.18 13.83
12/21/2020 1:15:00 PM 0.13 32.234 0.03 6.48 2.25 13.84
12/21/2020 1:30:00 PM 0.14 32.252 0.03 6.48 2.22 13.83
12/21/2020 1:45:00 PM 0.15 32.27 0.03 6.48 2.19 13.82
12/21/2020 2:00:00 PM 0.15 32.27 0.029 6.49 2.2 13.82
12/21/2020 2:15:00 PM 0.15 32.27 0.028 6.48 2.18 13.82
12/21/2020 2:30:00 PM 0.14 32.252 0.031 6.49 2.2 13.81
12/21/2020 2:45:00 PM 0.13 32.234 0.03 6.49 2.23 13.82
12/21/2020 3:00:00 PM 0.14 32.252 0.03 6.48 2.18 13.81
12/21/2020 3:15:00 PM 0.13 32.234 0.031 6.48 2.25 13.8
12/21/2020 3:30:00 PM 0.13 32.234 0.029 6.49 2.18 13.8
12/21/2020 3:45:00 PM 0.12 32.216 0.029 6.48 2.15 13.79
12/21/2020 4:00:00 PM 0.11 32.198 0.029 6.48 2.12 13.78
12/21/2020 4:15:00 PM 0.11 32.198 0.03 6.47 2.26 13.75
12/21/2020 4:30:00 PM 0.12 32.216 0.031 6.46 2.16 13.71
12/21/2020 4:45:00 PM 0.11 32.198 0.03 6.45 2.25 13.7
12/21/2020 5:00:00 PM 0.1 32.18 0.031 6.46 2.13 13.69
12/21/2020 5:15:00 PM 0.1 32.18 0.031 6.45 2.16 13.67
12/21/2020 5:30:00 PM 0.1 32.18 0.03 6.45 2.2 13.63
12/21/2020 5:45:00 PM 0.1 32.18 0.03 6.45 2.18 13.63
12/21/2020 6:00:00 PM 0.08 32.144 0.029 6.44 2.28 13.61
12/21/2020 6:15:00 PM 0.09 32.162 0.029 6.44 2.78 13.62
12/21/2020 6:30:00 PM 0.09 32.162 0.031 6.44 2.34 13.61
12/21/2020 6:45:00 PM 0.1 32.18 0.03 6.43 2.24 13.6
12/21/2020 7:00:00 PM 0.1 32.18 0.03 6.43 2.19 13.59
12/21/2020 7:15:00 PM 0.1 32.18 0.03 6.42 2.21 13.59
12/21/2020 7:30:00 PM 0.1 32.18 0.03 6.43 2.21 13.59
12/21/2020 7:45:00 PM 0.1 32.18 0.031 6.43 2.18 13.58
12/21/2020 8:00:00 PM 0.09 32.162 0.03 6.43 2.14 13.58
12/21/2020 8:15:00 PM 0.1 32.18 0.03 6.42 2.18 13.57
12/21/2020 8:30:00 PM 0.1 32.18 0.03 6.43 2.23 13.58
12/21/2020 8:45:00 PM 0.1 32.18 0.031 6.43 2.21 13.57
12/21/2020 9:00:00 PM 0.11 32.198 0.031 6.43 2.19 13.57
12/21/2020 9:15:00 PM 0.1 32.18 0.03 6.44 2.19 13.57
12/21/2020 9:30:00 PM 0.1 32.18 0.031 6.43 2.18 13.57
12/21/2020 9:45:00 PM 0.1 32.18 0.029 6.43 2.18 13.57
12/21/2020 10:00:00 PM 0.1 32.18 0.031 6.43 2.16 13.57
12/21/2020 10:15:00 PM 0.1 32.18 0.03 6.43 2.22 13.57
12/21/2020 10:30:00 PM 0.11 32.198 0.029 6.43 2.24 13.57
12/21/2020 10:45:00 PM 0.11 32.198 0.031 6.43 2.21 13.56
12/21/2020 11:00:00 PM 0.11 32.198 0.031 6.43 2.17 13.56
12/21/2020 11:15:00 PM 0.11 32.198 0.031 6.43 2.22 13.56
12/21/2020 11:30:00 PM 0.1 32.18 0.03 6.43 2.21 13.57
12/21/2020 11:45:00 PM 0.08 32.144 0.03 6.44 2.18 13.59
12/22/2020 12:00:00 AM 0.11 32.198 0.031 6.42 2.22 13.56
12/22/2020 12:15:00 AM 0.09 32.162 0.03 6.43 2.21 13.56
12/22/2020 12:30:00 AM 0.09 32.162 0.029 6.43 2.19 13.56
12/22/2020 12:45:00 AM 0.08 32.144 0.03 6.44 2.23 13.58
12/22/2020 1:00:00 AM 0.11 32.198 0.029 6.42 2.21 13.56
12/22/2020 1:15:00 AM 0.12 32.216 0.032 6.42 2.18 13.55
12/22/2020 1:30:00 AM 0.1 32.18 0.03 6.43 2.18 13.56
12/22/2020 1:45:00 AM 0.1 32.18 0.03 6.43 2.2 13.57
12/22/2020 2:00:00 AM 0.11 32.198 0.03 6.43 2.18 13.56
12/22/2020 2:15:00 AM 0.1 32.18 0.029 6.43 2.22 13.56
12/22/2020 2:30:00 AM 0.1 32.18 0.031 6.43 2.16 13.56
12/22/2020 2:45:00 AM 0.11 32.198 0.031 6.43 2.16 13.55
12/22/2020 3:00:00 AM 0.12 32.216 0.031 6.42 2.16 13.54
12/22/2020 3:15:00 AM 0.11 32.198 0.029 6.43 2.17 13.55
12/22/2020 3:30:00 AM 0.12 32.216 0.03 6.42 2.16 13.54
12/22/2020 3:45:00 AM 0.11 32.198 0.03 6.42 2.21 13.55
12/22/2020 4:00:00 AM 0.12 32.216 0.031 6.42 2.17 13.54
12/22/2020 4:15:00 AM 0.12 32.216 0.031 6.42 2.2 13.55
12/22/2020 4:30:00 AM 0.12 32.216 0.03 6.42 2.25 13.55
12/22/2020 4:45:00 AM 0.1 32.18 0.03 6.44 2.23 13.57
12/22/2020 5:00:00 AM 0.11 32.198 0.029 6.43 2.28 13.56
12/22/2020 5:15:00 AM 0.11 32.198 0.032 6.42 2.29 13.56
12/22/2020 5:30:00 AM 0.11 32.198 0.031 6.42 2.21 13.56
12/22/2020 5:45:00 AM 0.11 32.198 0.03 6.43 2.19 13.56
12/22/2020 6:00:00 AM 0.11 32.198 0.031 6.42 2.24 13.55
12/22/2020 6:15:00 AM 0.11 32.198 0.031 6.43 2.21 13.56
12/22/2020 6:30:00 AM 0.11 32.198 0.029 6.43 2.19 13.57
12/22/2020 6:45:00 AM 0.11 32.198 0.03 6.43 2.27 13.56
12/22/2020 7:00:00 AM 0.11 32.198 0.031 6.43 2.28 13.57
12/22/2020 7:15:00 AM 0.11 32.198 0.03 6.43 2.19 13.57
12/22/2020 7:30:00 AM 0.12 32.216 0.03 6.42 2.17 13.57
12/22/2020 7:45:00 AM 0.13 32.234 0.031 6.42 2.16 13.57
12/22/2020 8:00:00 AM 0.13 32.234 0.03 6.43 2.2 13.57
12/22/2020 8:15:00 AM 0.12 32.216 0.031 6.45 2.19 13.6
12/22/2020 8:30:00 AM 0.14 32.252 0.031 6.44 2.2 13.6
12/22/2020 8:45:00 AM 0.12 32.216 0.031 6.44 2.19 13.64
12/22/2020 9:00:00 AM 0.15 32.27 0.031 6.45 2.18 13.65
12/22/2020 9:15:00 AM 0.14 32.252 0.031 6.45 2.22 13.66
12/22/2020 9:30:00 AM 0.13 32.234 0.031 6.47 2.17 13.7
12/22/2020 9:45:00 AM 0.15 32.27 0.029 6.47 2.2 13.7
12/22/2020 10:00:00 AM 0.18 32.324 0.03 6.46 2.2 13.68
12/22/2020 10:15:00 AM 0.18 32.324 0.032 6.46 2.18 13.68
12/22/2020 10:30:00 AM 0.16 32.288 0.031 6.48 2.19 13.72
12/22/2020 10:45:00 AM 0.18 32.324 0.03 6.47 2.12 13.72
12/22/2020 11:00:00 AM 0.18 32.324 0.031 6.49 2.15 13.76
12/22/2020 11:15:00 AM 0.22 32.396 0.032 6.46 2.18 13.74
12/22/2020 11:30:00 AM 0.22 32.396 0.031 6.48 2.19 13.76
12/22/2020 11:45:00 AM 0.23 32.414 0.031 6.48 2.15 13.78
12/22/2020 12:00:00 PM 0.22 32.396 0.031 6.48 2.15 13.78
12/22/2020 12:15:00 PM 0.23 32.414 0.03 6.48 2.12 13.8
12/22/2020 12:30:00 PM 0.24 32.432 0.031 6.48 2.15 13.8
12/22/2020 12:45:00 PM 0.23 32.414 0.031 6.48 2.17 13.8
12/22/2020 1:00:00 PM 0.24 32.432 0.03 6.48 2.21 13.79
12/22/2020 1:15:00 PM 0.24 32.432 0.03 6.49 2.14 13.79
12/22/2020 1:30:00 PM 0.23 32.414 0.03 6.49 2.17 13.8
12/22/2020 1:45:00 PM 0.2 32.36 0.031 6.5 2.2 13.82
12/22/2020 2:00:00 PM 0.22 32.396 0.031 6.48 2.15 13.8
12/22/2020 2:15:00 PM 0.23 32.414 0.031 6.49 2.18 13.81
12/22/2020 2:30:00 PM 0.23 32.414 0.032 6.48 2.24 13.81
12/22/2020 2:45:00 PM 0.22 32.396 0.03 6.5 2.12 13.82
12/22/2020 3:00:00 PM 0.24 32.432 0.031 6.48 7.02 13.79
12/22/2020 3:15:00 PM 0.22 32.396 0.031 6.5 2.37 13.82
12/22/2020 3:30:00 PM 0.2 32.36 0.029 6.5 2.38 13.81
12/22/2020 3:45:00 PM 0.22 32.396 0.031 6.48 2.11 13.8
12/22/2020 4:00:00 PM 0.21 32.378 0.032 6.48 2.17 13.8
12/22/2020 4:15:00 PM 0.2 32.36 0.03 6.47 2.15 13.78
12/22/2020 4:30:00 PM 0.19 32.342 0.031 6.47 2.2 13.77
12/22/2020 4:45:00 PM 0.19 32.342 0.031 6.46 2.2 13.76
12/22/2020 5:00:00 PM 0.18 32.324 0.03 6.47 2.27 13.75
12/22/2020 5:15:00 PM 0.18 32.324 0.031 6.46 2.16 13.74
12/22/2020 5:30:00 PM 0.17 32.306 0.032 6.45 2.26 13.72
12/22/2020 5:45:00 PM 0.17 32.306 0.032 6.45 2.32 13.72
12/22/2020 6:00:00 PM 0.17 32.306 0.031 6.46 2.25 13.72
12/22/2020 6:15:00 PM 0.17 32.306 0.032 6.45 2.16 13.72
12/22/2020 6:30:00 PM 0.16 32.288 0.032 6.45 2.18 13.72
12/22/2020 6:45:00 PM 0.17 32.306 0.031 6.45 2.25 13.72
12/22/2020 7:00:00 PM 0.17 32.306 0.031 6.46 2.22 13.71
12/22/2020 7:15:00 PM 0.16 32.288 0.031 6.45 2.17 13.72
12/22/2020 7:30:00 PM 0.16 32.288 0.031 6.44 2.31 13.72
12/22/2020 7:45:00 PM 0.16 32.288 0.031 6.45 2.21 13.74
12/22/2020 8:00:00 PM 0.16 32.288 0.031 6.46 2.22 13.74
12/22/2020 8:15:00 PM 0.16 32.288 0.03 6.45 2.25 13.74
12/22/2020 8:30:00 PM 0.17 32.306 0.032 6.45 2.53 13.73
12/22/2020 8:45:00 PM 0.17 32.306 0.032 6.45 2.26 13.73
12/22/2020 9:00:00 PM 0.17 32.306 0.031 6.45 2.23 13.74
12/22/2020 9:15:00 PM 0.17 32.306 0.031 6.45 2.2 13.74
12/22/2020 9:30:00 PM 0.17 32.306 0.032 6.45 2.24 13.74
12/22/2020 9:45:00 PM 0.17 32.306 0.031 6.45 2.26 13.75
12/22/2020 10:00:00 PM 0.17 32.306 0.032 6.44 2.2 13.71
12/22/2020 10:15:00 PM 0.18 32.324 0.031 6.44 2.17 13.75
12/22/2020 10:30:00 PM 0.17 32.306 0.031 6.45 2.17 13.76
12/22/2020 10:45:00 PM 0.18 32.324 0.032 6.45 2.19 13.75
12/22/2020 11:00:00 PM 0.18 32.324 0.031 6.44 2.21 13.75
12/22/2020 11:15:00 PM 0.17 32.306 0.031 6.46 2.19 13.77
12/22/2020 11:30:00 PM 0.17 32.306 0.031 6.45 2.23 13.77
12/22/2020 11:45:00 PM 0.17 32.306 0.032 6.46 2.23 13.78
12/23/2020 12:00:00 AM 0.17 32.306 0.031 6.45 2.25 13.78
12/23/2020 12:15:00 AM 0.17 32.306 0.031 6.45 2.23 13.77
12/23/2020 12:30:00 AM 0.17 32.306 0.03 6.45 2.24 13.78
12/23/2020 12:45:00 AM 0.17 32.306 0.032 6.45 2.25 13.77
12/23/2020 1:00:00 AM 0.16 32.288 0.031 6.45 2.2 13.78
12/23/2020 1:15:00 AM 0.16 32.288 0.031 6.45 2.18 13.79
12/23/2020 1:30:00 AM 0.16 32.288 0.029 6.45 2.22 13.8
12/23/2020 1:45:00 AM 0.16 32.288 0.03 6.45 2.17 13.79
12/23/2020 2:00:00 AM 0.16 32.288 0.031 6.45 2.24 13.8
12/23/2020 2:15:00 AM 0.17 32.306 0.031 6.45 2.17 13.8
12/23/2020 2:30:00 AM 0.17 32.306 0.031 6.45 2.22 13.79
12/23/2020 2:45:00 AM 0.17 32.306 0.031 6.45 2.19 13.81
12/23/2020 3:00:00 AM 0.17 32.306 0.031 6.45 2.22 13.81
12/23/2020 3:15:00 AM 0.18 32.324 0.032 6.45 2.17 13.81
12/23/2020 3:30:00 AM 0.18 32.324 0.031 6.45 2.17 13.8
12/23/2020 3:45:00 AM 0.18 32.324 0.031 6.45 2.18 13.81
12/23/2020 4:00:00 AM 0.18 32.324 0.031 6.45 2.15 13.82
12/23/2020 4:15:00 AM 0.18 32.324 0.032 6.45 2.16 13.82
12/23/2020 4:30:00 AM 0.18 32.324 0.031 6.45 2.18 13.81
12/23/2020 4:45:00 AM 0.18 32.324 0.03 6.45 2.21 13.82
12/23/2020 5:00:00 AM 0.19 32.342 0.032 6.45 2.19 13.82
12/23/2020 5:15:00 AM 0.19 32.342 0.032 6.45 2.17 13.81
12/23/2020 5:30:00 AM 0.19 32.342 0.032 6.44 2.22 13.81
12/23/2020 5:45:00 AM 0.18 32.324 0.032 6.45 2.2 13.82
12/23/2020 6:00:00 AM 0.16 32.288 0.031 6.44 2.22 13.83
12/23/2020 6:15:00 AM 0.15 32.27 0.031 6.45 2.21 13.85
12/23/2020 6:30:00 AM 0.13 32.234 0.03 6.44 2.27 13.85
12/23/2020 6:45:00 AM 0.11 32.198 0.03 6.44 2.21 13.85
12/23/2020 7:00:00 AM 0.1 32.18 0.029 6.44 2.2 13.86
12/23/2020 7:15:00 AM 0.09 32.162 0.031 6.43 2.21 13.86
12/23/2020 7:30:00 AM 0.09 32.162 0.029 6.44 2.24 13.87
12/23/2020 7:45:00 AM 0.08 32.144 0.031 6.44 2.24 13.88
12/23/2020 8:00:00 AM 0.08 32.144 0.031 6.44 2.22 13.9
12/23/2020 8:15:00 AM 0.08 32.144 0.031 6.44 2.24 13.92
12/23/2020 8:30:00 AM 0.09 32.162 0.03 6.45 2.27 13.95
12/23/2020 8:45:00 AM 0.1 32.18 0.032 6.45 2.23 13.96
12/23/2020 9:00:00 AM 0.11 32.198 0.03 6.45 2.24 13.97
12/23/2020 9:15:00 AM 0.12 32.216 0.03 6.45 2.23 13.98
12/23/2020 9:30:00 AM 0.13 32.234 0.029 6.46 2.24 14
12/23/2020 9:45:00 AM 0.14 32.252 0.031 6.47 2.37 14.01
12/23/2020 10:00:00 AM 0.16 32.288 0.031 6.46 2.23 14.02
12/23/2020 10:15:00 AM 0.18 32.324 0.03 6.47 2.2 14.03
12/23/2020 10:30:00 AM 0.2 32.36 0.031 6.47 2.23 14.03
12/23/2020 10:45:00 AM 0.24 32.432 0.031 6.47 2.2 14.03
12/23/2020 11:00:00 AM 0.28 32.504 0.031 6.48 2.21 14.03
12/23/2020 11:15:00 AM 0.31 32.558 0.031 6.48 2.23 14.04
12/23/2020 11:30:00 AM 0.34 32.612 0.028 6.49 2.21 14.02
12/23/2020 11:45:00 AM 0.37 32.666 0.029 6.49 2.21 14.03
12/23/2020 12:00:00 PM 0.39 32.702 0.03 6.49 2.21 14.02
12/23/2020 12:15:00 PM 0.41 32.738 0.03 6.49 2.25 14.01
12/23/2020 12:30:00 PM 0.44 32.792 0.029 6.49 2.23 14
12/23/2020 12:45:00 PM 0.46 32.828 0.031 6.49 2.23 13.99
12/23/2020 1:00:00 PM 0.47 32.846 0.031 6.49 2.26 13.98
12/23/2020 1:15:00 PM 0.47 32.846 0.03 6.49 2.25 13.98
12/23/2020 1:30:00 PM 0.47 32.846 0.03 6.49 2.17 13.97
12/23/2020 1:45:00 PM 0.46 32.828 0.032 6.5 2.18 13.97
12/23/2020 2:00:00 PM 0.46 32.828 0.031 6.5 2.17 13.97
12/23/2020 2:15:00 PM 0.47 32.846 0.031 6.5 2.18 13.97
12/23/2020 2:30:00 PM 0.47 32.846 0.03 6.5 2.19 13.96
12/23/2020 2:45:00 PM 0.46 32.828 0.03 6.5 2.14 13.96
12/23/2020 3:00:00 PM 0.43 32.774 0.03 6.5 2.14 13.95
12/23/2020 3:15:00 PM 0.43 32.774 0.031 6.5 2.27 13.94
12/23/2020 3:30:00 PM 0.42 32.756 0.029 6.5 2.11 13.94
12/23/2020 3:45:00 PM 0.41 32.738 0.03 6.5 2.15 13.94
12/23/2020 4:00:00 PM 0.38 32.684 0.03 6.5 2.08 13.94
12/23/2020 4:15:00 PM 0.36 32.648 0.03 6.49 2.11 13.93
12/23/2020 4:30:00 PM 0.35 32.63 0.028 6.49 2.15 13.92
12/23/2020 4:45:00 PM 0.33 32.594 0.029 6.48 2.28 13.9
12/23/2020 5:00:00 PM 0.32 32.576 0.03 6.48 2.09 13.88
12/23/2020 5:15:00 PM 0.31 32.558 0.03 6.48 2.07 13.86
12/23/2020 5:30:00 PM 0.29 32.522 0.031 6.48 2.13 13.85
12/23/2020 5:45:00 PM 0.27 32.486 0.03 6.48 2.09 13.84
12/23/2020 6:00:00 PM 0.26 32.468 0.03 6.47 2.06 13.82
12/23/2020 6:15:00 PM 0.23 32.414 0.031 6.47 2.55 13.82
12/23/2020 6:30:00 PM 0.22 32.396 0.031 6.47 2.08 13.81
12/23/2020 6:45:00 PM 0.22 32.396 0.031 6.47 2.07 13.81
12/23/2020 7:00:00 PM 0.22 32.396 0.031 6.47 2.1 13.81
12/23/2020 7:15:00 PM 0.22 32.396 0.031 6.46 2.12 13.81
12/23/2020 7:30:00 PM 0.22 32.396 0.031 6.46 2.06 13.8
12/23/2020 7:45:00 PM 0.23 32.414 0.031 6.46 2.08 13.8
12/23/2020 8:00:00 PM 0.23 32.414 0.031 6.46 2.07 13.8
12/23/2020 8:15:00 PM 0.23 32.414 0.03 6.46 2.13 13.8
12/23/2020 8:30:00 PM 0.23 32.414 0.031 6.46 2.13 13.8
12/23/2020 8:45:00 PM 0.24 32.432 0.032 6.45 2.11 13.78
12/23/2020 9:00:00 PM 0.24 32.432 0.031 6.46 2.12 13.79
12/23/2020 9:15:00 PM 0.24 32.432 0.031 6.46 2.15 13.79
12/23/2020 9:30:00 PM 0.25 32.45 0.031 6.46 2.15 13.79
12/23/2020 9:45:00 PM 0.24 32.432 0.03 6.46 2.13 13.78
12/23/2020 10:00:00 PM 0.23 32.414 0.031 6.46 2.1 13.78
12/23/2020 10:15:00 PM 0.23 32.414 0.032 6.46 2.11 13.78
12/23/2020 10:30:00 PM 0.24 32.432 0.031 6.46 2.14 13.77
12/23/2020 10:45:00 PM 0.25 32.45 0.031 6.46 2.1 13.77
12/23/2020 11:00:00 PM 0.25 32.45 0.031 6.46 2.16 13.78
12/23/2020 11:15:00 PM 0.25 32.45 0.032 6.46 2.15 13.77
12/23/2020 11:30:00 PM 0.25 32.45 0.03 6.46 2.17 13.77
12/23/2020 11:45:00 PM 0.24 32.432 0.031 6.46 2.1 13.77
12/24/2020 12:00:00 AM 0.25 32.45 0.031 6.46 2.1 13.77
12/24/2020 12:15:00 AM 0.25 32.45 0.031 6.46 2.19 13.77
12/24/2020 12:30:00 AM 0.24 32.432 0.031 6.46 2.14 13.77
12/24/2020 12:45:00 AM 0.24 32.432 0.031 6.46 2.14 13.77
12/24/2020 1:00:00 AM 0.24 32.432 0.031 6.47 2.15 13.77
12/24/2020 1:15:00 AM 0.24 32.432 0.031 6.47 2.14 13.77
12/24/2020 1:30:00 AM 0.23 32.414 0.03 6.46 2.16 13.77
12/24/2020 1:45:00 AM 0.23 32.414 0.031 6.47 2.13 13.76
12/24/2020 2:00:00 AM 0.22 32.396 0.031 6.46 2.14 13.76
12/24/2020 2:15:00 AM 0.21 32.378 0.03 6.46 2.11 13.77
12/24/2020 2:30:00 AM 0.22 32.396 0.03 6.47 2.19 13.77
12/24/2020 2:45:00 AM 0.23 32.414 0.031 6.47 2.11 13.76
12/24/2020 3:00:00 AM 0.25 32.45 0.031 6.46 2.12 13.75
12/24/2020 3:15:00 AM 0.27 32.486 0.031 6.46 2.15 13.74
12/24/2020 3:30:00 AM 0.28 32.504 0.03 6.46 2.13 13.75
12/24/2020 3:45:00 AM 0.3 32.54 0.03 6.46 2.12 13.74
12/24/2020 4:00:00 AM 0.31 32.558 0.032 6.46 2.11 13.73
12/24/2020 4:15:00 AM 0.32 32.576 0.03 6.46 2.1 13.72
12/24/2020 4:30:00 AM 0.3 32.54 0.03 6.46 2.12 13.72
12/24/2020 4:45:00 AM 0.3 32.54 0.029 6.47 2.13 13.71
12/24/2020 5:00:00 AM 0.31 32.558 0.032 6.46 2.16 13.71
12/24/2020 5:15:00 AM 0.33 32.594 0.029 6.46 2.15 13.71
12/24/2020 5:30:00 AM 0.34 32.612 0.029 6.46 2.16 13.7
12/24/2020 5:45:00 AM 0.33 32.594 0.03 6.47 2.26 13.7
12/24/2020 6:00:00 AM 0.32 32.576 0.03 6.46 2.12 13.69
12/24/2020 6:15:00 AM 0.33 32.594 0.03 6.47 2.14 13.7
12/24/2020 6:30:00 AM 0.35 32.63 0.031 6.46 2.14 13.69
12/24/2020 6:45:00 AM 0.36 32.648 0.029 6.47 2.14 13.68
12/24/2020 7:00:00 AM 0.37 32.666 0.029 6.46 2.15 13.68
12/24/2020 7:15:00 AM 0.39 32.702 0.029 6.47 2.16 13.67
12/24/2020 7:30:00 AM 0.4 32.72 0.029 6.47 2.14 13.68
12/24/2020 7:45:00 AM 0.4 32.72 0.029 6.47 2.15 13.67
12/24/2020 8:00:00 AM 0.41 32.738 0.03 6.47 2.11 13.67
12/24/2020 8:15:00 AM 0.41 32.738 0.031 6.47 2.59 13.66
12/24/2020 8:30:00 AM 0.42 32.756 0.03 6.47 2.85 13.67
12/24/2020 8:45:00 AM 0.43 32.774 0.031 6.48 2.18 13.68
12/24/2020 9:00:00 AM 0.44 32.792 0.03 6.48 2.21 13.69
12/24/2020 9:15:00 AM 0.46 32.828 0.032 6.49 2.38 13.71
12/24/2020 9:30:00 AM 0.46 32.828 0.03 6.5 2.46 13.73
12/24/2020 9:45:00 AM 0.47 32.846 0.031 6.5 2.5 13.74
12/24/2020 10:00:00 AM 0.46 32.828 0.03 6.51 2.5 13.75
12/24/2020 10:15:00 AM 0.46 32.828 0.031 6.51 2.85 13.75
12/24/2020 10:30:00 AM 0.45 32.81 0.031 6.53 2.84 13.76
12/24/2020 10:45:00 AM 0.44 32.792 0.031 6.54 3.58 13.75
12/24/2020 11:00:00 AM 0.43 32.774 0.035 6.55 4.74 13.73
12/24/2020 11:15:00 AM 0.42 32.756 0.037 6.56 4.38 13.71
12/24/2020 11:30:00 AM 0.41 32.738 0.037 6.57 6.53 13.68
12/24/2020 11:45:00 AM 0.39 32.702 0.041 6.57 7.31 13.66
12/24/2020 12:00:00 PM 0.37 32.666 0.04 6.57 8.58 13.65
12/24/2020 12:15:00 PM 0.36 32.648 0.042 6.57 9.6 13.63
12/24/2020 12:30:00 PM 0.32 32.576 0.04 6.56 8.7 13.63
12/24/2020 12:45:00 PM 0.29 32.522 0.038 6.55 8.96 13.64
12/24/2020 1:00:00 PM 0.28 32.504 0.039 6.54 10.26 13.63
12/24/2020 1:15:00 PM 0.26 32.468 0.038 6.53 11.32 13.62
12/24/2020 1:30:00 PM 0.23 32.414 0.035 6.52 13.94 13.62
12/24/2020 1:45:00 PM 0.21 32.378 0.035 6.5 40.5 13.61
12/24/2020 2:00:00 PM 0.19 32.342 0.036 6.5 29.84 13.6
12/24/2020 2:15:00 PM 0.16 32.288 0.034 6.48 32.89 13.58
12/24/2020 2:30:00 PM 0.12 32.216 0.035 6.46 58.7 13.59
12/24/2020 2:45:00 PM 0.09 32.162 0.032 6.44 55.89 13.6
12/24/2020 3:00:00 PM 0.05 32.09 0.031 6.38 63.53 13.58
12/24/2020 3:15:00 PM 0.09 32.162 0.028 6.32 53.93 13.58
12/24/2020 3:30:00 PM 0.08 32.144 0.026 6.26 77.39 13.57
12/24/2020 3:45:00 PM 0.17 32.306 0.025 6.21 66.96 13.58
12/24/2020 4:00:00 PM 0.2 32.36 0.024 6.17 71.2 13.6
12/24/2020 4:15:00 PM 0.21 32.378 0.023 6.11 82.92 13.61
12/24/2020 4:30:00 PM 0.19 32.342 0.023 6.02 77.83 13.61
12/24/2020 4:45:00 PM 0.32 32.576 0.022 6 105.24 13.61
12/24/2020 5:00:00 PM 0.4 32.72 0.022 5.97 87.24 13.59
12/24/2020 5:15:00 PM 0.45 32.81 0.022 6.01 146.65 13.58
12/24/2020 5:30:00 PM 0.41 32.738 0.013 5.96 132.6 13.57
12/24/2020 5:45:00 PM 0.5 32.9 0.017 5.89 99.27 13.57
12/24/2020 6:00:00 PM 0.56 33.008 0.017 5.8 130.46 13.56
12/24/2020 6:15:00 PM 0.59 33.062 0.017 5.81 153.57 13.54
12/24/2020 6:30:00 PM 0.61 33.098 0.016 5.8 106.04 13.54
12/24/2020 6:45:00 PM 0.62 33.116 0.016 5.87 108.57 13.53
12/24/2020 7:00:00 PM 0.63 33.134 0.013 5.86 81.83 13.52
12/24/2020 7:15:00 PM 0.62 33.116 0.016 5.83 115.13 13.52
12/24/2020 7:30:00 PM 0.6 33.08 0.012 5.78 549.91 13.51
12/24/2020 7:45:00 PM 0.62 33.116 0.01 5.74 110.64 13.49
12/24/2020 8:00:00 PM 0.62 33.116 0.019 5.76 109.03 13.48
12/24/2020 8:15:00 PM 0.69 33.242 0.018 5.7 124.27 13.45
12/24/2020 8:30:00 PM 0.75 33.35 0.013 5.59 84.81 13.42
12/24/2020 8:45:00 PM 0.8 33.44 0.014 5.65 97.29 13.41
12/24/2020 9:00:00 PM 0.83 33.494 0.011 5.61 73.55 13.37
12/24/2020 9:15:00 PM 0.88 33.584 0.012 5.59 82.64 13.33
12/24/2020 9:30:00 PM 0.93 33.674 0.014 5.61 77.08 13.32
12/24/2020 9:45:00 PM 0.97 33.746 0.013 5.6 92.78 13.29
12/24/2020 10:00:00 PM 1.01 33.818 0.011 5.58 88.02 13.26
12/24/2020 10:15:00 PM 1.05 33.89 0.012 5.51 78.3 13.27
12/24/2020 10:30:00 PM 1.13 34.034 0.011 5.55 71.34 13.23
12/24/2020 10:45:00 PM 1.19 34.142 0.015 5.48 336.86 13.22
12/24/2020 11:00:00 PM 1.24 34.232 0.012 5.39 130.58 13.21
12/24/2020 11:15:00 PM 1.29 34.322 0.012 5.46 136.07 13.2
12/24/2020 11:30:00 PM 1.33 34.394 0.011 5.47 171.89 13.19
12/24/2020 11:45:00 PM 1.37 34.466 0.011 5.43 159.16 13.17
12/25/2020 12:00:00 AM 1.42 34.556 0.012 5.39 126.05 13.16
12/25/2020 12:15:00 AM 1.46 34.628 0.011 5.42 95.68 13.15
12/25/2020 12:30:00 AM 1.51 34.718 0.011 5.37 99.03 13.15
12/25/2020 12:45:00 AM 1.56 34.808 0.009 5.38 145.13 13.14
12/25/2020 1:00:00 AM 1.61 34.898 0.009 5.37 111.52 13.13
12/25/2020 1:15:00 AM 1.67 35.006 0.009 5.36 102.06 13.1
12/25/2020 1:30:00 AM 1.72 35.096 0.009 5.32 109.47 13.09
12/25/2020 1:45:00 AM 1.8 35.24 0.008 5.32 110.89 13.06
12/25/2020 2:00:00 AM 1.91 35.438 0.008 5.27 108.59 13.03
12/25/2020 2:15:00 AM 1.97 35.546 0.009 5.29 134.78 13.01
12/25/2020 2:30:00 AM 2.03 35.654 0.008 5.28 101.03 12.98
12/25/2020 2:45:00 AM 2.07 35.726 0.009 5.29 155.6 12.97
12/25/2020 3:00:00 AM 2.11 35.798 0.007 5.25 603.81 12.96
12/25/2020 3:15:00 AM 2.14 35.852 0.008 5.25 288.15 12.96
12/25/2020 3:30:00 AM 2.17 35.906 0.008 5.26 318.54 12.95
12/25/2020 3:45:00 AM 2.2 35.96 0.007 5.24 631.94 12.94
12/25/2020 4:00:00 AM 2.23 36.014 0.007 5.24 1038.4 12.93
12/25/2020 4:15:00 AM 2.27 36.086 0.007 5.22 917.31 12.92
12/25/2020 4:30:00 AM 2.29 36.122 0.007 5.23 301.87 12.91
12/25/2020 4:45:00 AM 2.31 36.158 0.007 5.22 344.8 12.91
12/25/2020 5:00:00 AM 2.33 36.194 0.007 5.21 322.65 12.9
12/25/2020 5:15:00 AM 2.35 36.23 0.007 5.19 371 12.89
12/25/2020 5:30:00 AM 2.36 36.248 0.007 5.19 195.11 12.88
12/25/2020 5:45:00 AM 2.38 36.284 0.007 5.16 473.72 12.87
12/25/2020 6:00:00 AM 2.39 36.302 0.006 5.14 384.09 12.86
12/25/2020 6:15:00 AM 2.4 36.32 0.007 5.16 805.81 12.85
12/25/2020 6:30:00 AM 2.4 36.32 0.007 5.14 807.19 12.85
12/25/2020 6:45:00 AM 2.4 36.32 0.007 5.12 2464.14 12.84
12/25/2020 7:00:00 AM 2.41 36.338 0.006 5.13 1375.38 12.84
12/25/2020 7:15:00 AM 2.41 36.338 0.007 5.13 3380.15 12.84
12/25/2020 7:30:00 AM 2.41 36.338 0.007 5.11 3125.18 12.83
12/25/2020 7:45:00 AM 2.41 36.338 0.007 5.09 3266.7 12.83
12/25/2020 8:00:00 AM 2.41 36.338 0.007 5.11 3186.51 12.83
12/25/2020 8:15:00 AM 2.41 36.338 0.006 5.12 6408.02 12.84
12/25/2020 8:30:00 AM 2.4 36.32 0.006 5.11 123.71 12.83
12/25/2020 8:45:00 AM 2.4 36.32 0.006 5.14 256.81 12.83
12/25/2020 9:00:00 AM 2.39 36.302 0.006 5.15 27.91 12.83
12/25/2020 9:15:00 AM 2.39 36.302 0.007 5.14 31.62 12.83
12/25/2020 9:30:00 AM 2.38 36.284 0.006 5.16 47.55 12.83
12/25/2020 9:45:00 AM 2.38 36.284 0.007 5.17 29.64 12.84
12/25/2020 10:00:00 AM 2.38 36.284 0.007 5.17 40.95 12.84
12/25/2020 10:15:00 AM 2.38 36.284 0.007 5.16 184.09 12.84
12/25/2020 10:30:00 AM 2.38 36.284 0.007 5.13 28.23 12.84
12/25/2020 10:45:00 AM 2.38 36.284 0.007 5.12 24.69 12.84
12/25/2020 11:00:00 AM 2.38 36.284 0.008 5.12 37.83 12.84
12/25/2020 11:15:00 AM 2.39 36.302 0.008 5.11 34.07 12.84
12/25/2020 11:30:00 AM 2.39 36.302 0.009 5.12 29.57 12.84
12/25/2020 11:45:00 AM 2.39 36.302 0.011 5.12 30.81 12.84
12/25/2020 12:00:00 PM 2.4 36.32 0.012 5.11 21.25 12.84
12/25/2020 12:15:00 PM 2.4 36.32 0.012 5.12 33.41 12.85
12/25/2020 12:30:00 PM 2.39 36.302 0.012 5.13 20.4 12.84
12/25/2020 12:45:00 PM 2.39 36.302 0.011 5.13 24.71 12.84
12/25/2020 1:00:00 PM 2.39 36.302 0.011 5.13 24.38 12.84
12/25/2020 1:15:00 PM 2.37 36.266 0.011 5.13 30.83 12.84
12/25/2020 1:30:00 PM 2.37 36.266 0.009 5.13 24.17 12.84
12/25/2020 1:45:00 PM 2.38 36.284 0.008 5.13 23.4 12.85
12/25/2020 2:00:00 PM 2.38 36.284 0.014 5.15 25.53 12.85
12/25/2020 2:15:00 PM 2.37 36.266 0.015 5.13 27.27 12.86
12/25/2020 2:30:00 PM 2.37 36.266 0.015 5.14 22.84 12.87
12/25/2020 2:45:00 PM 2.37 36.266 0.014 5.15 21.85 12.86
12/25/2020 3:00:00 PM 2.35 36.23 0.015 5.16 22.92 12.87
12/25/2020 3:15:00 PM 2.33 36.194 0.014 5.18 21.28 12.87
12/25/2020 3:30:00 PM 2.33 36.194 0.015 5.18 19.32 12.88
12/25/2020 3:45:00 PM 2.32 36.176 0.014 5.17 15.48 12.88
12/25/2020 4:00:00 PM 2.31 36.158 0.014 5.18 21.65 12.89
12/25/2020 4:15:00 PM 2.29 36.122 0.015 5.17 22.61 12.89
12/25/2020 4:30:00 PM 2.28 36.104 0.014 5.17 20.59 12.91
12/25/2020 4:45:00 PM 2.26 36.068 0.014 5.18 17.41 12.91
12/25/2020 5:00:00 PM 2.23 36.014 0.014 5.16 18.07 12.93
12/25/2020 5:15:00 PM 2.21 35.978 0.015 5.17 29.26 12.94
12/25/2020 5:30:00 PM 2.19 35.942 0.014 5.19 13.75 12.95
12/25/2020 5:45:00 PM 2.16 35.888 0.015 5.19 20.73 12.95
12/25/2020 6:00:00 PM 2.14 35.852 0.014 5.21 17 12.96
12/25/2020 6:15:00 PM 2.12 35.816 0.015 5.21 16.52 12.97
12/25/2020 6:30:00 PM 2.09 35.762 0.014 5.22 12.67 12.99
12/25/2020 6:45:00 PM 2.06 35.708 0.014 5.21 15.49 13
12/25/2020 7:00:00 PM 2.03 35.654 0.014 5.24 15.91 13.01
12/25/2020 7:15:00 PM 2 35.6 0.014 5.24 15.46 13.02
12/25/2020 7:30:00 PM 1.96 35.528 0.014 5.24 14.84 13.04
12/25/2020 7:45:00 PM 1.92 35.456 0.014 5.25 14.35 13.05
12/25/2020 8:00:00 PM 1.88 35.384 0.015 5.26 14.06 13.07
12/25/2020 8:15:00 PM 1.85 35.33 0.014 5.26 13.99 13.08
12/25/2020 8:30:00 PM 1.81 35.258 0.014 5.26 13.31 13.1
12/25/2020 8:45:00 PM 1.77 35.186 0.015 5.27 13.63 13.12
12/25/2020 9:00:00 PM 1.73 35.114 0.014 5.28 13.61 13.13
12/25/2020 9:15:00 PM 1.69 35.042 0.014 5.29 13.28 13.15
12/25/2020 9:30:00 PM 1.65 34.97 0.015 5.28 13.14 13.16
12/25/2020 9:45:00 PM 1.62 34.916 0.014 5.29 12.42 13.18
12/25/2020 10:00:00 PM 1.58 34.844 0.015 5.28 12.21 13.19
12/25/2020 10:15:00 PM 1.54 34.772 0.015 5.3 12.04 13.21
12/25/2020 10:30:00 PM 1.5 34.7 0.014 5.3 12.57 13.23
12/25/2020 10:45:00 PM 1.47 34.646 0.015 5.3 11.84 13.25
12/25/2020 11:00:00 PM 1.42 34.556 0.015 5.3 11.17 13.27
12/25/2020 11:15:00 PM 1.38 34.484 0.016 5.31 11.21 13.28
12/25/2020 11:30:00 PM 1.34 34.412 0.015 5.31 10.92 13.3
12/25/2020 11:45:00 PM 1.3 34.34 0.015 5.32 11.3 13.32
12/26/2020 12:00:00 AM 1.25 34.25 0.015 5.31 10.7 13.33
12/26/2020 12:15:00 AM 1.22 34.196 0.014 5.33 10.75 13.35
12/26/2020 12:30:00 AM 1.19 34.142 0.015 5.32 10.49 13.37
12/26/2020 12:45:00 AM 1.14 34.052 0.014 5.32 10.37 13.38
12/26/2020 1:00:00 AM 1.1 33.98 0.015 5.32 10.36 13.4
12/26/2020 1:15:00 AM 1.06 33.908 0.015 5.32 10.24 13.41
12/26/2020 1:30:00 AM 1.01 33.818 0.015 5.33 9.56 13.43
12/26/2020 1:45:00 AM 0.97 33.746 0.014 5.34 9.72 13.44
12/26/2020 2:00:00 AM 0.93 33.674 0.015 5.34 9.63 13.46
12/26/2020 2:15:00 AM 0.9 33.62 0.015 5.36 9.5 13.47
12/26/2020 2:30:00 AM 0.87 33.566 0.015 5.34 9.3 13.49
12/26/2020 2:45:00 AM 0.83 33.494 0.015 5.36 9.25 13.5
12/26/2020 3:00:00 AM 0.8 33.44 0.015 5.36 9.24 13.52
12/26/2020 3:15:00 AM 0.77 33.386 0.015 5.36 9.16 13.53
12/26/2020 3:30:00 AM 0.74 33.332 0.014 5.36 9 13.55
12/26/2020 3:45:00 AM 0.7 33.26 0.015 5.35 8.91 13.56
12/26/2020 4:00:00 AM 0.66 33.188 0.015 5.37 8.82 13.58
12/26/2020 4:15:00 AM 0.64 33.152 0.015 5.37 8.77 13.59
12/26/2020 4:30:00 AM 0.6 33.08 0.015 5.37 8.39 13.61
12/26/2020 4:45:00 AM 0.57 33.026 0.015 5.37 8.21 13.62
12/26/2020 5:00:00 AM 0.54 32.972 0.015 5.38 8.1 13.64
12/26/2020 5:15:00 AM 0.51 32.918 0.015 5.38 8.34 13.65
12/26/2020 5:30:00 AM 0.49 32.882 0.015 5.37 8.04 13.67
12/26/2020 5:45:00 AM 0.46 32.828 0.015 5.38 8.21 13.68
12/26/2020 6:00:00 AM 0.44 32.792 0.015 5.4 8.19 13.68
12/26/2020 6:15:00 AM 0.42 32.756 0.015 5.4 8.04 13.69
12/26/2020 6:30:00 AM 0.4 32.72 0.015 5.39 7.84 13.7
12/26/2020 6:45:00 AM 0.38 32.684 0.015 5.39 7.84 13.72
12/26/2020 7:00:00 AM 0.36 32.648 0.015 5.4 7.39 13.73
12/26/2020 7:15:00 AM 0.34 32.612 0.015 5.4 7.3 13.74
12/26/2020 7:30:00 AM 0.32 32.576 0.015 5.4 7.14 13.75
12/26/2020 7:45:00 AM 0.3 32.54 0.016 5.41 7.01 13.76
12/26/2020 8:00:00 AM 0.28 32.504 0.015 5.42 7.19 13.77
12/26/2020 8:15:00 AM 0.27 32.486 0.015 5.43 7.03 13.78
12/26/2020 8:30:00 AM 0.26 32.468 0.016 5.42 7.41 13.79
12/26/2020 8:45:00 AM 0.26 32.468 0.016 5.44 7.07 13.79
12/26/2020 9:00:00 AM 0.25 32.45 0.016 5.45 7.04 13.8
12/26/2020 9:15:00 AM 0.26 32.468 0.017 5.45 7.02 13.8
12/26/2020 9:30:00 AM 0.26 32.468 0.016 5.43 6.89 13.8
12/26/2020 9:45:00 AM 0.27 32.486 0.016 5.45 6.94 13.81
12/26/2020 10:00:00 AM 0.28 32.504 0.016 5.46 6.71 13.81
12/26/2020 10:15:00 AM 0.29 32.522 0.016 5.46 6.48 13.81
12/26/2020 10:30:00 AM 0.3 32.54 0.016 5.47 6.61 13.81
12/26/2020 10:45:00 AM 0.32 32.576 0.015 5.48 6.57 13.8
12/26/2020 11:00:00 AM 0.33 32.594 0.016 5.46 6.75 13.8
12/26/2020 11:15:00 AM 0.34 32.612 0.015 5.48 6.44 13.8
12/26/2020 11:30:00 AM 0.36 32.648 0.015 5.49 6.8 13.79
12/26/2020 11:45:00 AM 0.37 32.666 0.014 5.49 6.86 13.79
12/26/2020 12:00:00 PM 0.38 32.684 0.015 5.51 6.41 13.79
12/26/2020 12:15:00 PM 0.39 32.702 0.016 5.49 6.33 13.78
12/26/2020 12:30:00 PM 0.41 32.738 0.016 5.51 6.26 13.77
12/26/2020 12:45:00 PM 0.42 32.756 0.016 5.51 6.19 13.77
12/26/2020 1:00:00 PM 0.43 32.774 0.016 5.51 6.19 13.76
12/26/2020 1:15:00 PM 0.44 32.792 0.015 5.51 6.18 13.76
12/26/2020 1:30:00 PM 0.44 32.792 0.017 5.53 6.38 13.76
12/26/2020 1:45:00 PM 0.46 32.828 0.017 5.52 6.52 13.75
12/26/2020 2:00:00 PM 0.48 32.864 0.016 5.53 6.26 13.75
12/26/2020 2:15:00 PM 0.49 32.882 0.018 5.53 6 13.74
12/26/2020 2:30:00 PM 0.49 32.882 0.016 5.54 6.15 13.74
12/26/2020 2:45:00 PM 0.49 32.882 0.016 5.55 6.23 13.74
12/26/2020 3:00:00 PM 0.48 32.864 0.016 5.55 6 13.74
12/26/2020 3:15:00 PM 0.46 32.828 0.016 5.56 6.56 13.74
12/26/2020 3:30:00 PM 0.46 32.828 0.015 5.55 6.34 13.73
12/26/2020 3:45:00 PM 0.45 32.81 0.016 5.57 6.08 13.74
12/26/2020 4:00:00 PM 0.43 32.774 0.017 5.57 5.95 13.74
12/26/2020 4:15:00 PM 0.42 32.756 0.016 5.56 5.91 13.75
12/26/2020 4:30:00 PM 0.41 32.738 0.015 5.57 5.8 13.75
12/26/2020 4:45:00 PM 0.39 32.702 0.015 5.58 5.8 13.75
12/26/2020 5:00:00 PM 0.38 32.684 0.015 5.58 5.81 13.75
12/26/2020 5:15:00 PM 0.36 32.648 0.016 5.58 5.76 13.77
12/26/2020 5:30:00 PM 0.35 32.63 0.015 5.59 5.58 13.77
12/26/2020 5:45:00 PM 0.33 32.594 0.016 5.6 5.74 13.78
12/26/2020 6:00:00 PM 0.32 32.576 0.017 5.61 5.64 13.79
12/26/2020 6:15:00 PM 0.31 32.558 0.017 5.6 5.57 13.79
12/26/2020 6:30:00 PM 0.3 32.54 0.016 5.61 5.55 13.8
12/26/2020 6:45:00 PM 0.28 32.504 0.017 5.62 5.63 13.81
12/26/2020 7:00:00 PM 0.25 32.45 0.017 5.61 5.46 13.82
12/26/2020 7:15:00 PM 0.22 32.396 0.017 5.61 5.49 13.83
12/26/2020 7:30:00 PM 0.2 32.36 0.018 5.61 5.41 13.84
12/26/2020 7:45:00 PM 0.17 32.306 0.017 5.62 5.49 13.85
12/26/2020 8:00:00 PM 0.14 32.252 0.016 5.63 5.48 13.86
12/26/2020 8:15:00 PM 0.11 32.198 0.017 5.62 5.53 13.88
12/26/2020 8:30:00 PM 0.08 32.144 0.016 5.63 5.22 13.89
12/26/2020 8:45:00 PM 0.06 32.108 0.017 5.64 5.36 13.9
12/26/2020 9:00:00 PM 0.03 32.054 0.016 5.63 5.42 13.92
12/26/2020 9:15:00 PM 0 32 0.017 5.63 5.3 13.93
12/26/2020 9:30:00 PM -0.02 31.964 0.017 5.64 5.28 13.94
12/26/2020 9:45:00 PM -0.04 31.928 0.017 5.64 5.1 13.95
12/26/2020 10:00:00 PM -0.05 31.91 0.017 5.65 5.23 13.96
12/26/2020 10:15:00 PM -0.05 31.91 0.018 5.65 5.47 13.97
12/26/2020 10:30:00 PM -0.04 31.928 0.018 5.66 5.23 13.97
12/26/2020 10:45:00 PM -0.03 31.946 0.017 5.68 5.03 13.97
12/26/2020 11:00:00 PM -0.02 31.964 0.017 5.67 4.94 13.98
12/26/2020 11:15:00 PM -0.01 31.982 0.018 5.66 5.02 13.98
12/26/2020 11:30:00 PM -0.01 31.982 0.017 5.67 5.03 13.97
12/26/2020 11:45:00 PM 0 32 0.017 5.68 4.81 13.97
12/27/2020 12:00:00 AM 0 32 0.018 5.68 4.95 13.98
12/27/2020 12:15:00 AM 0 32 0.016 5.69 5.09 13.97
12/27/2020 12:30:00 AM 0.01 32.018 0.017 5.69 4.92 13.97
12/27/2020 12:45:00 AM 0.02 32.036 0.017 5.7 5 13.97
12/27/2020 1:00:00 AM 0.02 32.036 0.017 5.69 4.89 13.98
12/27/2020 1:15:00 AM 0.03 32.054 0.018 5.7 4.94 13.97
12/27/2020 1:30:00 AM 0.03 32.054 0.017 5.7 4.91 13.97
12/27/2020 1:45:00 AM 0.03 32.054 0.017 5.7 4.98 13.98
12/27/2020 2:00:00 AM 0.03 32.054 0.017 5.71 4.99 13.98
12/27/2020 2:15:00 AM 0.04 32.072 0.017 5.72 4.86 13.98
12/27/2020 2:30:00 AM 0.04 32.072 0.017 5.72 4.82 13.98
12/27/2020 2:45:00 AM 0.05 32.09 0.018 5.72 4.98 13.98
12/27/2020 3:00:00 AM 0.05 32.09 0.018 5.73 5.06 13.98
12/27/2020 3:15:00 AM 0.04 32.072 0.017 5.73 5.2 13.98
12/27/2020 3:30:00 AM 0.04 32.072 0.017 5.74 5.25 13.99
12/27/2020 3:45:00 AM 0.05 32.09 0.017 5.74 5.06 13.99
12/27/2020 4:00:00 AM 0.05 32.09 0.017 5.74 5.38 13.99
12/27/2020 4:15:00 AM 0.05 32.09 0.018 5.74 5.66 13.99
12/27/2020 4:30:00 AM 0.05 32.09 0.017 5.75 5.72 14
12/27/2020 4:45:00 AM 0.05 32.09 0.018 5.75 7.87 14
12/27/2020 5:00:00 AM 0.05 32.09 0.018 5.76 6.53 14
12/27/2020 5:15:00 AM 0.05 32.09 0.018 5.75 5.65 14
12/27/2020 5:30:00 AM 0.06 32.108 0.017 5.76 5.63 14
12/27/2020 5:45:00 AM 0.07 32.126 0.018 5.76 5.41 14.01
12/27/2020 6:00:00 AM 0.07 32.126 0.018 5.77 5.49 14.01
12/27/2020 6:15:00 AM 0.07 32.126 0.017 5.76 5.62 14.01
12/27/2020 6:30:00 AM 0.08 32.144 0.018 5.76 5.52 14.01
12/27/2020 6:45:00 AM 0.08 32.144 0.018 5.77 5.94 14.02
12/27/2020 7:00:00 AM 0.08 32.144 0.018 5.78 5.87 14.02
12/27/2020 7:15:00 AM 0.08 32.144 0.017 5.78 5.67 14.02
12/27/2020 7:30:00 AM 0.09 32.162 0.018 5.78 5.7 14.02
12/27/2020 7:45:00 AM 0.09 32.162 0.019 5.78 5.74 14.02
12/27/2020 8:00:00 AM 0.09 32.162 0.017 5.78 5.53 14.02
12/27/2020 8:15:00 AM 0.1 32.18 0.018 5.79 5.1 14.02
12/27/2020 8:30:00 AM 0.12 32.216 0.018 5.79 4.94 14.02
12/27/2020 8:45:00 AM 0.13 32.234 0.018 5.79 5.08 14.02
12/27/2020 9:00:00 AM 0.15 32.27 0.017 5.8 5 14.02
12/27/2020 9:15:00 AM 0.16 32.288 0.018 5.8 4.99 14.02
12/27/2020 9:30:00 AM 0.19 32.342 0.018 5.8 4.77 14.02
12/27/2020 9:45:00 AM 0.23 32.414 0.018 5.81 4.87 14.01
12/27/2020 10:00:00 AM 0.26 32.468 0.018 5.81 4.79 14
12/27/2020 10:15:00 AM 0.29 32.522 0.018 5.81 5.11 13.99
12/27/2020 10:30:00 AM 0.33 32.594 0.018 5.81 4.78 13.99
12/27/2020 10:45:00 AM 0.37 32.666 0.017 5.8 4.79 13.98
12/27/2020 11:00:00 AM 0.42 32.756 0.017 5.81 4.65 13.97
12/27/2020 11:15:00 AM 0.47 32.846 0.018 5.82 4.81 13.94
12/27/2020 11:30:00 AM 0.51 32.918 0.018 5.82 4.78 13.93
12/27/2020 11:45:00 AM 0.55 32.99 0.018 5.83 4.93 13.91
12/27/2020 12:00:00 PM 0.59 33.062 0.018 5.83 4.72 13.89
12/27/2020 12:15:00 PM 0.63 33.134 0.018 5.84 4.52 13.88
12/27/2020 12:30:00 PM 0.68 33.224 0.017 5.83 4.67 13.86
12/27/2020 12:45:00 PM 0.72 33.296 0.018 5.84 4.77 13.84
12/27/2020 1:00:00 PM 0.74 33.332 0.017 5.84 4.74 13.83
12/27/2020 1:15:00 PM 0.75 33.35 0.018 5.85 4.78 13.83
12/27/2020 1:30:00 PM 0.77 33.386 0.017 5.84 4.68 13.82
12/27/2020 1:45:00 PM 0.79 33.422 0.019 5.85 4.66 13.81
12/27/2020 2:00:00 PM 0.8 33.44 0.019 5.86 4.87 13.81
12/27/2020 2:15:00 PM 0.82 33.476 0.019 5.87 4.9 13.8
12/27/2020 2:30:00 PM 0.79 33.422 0.017 5.86 4.73 13.8
12/27/2020 2:45:00 PM 0.78 33.404 0.018 5.86 4.51 13.79
12/27/2020 3:00:00 PM 0.78 33.404 0.018 5.86 4.56 13.78
12/27/2020 3:15:00 PM 0.78 33.404 0.019 5.86 4.66 13.77
12/27/2020 3:30:00 PM 0.78 33.404 0.018 5.87 4.86 13.76
12/27/2020 3:45:00 PM 0.78 33.404 0.018 5.87 4.6 13.76
12/27/2020 4:00:00 PM 0.78 33.404 0.018 5.87 4.52 13.76
12/27/2020 4:15:00 PM 0.78 33.404 0.018 5.88 4.51 13.76
12/27/2020 4:30:00 PM 0.78 33.404 0.018 5.87 4.45 13.75
12/27/2020 4:45:00 PM 0.78 33.404 0.019 5.88 4.48 13.75
12/27/2020 5:00:00 PM 0.78 33.404 0.019 5.88 4.45 13.74
12/27/2020 5:15:00 PM 0.77 33.386 0.018 5.88 4.89 13.74
12/27/2020 5:30:00 PM 0.76 33.368 0.019 5.88 4.53 13.74
12/27/2020 5:45:00 PM 0.75 33.35 0.018 5.89 4.53 13.73
12/27/2020 6:00:00 PM 0.74 33.332 0.019 5.89 4.53 13.74
12/27/2020 6:15:00 PM 0.73 33.314 0.019 5.89 4.51 13.74
12/27/2020 6:30:00 PM 0.72 33.296 0.019 5.89 4.5 13.74
12/27/2020 6:45:00 PM 0.71 33.278 0.019 5.89 4.57 13.74
12/27/2020 7:00:00 PM 0.7 33.26 0.019 5.89 4.45 13.75
12/27/2020 7:15:00 PM 0.69 33.242 0.019 5.89 4.48 13.76
12/27/2020 7:30:00 PM 0.69 33.242 0.019 5.9 4.3 13.75
12/27/2020 7:45:00 PM 0.68 33.224 0.018 5.89 4.5 13.76
12/27/2020 8:00:00 PM 0.68 33.224 0.019 5.9 4.45 13.76
12/27/2020 8:15:00 PM 0.67 33.206 0.019 5.91 4.36 13.76
12/27/2020 8:30:00 PM 0.66 33.188 0.018 5.9 4.23 13.77
12/27/2020 8:45:00 PM 0.64 33.152 0.018 5.9 4.45 13.77
12/27/2020 9:00:00 PM 0.63 33.134 0.018 5.9 4.44 13.78
12/27/2020 9:15:00 PM 0.62 33.116 0.018 5.91 4.4 13.78
12/27/2020 9:30:00 PM 0.6 33.08 0.018 5.91 4.39 13.79
12/27/2020 9:45:00 PM 0.59 33.062 0.018 5.9 4.43 13.8
12/27/2020 10:00:00 PM 0.58 33.044 0.019 5.91 4.26 13.8
12/27/2020 10:15:00 PM 0.58 33.044 0.019 5.9 4.33 13.8
12/27/2020 10:30:00 PM 0.57 33.026 0.018 5.92 4.24 13.8
12/27/2020 10:45:00 PM 0.56 33.008 0.019 5.92 4.27 13.81
12/27/2020 11:00:00 PM 0.56 33.008 0.019 5.93 4.1 13.81
12/27/2020 11:15:00 PM 0.54 32.972 0.018 5.92 4.15 13.81
12/27/2020 11:30:00 PM 0.54 32.972 0.02 5.92 4.19 13.81
12/27/2020 11:45:00 PM 0.53 32.954 0.02 5.92 4.07 13.82
12/28/2020 12:00:00 AM 0.53 32.954 0.02 5.93 4.12 13.81
12/28/2020 12:15:00 AM 0.53 32.954 0.019 5.93 4.16 13.81
12/28/2020 12:30:00 AM 0.52 32.936 0.019 5.93 4.06 13.82
12/28/2020 12:45:00 AM 0.52 32.936 0.02 5.94 3.88 13.81
12/28/2020 1:00:00 AM 0.51 32.918 0.02 5.93 4.09 13.81
12/28/2020 1:15:00 AM 0.52 32.936 0.018 5.94 3.97 13.81
12/28/2020 1:30:00 AM 0.52 32.936 0.02 5.94 4.02 13.81
12/28/2020 1:45:00 AM 0.52 32.936 0.02 5.93 4.01 13.81
12/28/2020 2:00:00 AM 0.51 32.918 0.019 5.94 4.05 13.8
12/28/2020 2:15:00 AM 0.5 32.9 0.018 5.93 4.16 13.8
12/28/2020 2:30:00 AM 0.51 32.918 0.02 5.96 4.27 13.8
12/28/2020 2:45:00 AM 0.51 32.918 0.019 5.95 3.96 13.8
12/28/2020 3:00:00 AM 0.51 32.918 0.019 5.95 4.07 13.8
12/28/2020 3:15:00 AM 0.5 32.9 0.019 5.96 4.01 13.79
12/28/2020 3:30:00 AM 0.5 32.9 0.02 5.96 4.02 13.79
12/28/2020 3:45:00 AM 0.51 32.918 0.019 5.96 4 13.79
12/28/2020 4:00:00 AM 0.52 32.936 0.021 5.97 4.04 13.78
12/28/2020 4:15:00 AM 0.52 32.936 0.02 5.96 3.95 13.78
12/28/2020 4:30:00 AM 0.53 32.954 0.018 5.96 4.09 13.77
12/28/2020 4:45:00 AM 0.54 32.972 0.02 5.96 3.96 13.77
12/28/2020 5:00:00 AM 0.55 32.99 0.018 5.97 3.9 13.76
12/28/2020 5:15:00 AM 0.56 33.008 0.02 5.97 4.07 13.76
12/28/2020 5:30:00 AM 0.58 33.044 0.02 5.98 4.04 13.75
12/28/2020 5:45:00 AM 0.59 33.062 0.02 5.97 3.9 13.75
12/28/2020 6:00:00 AM 0.61 33.098 0.019 5.97 3.72 13.74
12/28/2020 6:15:00 AM 0.62 33.116 0.02 5.97 3.74 13.74
12/28/2020 6:30:00 AM 0.59 33.062 0.02 5.97 3.85 13.74
12/28/2020 6:45:00 AM 0.59 33.062 0.019 5.97 3.9 13.73
12/28/2020 7:00:00 AM 0.61 33.098 0.021 5.97 3.97 13.73
12/28/2020 7:15:00 AM 0.63 33.134 0.02 5.97 3.88 13.73
12/28/2020 7:30:00 AM 0.65 33.17 0.02 5.98 3.81 13.73
12/28/2020 7:45:00 AM 0.67 33.206 0.019 5.98 4.05 13.72
12/28/2020 8:00:00 AM 0.68 33.224 0.02 5.98 3.93 13.72
12/28/2020 8:15:00 AM 0.72 33.296 0.02 5.98 3.73 13.71
12/28/2020 8:30:00 AM 0.74 33.332 0.02 5.98 3.93 13.71
12/28/2020 8:45:00 AM 0.78 33.404 0.019 5.97 3.82 13.7
12/28/2020 9:00:00 AM 0.8 33.44 0.02 5.98 3.9 13.69
12/28/2020 9:15:00 AM 0.83 33.494 0.019 5.98 3.82 13.68